Provisional Data: Chemung River at West Elmira, NY


Please select a monitoring station.
Please select start date.
Please select start date.

Toggle Unit: C/F Toggle Unit: C/F
Sample Time Temperature (C) Temperature (F) Specific Conductivity (mS/cm) pH   Turbidity (NTU+) DO (mg/L)
12/4/2020 12:00:00 AM 3.62 38.516 0.346 7.89 4.21 13.34
12/4/2020 12:15:00 AM 3.62 38.516 0.346 7.89 4.06 13.33
12/4/2020 12:30:00 AM 3.61 38.498 0.345 7.88 4.12 13.29
12/4/2020 12:45:00 AM 3.62 38.516 0.346 7.87 4.29 13.27
12/4/2020 1:00:00 AM 3.62 38.516 0.346 7.87 4.07 13.27
12/4/2020 1:15:00 AM 3.62 38.516 0.346 7.87 4.12 13.25
12/4/2020 1:30:00 AM 3.62 38.516 0.346 7.86 4.13 13.21
12/4/2020 1:45:00 AM 3.63 38.534 0.346 7.86 4.08 13.22
12/4/2020 2:00:00 AM 3.63 38.534 0.346 7.86 4.24 13.19
12/4/2020 2:15:00 AM 3.63 38.534 0.346 7.85 4.25 13.19
12/4/2020 2:30:00 AM 3.63 38.534 0.346 7.85 4.23 13.16
12/4/2020 2:45:00 AM 3.64 38.552 0.346 7.84 4.08 13.14
12/4/2020 3:00:00 AM 3.64 38.552 0.346 7.84 4.22 13.12
12/4/2020 3:15:00 AM 3.64 38.552 0.346 7.83 4.28 13.13
12/4/2020 3:30:00 AM 3.64 38.552 0.346 7.83 4.17 13.09
12/4/2020 3:45:00 AM 3.64 38.552 0.346 7.82 4.3 13.06
12/4/2020 4:00:00 AM 3.64 38.552 0.346 7.82 4.19 13.04
12/4/2020 4:15:00 AM 3.65 38.57 0.346 7.81 4.25 13.03
12/4/2020 4:30:00 AM 3.64 38.552 0.346 7.8 4.31 13.01
12/4/2020 4:45:00 AM 3.64 38.552 0.346 7.8 4.36 12.98
12/4/2020 5:00:00 AM 3.64 38.552 0.346 7.79 4.23 12.99
12/4/2020 5:15:00 AM 3.64 38.552 0.346 7.79 4.44 12.98
12/4/2020 5:30:00 AM 3.65 38.57 0.345 7.78 4.08 12.95
12/4/2020 5:45:00 AM 3.64 38.552 0.346 7.77 4.06 12.93
12/4/2020 6:00:00 AM 3.65 38.57 0.346 7.77 4.19 12.92
12/4/2020 6:15:00 AM 3.65 38.57 0.346 7.76 4.1 12.89
12/4/2020 6:30:00 AM 3.65 38.57 0.346 7.75 4.39 12.88
12/4/2020 6:45:00 AM 3.65 38.57 0.346 7.75 4.18 12.88
12/4/2020 7:00:00 AM 3.65 38.57 0.346 7.74 4.25 12.85
12/4/2020 7:15:00 AM 3.65 38.57 0.346 7.73 4.65 12.83
12/4/2020 7:30:00 AM 3.66 38.588 0.346 7.73 4.49 12.82
12/4/2020 7:45:00 AM 3.66 38.588 0.345 7.72 4.34 12.81
12/4/2020 8:00:00 AM 3.66 38.588 0.346 7.72 4.79 12.8
12/4/2020 8:15:00 AM 3.66 38.588 0.345 7.72 4.76 12.8
12/4/2020 8:30:00 AM 3.67 38.606 0.345 7.72 4.92 12.81
12/4/2020 8:45:00 AM 3.68 38.624 0.345 7.72 4.53 12.83
12/4/2020 9:00:00 AM 3.69 38.642 0.345 7.72 5.15 12.84
12/4/2020 9:15:00 AM 3.71 38.678 0.345 7.73 4.35 12.89
12/4/2020 9:30:00 AM 3.73 38.714 0.345 7.73 4.33 12.93
12/4/2020 9:45:00 AM 3.76 38.768 0.344 7.75 4.31 12.98
12/4/2020 10:00:00 AM 3.79 38.822 0.344 7.76 4.1 13.02
12/4/2020 10:15:00 AM 3.83 38.894 0.344 7.77 4.46 13.1
12/4/2020 10:30:00 AM 3.86 38.948 0.343 7.78 4.12 13.15
12/4/2020 10:45:00 AM 3.91 39.038 0.343 7.8 4.16 13.21
12/4/2020 11:00:00 AM 3.95 39.11 0.343 7.81 4.05 13.3
12/4/2020 11:15:00 AM 4 39.2 0.343 7.83 4.13 13.34
12/4/2020 11:30:00 AM 4.05 39.29 0.342 7.84 4.27 13.39
12/4/2020 11:45:00 AM 4.09 39.362 0.342 7.86 4.38 13.45
12/4/2020 12:00:00 PM 4.13 39.434 0.342 7.88 4.17 13.52
12/4/2020 12:15:00 PM 4.16 39.488 0.341 7.89 4.1 13.56
12/4/2020 12:30:00 PM 4.2 39.56 0.341 7.9 4.1 13.6
12/4/2020 12:45:00 PM 4.23 39.614 0.34 7.92 4.1 13.62
12/4/2020 1:00:00 PM 4.27 39.686 0.34 7.94 4.11 13.71
12/4/2020 1:15:00 PM 4.3 39.74 0.339 7.95 4.11 13.75
12/4/2020 1:30:00 PM 4.34 39.812 0.339 7.96 4.03 13.75
12/4/2020 1:45:00 PM 4.36 39.848 0.339 7.98 4.64 13.85
12/4/2020 2:00:00 PM 4.38 39.884 0.339 7.98 4.17 13.82
12/4/2020 2:15:00 PM 4.4 39.92 0.338 7.99 4.31 13.84
12/4/2020 2:30:00 PM 4.41 39.938 0.338 8 4.26 13.86
12/4/2020 2:45:00 PM 4.42 39.956 0.338 8.01 4.1 13.89
12/4/2020 3:00:00 PM 4.43 39.974 0.337 8.01 4.36 13.89
12/4/2020 3:15:00 PM 4.44 39.992 0.337 8.02 4.17 13.85
12/4/2020 3:30:00 PM 4.45 40.01 0.336 8.03 4.19 13.88
12/4/2020 3:45:00 PM 4.45 40.01 0.336 8.02 4.02 13.87
12/4/2020 4:00:00 PM 4.46 40.028 0.336 8.03 4.09 13.87
12/4/2020 4:15:00 PM 4.46 40.028 0.336 8.04 4.06 13.87
12/4/2020 4:30:00 PM 4.47 40.046 0.335 8.04 4.1 13.85
12/4/2020 4:45:00 PM 4.47 40.046 0.334 8.04 4.17 13.81
12/4/2020 5:00:00 PM 4.47 40.046 0.335 8.03 4.57 13.77
12/4/2020 5:15:00 PM 4.47 40.046 0.334 8.03 4.17 13.77
12/4/2020 5:30:00 PM 4.47 40.046 0.334 8.02 4.15 13.72
12/4/2020 5:45:00 PM 4.48 40.064 0.334 8.02 5.08 13.69
12/4/2020 6:00:00 PM 4.48 40.064 0.333 8.01 4.15 13.65
12/4/2020 6:15:00 PM 4.47 40.046 0.333 8.01 4 13.62
12/4/2020 6:30:00 PM 4.48 40.064 0.333 8 4.13 13.59
12/4/2020 6:45:00 PM 4.47 40.046 0.334 8 4.09 13.58
12/4/2020 7:00:00 PM 4.47 40.046 0.333 8 4.16 13.54
12/4/2020 7:15:00 PM 4.46 40.028 0.333 7.99 4.22 13.51
12/4/2020 7:30:00 PM 4.46 40.028 0.333 7.99 4 13.48
12/4/2020 7:45:00 PM 4.47 40.046 0.332 7.98 3.99 13.45
12/4/2020 8:00:00 PM 4.48 40.064 0.333 7.98 4.63 13.43
12/4/2020 8:15:00 PM 4.49 40.082 0.334 7.97 4.04 13.4
12/4/2020 8:30:00 PM 4.5 40.1 0.333 7.97 6.15 13.36
12/4/2020 8:45:00 PM 4.51 40.118 0.333 7.96 4.64 13.35
12/4/2020 9:00:00 PM 4.52 40.136 0.333 7.96 4.63 13.32
12/4/2020 9:15:00 PM 4.53 40.154 0.333 7.95 4.18 13.29
12/4/2020 9:30:00 PM 4.54 40.172 0.334 7.94 4.05 13.25
12/4/2020 9:45:00 PM 4.55 40.19 0.332 7.93 4.22 13.23
12/4/2020 10:00:00 PM 4.56 40.208 0.332 7.92 4.32 13.19
12/4/2020 10:15:00 PM 4.57 40.226 0.333 7.92 4.34 13.15
12/4/2020 10:30:00 PM 4.58 40.244 0.333 7.91 4.62 13.14
12/4/2020 10:45:00 PM 4.6 40.28 0.333 7.9 4.19 13.1
12/4/2020 11:00:00 PM 4.61 40.298 0.332 7.89 4.4 13.06
12/4/2020 11:15:00 PM 4.62 40.316 0.332 7.88 4.31 13.04
12/4/2020 11:30:00 PM 4.62 40.316 0.333 7.87 4.03 13.01
12/4/2020 11:45:00 PM 4.63 40.334 0.333 7.87 4.35 12.99
12/5/2020 12:00:00 AM 4.64 40.352 0.333 7.86 4.1 12.95
12/5/2020 12:15:00 AM 4.65 40.37 0.333 7.86 4.23 12.93
12/5/2020 12:30:00 AM 4.66 40.388 0.333 7.85 4.08 12.92
12/5/2020 12:45:00 AM 4.66 40.388 0.333 7.84 4.15 12.88
12/5/2020 1:00:00 AM 4.67 40.406 0.333 7.83 4.08 12.85
12/5/2020 1:15:00 AM 4.67 40.406 0.333 7.83 4 12.83
12/5/2020 1:30:00 AM 4.68 40.424 0.333 7.82 7.52 12.78
12/5/2020 1:45:00 AM 4.68 40.424 0.333 7.82 4.21 12.78
12/5/2020 2:00:00 AM 4.68 40.424 0.333 7.81 4.14 12.75
12/5/2020 2:15:00 AM 4.69 40.442 0.333 7.8 4.12 12.74
12/5/2020 2:30:00 AM 4.69 40.442 0.333 7.79 3.95 12.7
12/5/2020 2:45:00 AM 4.69 40.442 0.334 7.79 4.07 12.69
12/5/2020 3:00:00 AM 4.69 40.442 0.334 7.78 4.02 12.67
12/5/2020 3:15:00 AM 4.69 40.442 0.334 7.77 4.02 12.64
12/5/2020 3:30:00 AM 4.69 40.442 0.334 7.77 4.09 12.63
12/5/2020 3:45:00 AM 4.69 40.442 0.334 7.76 3.94 12.6
12/5/2020 4:00:00 AM 4.69 40.442 0.334 7.76 4 12.55
12/5/2020 4:15:00 AM 4.7 40.46 0.334 7.75 4.12 12.55
12/5/2020 4:30:00 AM 4.7 40.46 0.334 7.75 4 12.53
12/5/2020 4:45:00 AM 4.7 40.46 0.334 7.74 4.15 12.52
12/5/2020 5:00:00 AM 4.7 40.46 0.335 7.74 4.05 12.48
12/5/2020 5:15:00 AM 4.7 40.46 0.335 7.73 4.05 12.46
12/5/2020 5:30:00 AM 4.7 40.46 0.334 7.72 3.98 12.46
12/5/2020 5:45:00 AM 4.7 40.46 0.334 7.72 4.11 12.43
12/5/2020 6:00:00 AM 4.7 40.46 0.335 7.72 4.03 12.38
12/5/2020 6:15:00 AM 4.7 40.46 0.335 7.71 4.18 12.39
12/5/2020 6:30:00 AM 4.7 40.46 0.335 7.7 4 12.34
12/5/2020 6:45:00 AM 4.7 40.46 0.335 7.7 4.03 12.37
12/5/2020 7:00:00 AM 4.7 40.46 0.335 7.7 3.96 12.35
12/5/2020 7:15:00 AM 4.71 40.478 0.336 7.69 4.27 12.33
12/5/2020 7:30:00 AM 4.71 40.478 0.336 7.69 4.42 12.29
12/5/2020 7:45:00 AM 4.71 40.478 0.336 7.67 5.45 12.29
12/5/2020 8:00:00 AM 4.71 40.478 0.336 7.67 4.56 12.26
12/5/2020 8:15:00 AM 4.71 40.478 0.337 7.67 4.15 12.26
12/5/2020 8:30:00 AM 4.72 40.496 0.337 7.67 4.13 12.28
12/5/2020 8:45:00 AM 4.72 40.496 0.337 7.67 4.04 12.29
12/5/2020 9:00:00 AM 4.73 40.514 0.337 7.67 4.04 12.29
12/5/2020 9:15:00 AM 4.73 40.514 0.337 7.67 4.04 12.28
12/5/2020 9:30:00 AM 4.74 40.532 0.338 7.68 4.02 12.32
12/5/2020 9:45:00 AM 4.75 40.55 0.338 7.68 3.91 12.34
12/5/2020 10:00:00 AM 4.76 40.568 0.338 7.69 4.01 12.41
12/5/2020 10:15:00 AM 4.78 40.604 0.338 7.71 4.29 12.46
12/5/2020 10:30:00 AM 4.79 40.622 0.339 7.71 3.8 12.46
12/5/2020 10:45:00 AM 4.81 40.658 0.339 7.73 3.84 12.55
12/5/2020 11:00:00 AM 4.82 40.676 0.339 7.75 3.82 12.61
12/5/2020 11:15:00 AM 4.84 40.712 0.339 7.76 3.77 12.7
12/5/2020 11:30:00 AM 4.85 40.73 0.34 7.77 4.19 12.74
12/5/2020 11:45:00 AM 4.86 40.748 0.34 7.79 3.82 12.77
12/5/2020 12:00:00 PM 4.88 40.784 0.34 7.8 4.07 12.8
12/5/2020 12:15:00 PM 4.9 40.82 0.34 7.81 4.01 12.89
12/5/2020 12:30:00 PM 4.92 40.856 0.341 7.81 3.92 12.92
12/5/2020 12:45:00 PM 4.94 40.892 0.341 7.82 3.99 13
12/5/2020 1:00:00 PM 4.96 40.928 0.341 7.85 5.37 13.04
12/5/2020 1:15:00 PM 4.98 40.964 0.34 7.87 4.06 13.13
12/5/2020 1:30:00 PM 5.01 41.018 0.342 7.88 3.97 13.15
12/5/2020 1:45:00 PM 5.01 41.018 0.342 7.91 3.99 13.22
12/5/2020 2:00:00 PM 5.01 41.018 0.342 7.92 4.15 13.25
12/5/2020 2:15:00 PM 5.01 41.018 0.342 7.93 4.18 13.25
12/5/2020 2:30:00 PM 5 41 0.343 7.94 4 13.27
12/5/2020 2:45:00 PM 4.98 40.964 0.343 7.93 4.11 13.24
12/5/2020 3:00:00 PM 4.97 40.946 0.343 7.95 3.97 13.27
12/5/2020 3:15:00 PM 4.97 40.946 0.343 7.94 4.03 13.27
12/5/2020 3:30:00 PM 4.96 40.928 0.344 7.95 4.26 13.2
12/5/2020 3:45:00 PM 4.94 40.892 0.344 7.94 4.39 13.22
12/5/2020 4:00:00 PM 4.92 40.856 0.344 7.95 4.18 13.23
12/5/2020 4:15:00 PM 4.91 40.838 0.345 7.94 4.37 13.19
12/5/2020 4:30:00 PM 4.9 40.82 0.345 7.95 3.96 13.19
12/5/2020 4:45:00 PM 4.89 40.802 0.345 7.93 3.98 13.13
12/5/2020 5:00:00 PM 4.88 40.784 0.346 7.93 3.92 13.13
12/5/2020 5:15:00 PM 4.87 40.766 0.345 7.93 4.05 13.08
12/5/2020 5:30:00 PM 4.85 40.73 0.346 7.92 3.87 13.06
12/5/2020 5:45:00 PM 4.83 40.694 0.347 7.92 3.78 13.05
12/5/2020 6:00:00 PM 4.81 40.658 0.347 7.91 3.7 13.02
12/5/2020 6:15:00 PM 4.8 40.64 0.347 7.91 3.85 12.99
12/5/2020 6:30:00 PM 4.78 40.604 0.347 7.9 3.74 12.96
12/5/2020 6:45:00 PM 4.75 40.55 0.347 7.9 3.76 12.93
12/5/2020 7:00:00 PM 4.73 40.514 0.347 7.89 3.69 12.87
12/5/2020 7:15:00 PM 4.72 40.496 0.348 7.89 3.61 12.9
12/5/2020 7:30:00 PM 4.7 40.46 0.348 7.89 3.88 12.9
12/5/2020 7:45:00 PM 4.69 40.442 0.348 7.88 3.7 12.87
12/5/2020 8:00:00 PM 4.67 40.406 0.349 7.88 3.7 12.83
12/5/2020 8:15:00 PM 4.65 40.37 0.349 7.87 3.65 12.81
12/5/2020 8:30:00 PM 4.63 40.334 0.349 7.86 3.53 12.81
12/5/2020 8:45:00 PM 4.61 40.298 0.35 7.86 3.76 12.8
12/5/2020 9:00:00 PM 4.59 40.262 0.35 7.85 3.94 12.78
12/5/2020 9:15:00 PM 4.57 40.226 0.35 7.85 3.77 12.76
12/5/2020 9:30:00 PM 4.56 40.208 0.35 7.85 3.64 12.74
12/5/2020 9:45:00 PM 4.55 40.19 0.35 7.84 3.71 12.73
12/5/2020 10:00:00 PM 4.53 40.154 0.35 7.84 3.65 12.72
12/5/2020 10:15:00 PM 4.51 40.118 0.35 7.84 3.73 12.7
12/5/2020 10:30:00 PM 4.49 40.082 0.35 7.83 3.63 12.64
12/5/2020 10:45:00 PM 4.47 40.046 0.35 7.82 3.83 12.65
12/5/2020 11:00:00 PM 4.47 40.046 0.35 7.82 3.77 12.65
12/5/2020 11:15:00 PM 4.45 40.01 0.351 7.81 3.68 12.66
12/5/2020 11:30:00 PM 4.44 39.992 0.351 7.81 3.6 12.61
12/5/2020 11:45:00 PM 4.41 39.938 0.351 7.8 3.61 12.61
12/6/2020 12:00:00 AM 4.39 39.902 0.351 7.79 3.62 12.59
12/6/2020 12:15:00 AM 4.38 39.884 0.351 7.79 4.06 12.61
12/6/2020 12:30:00 AM 4.36 39.848 0.351 7.78 3.67 12.58
12/6/2020 12:45:00 AM 4.34 39.812 0.351 7.78 3.5 12.58
12/6/2020 1:00:00 AM 4.32 39.776 0.351 7.78 3.6 12.58
12/6/2020 1:15:00 AM 4.3 39.74 0.351 7.78 3.67 12.57
12/6/2020 1:30:00 AM 4.28 39.704 0.352 7.76 3.5 12.55
12/6/2020 1:45:00 AM 4.26 39.668 0.353 7.76 3.51 12.51
12/6/2020 2:00:00 AM 4.23 39.614 0.352 7.75 3.71 12.55
12/6/2020 2:15:00 AM 4.2 39.56 0.352 7.75 3.71 12.5
12/6/2020 2:30:00 AM 4.18 39.524 0.352 7.75 3.55 12.49
12/6/2020 2:45:00 AM 4.16 39.488 0.352 7.75 3.57 12.47
12/6/2020 3:00:00 AM 4.13 39.434 0.352 7.74 3.61 12.49
12/6/2020 3:15:00 AM 4.1 39.38 0.352 7.74 3.64 12.47
12/6/2020 3:30:00 AM 4.07 39.326 0.352 7.73 3.98 12.47
12/6/2020 3:45:00 AM 4.04 39.272 0.353 7.73 3.88 12.49
12/6/2020 4:00:00 AM 4.01 39.218 0.353 7.72 3.98 12.47
12/6/2020 4:15:00 AM 3.98 39.164 0.353 7.72 3.83 12.44
12/6/2020 4:30:00 AM 3.95 39.11 0.353 7.72 3.7 12.44
12/6/2020 4:45:00 AM 3.92 39.056 0.353 7.72 3.97 12.45
12/6/2020 5:00:00 AM 3.88 38.984 0.353 7.72 3.76 12.42
12/6/2020 5:15:00 AM 3.86 38.948 0.353 7.71 3.79 12.43
12/6/2020 5:30:00 AM 3.83 38.894 0.355 7.71 3.6 12.44
12/6/2020 5:45:00 AM 3.8 38.84 0.353 7.71 3.64 12.41
12/6/2020 6:00:00 AM 3.77 38.786 0.353 7.7 3.86 12.42
12/6/2020 6:15:00 AM 3.75 38.75 0.355 7.7 3.55 12.41
12/6/2020 6:30:00 AM 3.74 38.732 0.354 7.7 4.69 12.44
12/6/2020 6:45:00 AM 3.71 38.678 0.354 7.7 3.65 12.38
12/6/2020 7:00:00 AM 3.69 38.642 0.354 7.69 3.77 12.42
12/6/2020 7:15:00 AM 3.66 38.588 0.354 7.69 3.7 12.4
12/6/2020 7:30:00 AM 3.64 38.552 0.354 7.69 3.6 12.39
12/6/2020 7:45:00 AM 3.62 38.516 0.355 7.69 3.76 12.41
12/6/2020 8:00:00 AM 3.61 38.498 0.354 7.69 3.8 12.4
12/6/2020 8:15:00 AM 3.59 38.462 0.354 7.69 3.5 12.42
12/6/2020 8:30:00 AM 3.58 38.444 0.354 7.69 3.75 12.46
12/6/2020 8:45:00 AM 3.56 38.408 0.354 7.69 4.89 12.45
12/6/2020 9:00:00 AM 3.55 38.39 0.354 7.69 3.52 12.48
12/6/2020 9:15:00 AM 3.54 38.372 0.355 7.7 4.7 12.56
12/6/2020 9:30:00 AM 3.52 38.336 0.355 7.71 4.11 12.62
12/6/2020 9:45:00 AM 3.53 38.354 0.355 7.72 3.38 12.69
12/6/2020 10:00:00 AM 3.53 38.354 0.354 7.73 3.52 12.66
12/6/2020 10:15:00 AM 3.54 38.372 0.355 7.74 3.64 12.81
12/6/2020 10:30:00 AM 3.55 38.39 0.355 7.76 3.53 12.88
12/6/2020 10:45:00 AM 3.55 38.39 0.355 7.77 3.71 12.96
12/6/2020 11:00:00 AM 3.56 38.408 0.356 7.79 3.54 13.04
12/6/2020 11:15:00 AM 3.57 38.426 0.354 7.82 3.55 13.15
12/6/2020 11:30:00 AM 3.58 38.444 0.354 7.83 3.96 13.22
12/6/2020 11:45:00 AM 3.6 38.48 0.355 7.85 3.85 13.26
12/6/2020 12:00:00 PM 3.62 38.516 0.355 7.87 3.53 13.39
12/6/2020 12:15:00 PM 3.64 38.552 0.354 7.9 3.85 13.43
12/6/2020 12:30:00 PM 3.65 38.57 0.354 7.91 4.55 13.51
12/6/2020 12:45:00 PM 3.66 38.588 0.354 7.93 4.07 13.58
12/6/2020 1:00:00 PM 3.68 38.624 0.354 7.96 3.99 13.65
12/6/2020 1:15:00 PM 3.69 38.642 0.354 7.97 4.19 13.72
12/6/2020 1:30:00 PM 3.7 38.66 0.354 7.99 4.29 13.82
12/6/2020 1:45:00 PM 3.72 38.696 0.354 8.02 4.38 13.86
12/6/2020 2:00:00 PM 3.71 38.678 0.354 8.03 3.8 13.91
12/6/2020 2:15:00 PM 3.72 38.696 0.355 8.03 3.54 13.95
12/6/2020 2:30:00 PM 3.71 38.678 0.354 8.05 3.53 13.98
12/6/2020 2:45:00 PM 3.72 38.696 0.354 8.07 3.55 14.05
12/6/2020 3:00:00 PM 3.72 38.696 0.354 8.08 3.6 14.08
12/6/2020 3:15:00 PM 3.71 38.678 0.354 8.09 3.42 14.09
12/6/2020 3:30:00 PM 3.69 38.642 0.354 8.1 3.66 14.12
12/6/2020 3:45:00 PM 3.66 38.588 0.355 8.1 3.58 14.16
12/6/2020 4:00:00 PM 3.64 38.552 0.354 8.11 3.47 14.18
12/6/2020 4:15:00 PM 3.6 38.48 0.354 8.13 3.58 14.18
12/6/2020 4:30:00 PM 3.57 38.426 0.354 8.13 3.73 14.19
12/6/2020 4:45:00 PM 3.55 38.39 0.356 8.13 3.41 14.15
12/6/2020 5:00:00 PM 3.52 38.336 0.355 8.12 3.51 14.11
12/6/2020 5:15:00 PM 3.5 38.3 0.354 8.12 3.4 14.12
12/6/2020 5:30:00 PM 3.48 38.264 0.355 8.12 3.39 14.1
12/6/2020 5:45:00 PM 3.43 38.174 0.355 8.11 3.44 14.05
12/6/2020 6:00:00 PM 3.41 38.138 0.356 8.11 3.46 14.03
12/6/2020 6:15:00 PM 3.38 38.084 0.356 8.09 3.42 13.97
12/6/2020 6:30:00 PM 3.34 38.012 0.356 8.1 3.35 13.95
12/6/2020 6:45:00 PM 3.31 37.958 0.357 8.09 3.46 13.94
12/6/2020 7:00:00 PM 3.26 37.868 0.356 8.09 3.56 13.89
12/6/2020 7:15:00 PM 3.23 37.814 0.357 8.08 3.42 13.87
12/6/2020 7:30:00 PM 3.21 37.778 0.357 8.08 3.57 13.86
12/6/2020 7:45:00 PM 3.18 37.724 0.358 8.08 3.44 13.82
12/6/2020 8:00:00 PM 3.16 37.688 0.358 8.08 3.56 13.84
12/6/2020 8:15:00 PM 3.13 37.634 0.358 8.06 3.41 13.82
12/6/2020 8:30:00 PM 3.11 37.598 0.358 8.06 3.51 13.79
12/6/2020 8:45:00 PM 3.09 37.562 0.359 8.06 3.45 13.77
12/6/2020 9:00:00 PM 3.06 37.508 0.359 8.05 3.42 13.74
12/6/2020 9:15:00 PM 3.03 37.454 0.36 8.05 3.5 13.73
12/6/2020 9:30:00 PM 3.01 37.418 0.359 8.04 3.42 13.7
12/6/2020 9:45:00 PM 2.99 37.382 0.36 8.03 3.4 13.71
12/6/2020 10:00:00 PM 2.96 37.328 0.36 8.04 3.4 13.68
12/6/2020 10:15:00 PM 2.94 37.292 0.361 8.03 3.32 13.66
12/6/2020 10:30:00 PM 2.92 37.256 0.361 8.03 3.47 13.66
12/6/2020 10:45:00 PM 2.9 37.22 0.362 8.02 3.33 13.62
12/6/2020 11:00:00 PM 2.9 37.22 0.362 8.01 3.28 13.63
12/6/2020 11:15:00 PM 2.88 37.184 0.362 8.01 3.32 13.6
12/6/2020 11:30:00 PM 2.86 37.148 0.363 8.01 3.31 13.59
12/6/2020 11:45:00 PM 2.85 37.13 0.363 8 3.39 13.58
12/7/2020 12:00:00 AM 2.82 37.076 0.364 7.99 3.35 13.55
12/7/2020 12:15:00 AM 2.8 37.04 0.364 7.98 3.43 13.55
12/7/2020 12:30:00 AM 2.8 37.04 0.364 7.98 3.47 13.51
12/7/2020 12:45:00 AM 2.77 36.986 0.364 7.98 3.35 13.47
12/7/2020 1:00:00 AM 2.76 36.968 0.365 7.97 3.37 13.47
12/7/2020 1:15:00 AM 2.74 36.932 0.365 7.96 3.64 13.45
12/7/2020 1:30:00 AM 2.72 36.896 0.366 7.96 3.35 13.46
12/7/2020 1:45:00 AM 2.71 36.878 0.366 7.95 3.33 13.42
12/7/2020 2:00:00 AM 2.69 36.842 0.366 7.94 3.29 13.41
12/7/2020 2:15:00 AM 2.67 36.806 0.367 7.94 3.42 13.37
12/7/2020 2:30:00 AM 2.66 36.788 0.368 7.94 3.19 13.4
12/7/2020 2:45:00 AM 2.63 36.734 0.367 7.93 3.29 13.36
12/7/2020 3:00:00 AM 2.62 36.716 0.368 7.93 3.27 13.39
12/7/2020 3:15:00 AM 2.6 36.68 0.368 7.92 3.41 13.35
12/7/2020 3:30:00 AM 2.59 36.662 0.369 7.92 3.29 13.34
12/7/2020 3:45:00 AM 2.56 36.608 0.368 7.91 3.27 13.31
12/7/2020 4:00:00 AM 2.54 36.572 0.369 7.91 3.37 13.3
12/7/2020 4:15:00 AM 2.52 36.536 0.371 7.91 3.31 13.32
12/7/2020 4:30:00 AM 2.5 36.5 0.369 7.9 3.4 13.3
12/7/2020 4:45:00 AM 2.48 36.464 0.37 7.9 3.36 13.28
12/7/2020 5:00:00 AM 2.46 36.428 0.37 7.89 3.33 13.29
12/7/2020 5:15:00 AM 2.45 36.41 0.37 7.89 3.4 13.28
12/7/2020 5:30:00 AM 2.43 36.374 0.37 7.89 3.38 13.3
12/7/2020 5:45:00 AM 2.42 36.356 0.371 7.88 3.41 13.27
12/7/2020 6:00:00 AM 2.4 36.32 0.371 7.88 3.35 13.29
12/7/2020 6:15:00 AM 2.39 36.302 0.371 7.87 3.58 13.28
12/7/2020 6:30:00 AM 2.37 36.266 0.371 7.87 3.84 13.26
12/7/2020 6:45:00 AM 2.36 36.248 0.371 7.86 4.33 13.25
12/7/2020 7:00:00 AM 2.34 36.212 0.371 7.86 4.06 13.25
12/7/2020 7:15:00 AM 2.33 36.194 0.372 7.84 3.75 13.24
12/7/2020 7:30:00 AM 2.31 36.158 0.372 7.85 3.52 13.23
12/7/2020 7:45:00 AM 2.3 36.14 0.372 7.85 3.76 13.25
12/7/2020 8:00:00 AM 2.28 36.104 0.373 7.84 3.56 13.22
12/7/2020 8:15:00 AM 2.27 36.086 0.373 7.84 3.59 13.23
12/7/2020 8:30:00 AM 2.25 36.05 0.373 7.84 3.56 13.25
12/7/2020 8:45:00 AM 2.25 36.05 0.372 7.84 3.46 13.25
12/7/2020 9:00:00 AM 2.26 36.068 0.373 7.85 3.19 13.28
12/7/2020 9:15:00 AM 2.26 36.068 0.373 7.85 3.33 13.35
12/7/2020 9:30:00 AM 2.26 36.068 0.373 7.86 3.49 13.38
12/7/2020 9:45:00 AM 2.27 36.086 0.373 7.87 3.23 13.43
12/7/2020 10:00:00 AM 2.29 36.122 0.373 7.88 3.46 13.55
12/7/2020 10:15:00 AM 2.31 36.158 0.373 7.9 3.38 13.59
12/7/2020 10:30:00 AM 2.33 36.194 0.373 7.91 3.48 13.69
12/7/2020 10:45:00 AM 2.34 36.212 0.372 7.92 3.7 13.76
12/7/2020 11:00:00 AM 2.37 36.266 0.373 7.94 3.85 13.79
12/7/2020 11:15:00 AM 2.37 36.266 0.373 7.94 3.78 13.86
12/7/2020 11:30:00 AM 2.36 36.248 0.373 7.96 3.65 13.92
12/7/2020 11:45:00 AM 2.36 36.248 0.373 7.98 3.48 13.97
12/7/2020 12:00:00 PM 2.37 36.266 0.372 7.98 3.43 13.98
12/7/2020 12:15:00 PM 2.39 36.302 0.372 8 3.45 14.07
12/7/2020 12:30:00 PM 2.41 36.338 0.373 8.01 3.64 14.12
12/7/2020 12:45:00 PM 2.43 36.374 0.373 8.01 3.6 14.18
12/7/2020 1:00:00 PM 2.47 36.446 0.372 8.04 3.35 14.24
12/7/2020 1:15:00 PM 2.48 36.464 0.373 8.05 3.32 14.29
12/7/2020 1:30:00 PM 2.5 36.5 0.372 8.06 3.53 14.3
12/7/2020 1:45:00 PM 2.52 36.536 0.372 8.08 3.63 14.4
12/7/2020 2:00:00 PM 2.54 36.572 0.372 8.09 4.03 14.43
12/7/2020 2:15:00 PM 2.56 36.608 0.372 8.09 3.58 14.47
12/7/2020 2:30:00 PM 2.6 36.68 0.372 8.1 3.41 14.52
12/7/2020 2:45:00 PM 2.61 36.698 0.372 8.12 3.33 14.54
12/7/2020 3:00:00 PM 2.63 36.734 0.372 8.12 3.36 14.54
12/7/2020 3:15:00 PM 2.64 36.752 0.372 8.13 3.97 14.6
12/7/2020 3:30:00 PM 2.65 36.77 0.371 8.15 3.34 14.6
12/7/2020 3:45:00 PM 2.66 36.788 0.372 8.16 3.32 14.65
12/7/2020 4:00:00 PM 2.66 36.788 0.372 8.17 3.26 14.63
12/7/2020 4:15:00 PM 2.65 36.77 0.372 8.17 3.48 14.69
12/7/2020 4:30:00 PM 2.65 36.77 0.371 8.17 3.27 14.69
12/7/2020 4:45:00 PM 2.63 36.734 0.373 8.18 3.52 14.69
12/7/2020 5:00:00 PM 2.6 36.68 0.373 8.18 3.23 14.65
12/7/2020 5:15:00 PM 2.57 36.626 0.371 8.17 3.17 14.58
12/7/2020 5:30:00 PM 2.53 36.554 0.372 8.18 3.26 14.59
12/7/2020 5:45:00 PM 2.5 36.5 0.372 8.17 3.28 14.57
12/7/2020 6:00:00 PM 2.45 36.41 0.372 8.15 3.36 14.52
12/7/2020 6:15:00 PM 2.42 36.356 0.372 8.16 3.31 14.51
12/7/2020 6:30:00 PM 2.38 36.284 0.372 8.16 3.22 14.46
12/7/2020 6:45:00 PM 2.35 36.23 0.372 8.16 3.19 14.45
12/7/2020 7:00:00 PM 2.32 36.176 0.372 8.15 3.19 14.44
12/7/2020 7:15:00 PM 2.28 36.104 0.372 8.15 3.05 14.39
12/7/2020 7:30:00 PM 2.26 36.068 0.372 8.15 3.11 14.4
12/7/2020 7:45:00 PM 2.23 36.014 0.372 8.14 3.27 14.35
12/7/2020 8:00:00 PM 2.21 35.978 0.372 8.14 3.2 14.33
12/7/2020 8:15:00 PM 2.19 35.942 0.372 8.14 3.18 14.28
12/7/2020 8:30:00 PM 2.19 35.942 0.373 8.13 3.4 14.26
12/7/2020 8:45:00 PM 2.17 35.906 0.372 8.13 3.22 14.23
12/7/2020 9:00:00 PM 2.17 35.906 0.372 8.13 3.08 14.25
12/7/2020 9:15:00 PM 2.16 35.888 0.372 8.13 3.14 14.21
12/7/2020 9:30:00 PM 2.15 35.87 0.372 8.12 3.17 14.2
12/7/2020 9:45:00 PM 2.15 35.87 0.372 8.11 3.29 14.16
12/7/2020 10:00:00 PM 2.14 35.852 0.372 8.11 3.4 14.14
12/7/2020 10:15:00 PM 2.12 35.816 0.372 8.11 3.31 14.13
12/7/2020 10:30:00 PM 2.1 35.78 0.372 8.1 3.41 14.13
12/7/2020 10:45:00 PM 2.09 35.762 0.372 8.08 3.3 14.1
12/7/2020 11:00:00 PM 2.07 35.726 0.372 8.09 3.24 14.07
12/7/2020 11:15:00 PM 2.05 35.69 0.372 8.08 3.29 14.02
12/7/2020 11:30:00 PM 2.04 35.672 0.372 8.08 3.3 14.02
12/7/2020 11:45:00 PM 2.03 35.654 0.372 8.07 3.25 14
12/8/2020 12:00:00 AM 2.02 35.636 0.372 8.06 3.37 13.97
12/8/2020 12:15:00 AM 2.01 35.618 0.372 8.05 3.12 13.91
12/8/2020 12:30:00 AM 2 35.6 0.372 8.04 3.22 13.92
12/8/2020 12:45:00 AM 1.98 35.564 0.372 8.04 3.27 13.89
12/8/2020 1:00:00 AM 1.97 35.546 0.372 8.02 3.27 13.89
12/8/2020 1:15:00 AM 1.97 35.546 0.372 8.02 3.15 13.85
12/8/2020 1:30:00 AM 1.96 35.528 0.372 8.02 3.19 13.84
12/8/2020 1:45:00 AM 1.95 35.51 0.372 8.01 3.4 13.79
12/8/2020 2:00:00 AM 1.94 35.492 0.372 8 3.27 13.81
12/8/2020 2:15:00 AM 1.93 35.474 0.372 8 3.32 13.81
12/8/2020 2:30:00 AM 1.93 35.474 0.372 7.99 3.31 13.76
12/8/2020 2:45:00 AM 1.91 35.438 0.372 7.98 3.12 13.74
12/8/2020 3:00:00 AM 1.89 35.402 0.372 7.98 3.33 13.77
12/8/2020 3:15:00 AM 1.88 35.384 0.372 7.98 3.16 13.73
12/8/2020 3:30:00 AM 1.86 35.348 0.372 7.97 3.33 13.7
12/8/2020 3:45:00 AM 1.84 35.312 0.372 7.95 3.22 13.72
12/8/2020 4:00:00 AM 1.83 35.294 0.373 7.96 3.29 13.7
12/8/2020 4:15:00 AM 1.82 35.276 0.373 7.95 3.24 13.67
12/8/2020 4:30:00 AM 1.8 35.24 0.372 7.95 3.23 13.67
12/8/2020 4:45:00 AM 1.79 35.222 0.373 7.94 3.18 13.64
12/8/2020 5:00:00 AM 1.76 35.168 0.373 7.93 3.28 13.65
12/8/2020 5:15:00 AM 1.75 35.15 0.373 7.93 3.32 13.64
12/8/2020 5:30:00 AM 1.73 35.114 0.373 7.92 3.25 13.64
12/8/2020 5:45:00 AM 1.72 35.096 0.373 7.91 3.29 13.63
12/8/2020 6:00:00 AM 1.7 35.06 0.373 7.92 3.31 13.61
12/8/2020 6:15:00 AM 1.68 35.024 0.373 7.92 3.28 13.61
12/8/2020 6:30:00 AM 1.65 34.97 0.373 7.91 3.38 13.59
12/8/2020 6:45:00 AM 1.63 34.934 0.373 7.9 3.31 13.59
12/8/2020 7:00:00 AM 1.62 34.916 0.373 7.9 3.18 13.58
12/8/2020 7:15:00 AM 1.61 34.898 0.373 7.9 4.15 13.57
12/8/2020 7:30:00 AM 1.6 34.88 0.373 7.89 3.55 13.55
12/8/2020 7:45:00 AM 1.57 34.826 0.373 7.89 3.34 13.53
12/8/2020 8:00:00 AM 1.55 34.79 0.373 7.89 3.19 13.52
12/8/2020 8:15:00 AM 1.54 34.772 0.374 7.89 3.44 13.58
12/8/2020 8:30:00 AM 1.52 34.736 0.373 7.89 3.35 13.59
12/8/2020 8:45:00 AM 1.5 34.7 0.374 7.89 3.2 13.58
12/8/2020 9:00:00 AM 1.5 34.7 0.374 7.89 3.27 13.67
12/8/2020 9:15:00 AM 1.48 34.664 0.374 7.89 3.43 13.64
12/8/2020 9:30:00 AM 1.49 34.682 0.374 7.91 3.33 13.77
12/8/2020 9:45:00 AM 1.49 34.682 0.374 7.91 3.21 13.77
12/8/2020 10:00:00 AM 1.5 34.7 0.374 7.92 3.11 13.87
12/8/2020 10:15:00 AM 1.53 34.754 0.374 7.94 3.34 13.94
12/8/2020 10:30:00 AM 1.55 34.79 0.374 7.95 3.21 13.98
12/8/2020 10:45:00 AM 1.58 34.844 0.373 7.96 3.45 14.08
12/8/2020 11:00:00 AM 1.6 34.88 0.373 7.98 3.59 14.11
12/8/2020 11:15:00 AM 1.63 34.934 0.373 7.97 3.34 14.1
12/8/2020 11:30:00 AM 1.67 35.006 0.373 7.99 3.49 14.18
12/8/2020 11:45:00 AM 1.7 35.06 0.373 8 3.67 14.23
12/8/2020 12:00:00 PM 1.74 35.132 0.373 8.01 3.85 14.27
12/8/2020 12:15:00 PM 1.78 35.204 0.373 8.02 3.83 14.3
12/8/2020 12:30:00 PM 1.82 35.276 0.373 8.02 3.51 14.34
12/8/2020 12:45:00 PM 1.87 35.366 0.372 8.04 3.42 14.42
12/8/2020 1:00:00 PM 1.91 35.438 0.373 8.05 3.31 14.4
12/8/2020 1:15:00 PM 1.94 35.492 0.373 8.05 3.36 14.43
12/8/2020 1:30:00 PM 1.98 35.564 0.372 8.07 3.27 14.46
12/8/2020 1:45:00 PM 2 35.6 0.372 8.08 3.37 14.48
12/8/2020 2:00:00 PM 2.01 35.618 0.373 8.07 3.54 14.58
12/8/2020 2:15:00 PM 2.03 35.654 0.372 8.08 3.41 14.55
12/8/2020 2:30:00 PM 2.04 35.672 0.372 8.08 3.39 14.55
12/8/2020 2:45:00 PM 2.04 35.672 0.372 8.09 3.41 14.58
12/8/2020 3:00:00 PM 2.04 35.672 0.372 8.11 3.28 14.6
12/8/2020 3:15:00 PM 2.05 35.69 0.372 8.1 3.25 14.6
12/8/2020 3:30:00 PM 2.05 35.69 0.372 8.11 3.35 14.61
12/8/2020 3:45:00 PM 2.04 35.672 0.372 8.11 3.26 14.63
12/8/2020 4:00:00 PM 2.04 35.672 0.372 8.12 3.31 14.66
12/8/2020 4:15:00 PM 2.02 35.636 0.372 8.12 3.25 14.6
12/8/2020 4:30:00 PM 2 35.6 0.372 8.12 3.32 14.62
12/8/2020 4:45:00 PM 1.97 35.546 0.372 8.12 3.26 14.6
12/8/2020 5:00:00 PM 1.95 35.51 0.372 8.13 3.67 14.6
12/8/2020 5:15:00 PM 1.91 35.438 0.372 8.12 3.45 14.59
12/8/2020 5:30:00 PM 1.88 35.384 0.372 8.1 3.34 14.57
12/8/2020 5:45:00 PM 1.86 35.348 0.372 8.11 4.84 14.58
12/8/2020 6:00:00 PM 1.83 35.294 0.372 8.11 5.72 14.55
12/8/2020 6:15:00 PM 1.8 35.24 0.372 8.1 3.71 14.53
12/8/2020 6:30:00 PM 1.78 35.204 0.372 8.09 3.96 14.49
12/8/2020 6:45:00 PM 1.76 35.168 0.372 8.1 3.39 14.48
12/8/2020 7:00:00 PM 1.73 35.114 0.372 8.1 3.55 14.48
12/8/2020 7:15:00 PM 1.72 35.096 0.372 8.1 3.14 14.47
12/8/2020 7:30:00 PM 1.69 35.042 0.372 8.09 3.22 14.44
12/8/2020 7:45:00 PM 1.67 35.006 0.372 8.08 3.24 14.41
12/8/2020 8:00:00 PM 1.66 34.988 0.372 8.08 3.18 14.39
12/8/2020 8:15:00 PM 1.65 34.97 0.372 8.08 3.22 14.38
12/8/2020 8:30:00 PM 1.64 34.952 0.372 8.08 3.22 14.37
12/8/2020 8:45:00 PM 1.63 34.934 0.372 8.07 3.28 14.34
12/8/2020 9:00:00 PM 1.61 34.898 0.372 8.07 4.22 14.32
12/8/2020 9:15:00 PM 1.6 34.88 0.372 8.07 3.25 14.3
12/8/2020 9:30:00 PM 1.58 34.844 0.372 8.06 3.44 14.28
12/8/2020 9:45:00 PM 1.57 34.826 0.372 8.06 3.29 14.29
12/8/2020 10:00:00 PM 1.55 34.79 0.372 8.05 3.15 14.27
12/8/2020 10:15:00 PM 1.53 34.754 0.372 8.04 3.39 14.21
12/8/2020 10:30:00 PM 1.52 34.736 0.372 8.04 3.12 14.21
12/8/2020 10:45:00 PM 1.49 34.682 0.372 8.03 3.25 14.18
12/8/2020 11:00:00 PM 1.48 34.664 0.372 8.03 3.24 14.17
12/8/2020 11:15:00 PM 1.46 34.628 0.372 8.02 3.37 14.18
12/8/2020 11:30:00 PM 1.45 34.61 0.372 8.01 3.29 14.14
12/8/2020 11:45:00 PM 1.43 34.574 0.373 8 3.08 14.12
12/9/2020 12:00:00 AM 1.42 34.556 0.372 8 3.42 14.12
12/9/2020 12:15:00 AM 1.42 34.556 0.372 7.99 3.18 14.12
12/9/2020 12:30:00 AM 1.42 34.556 0.371 7.98 3.23 14.08
12/9/2020 12:45:00 AM 1.42 34.556 0.372 7.98 3.23 14.05
12/9/2020 1:00:00 AM 1.43 34.574 0.372 7.97 3.09 14.06
12/9/2020 1:15:00 AM 1.43 34.574 0.372 7.96 3.17 14.03
12/9/2020 1:30:00 AM 1.44 34.592 0.372 7.96 3.32 14.01
12/9/2020 1:45:00 AM 1.45 34.61 0.371 7.95 3.17 14.01
12/9/2020 2:00:00 AM 1.46 34.628 0.371 7.95 3.01 13.97
12/9/2020 2:15:00 AM 1.46 34.628 0.371 7.94 3.13 13.97
12/9/2020 2:30:00 AM 1.47 34.646 0.371 7.94 3.13 13.95
12/9/2020 2:45:00 AM 1.48 34.664 0.371 7.93 3.11 13.94
12/9/2020 3:00:00 AM 1.48 34.664 0.372 7.93 3.16 13.93
12/9/2020 3:15:00 AM 1.49 34.682 0.371 7.92 3.08 13.93
12/9/2020 3:30:00 AM 1.5 34.7 0.371 7.92 3.27 13.89
12/9/2020 3:45:00 AM 1.51 34.718 0.371 7.91 3.15 13.87
12/9/2020 4:00:00 AM 1.52 34.736 0.371 7.91 3.23 13.87
12/9/2020 4:15:00 AM 1.53 34.754 0.371 7.9 3.12 13.86
12/9/2020 4:30:00 AM 1.54 34.772 0.371 7.9 3.17 13.82
12/9/2020 4:45:00 AM 1.54 34.772 0.371 7.9 3.13 13.82
12/9/2020 5:00:00 AM 1.55 34.79 0.371 7.9 3.2 13.79
12/9/2020 5:15:00 AM 1.56 34.808 0.371 7.89 3.23 13.79
12/9/2020 5:30:00 AM 1.57 34.826 0.371 7.89 3.23 13.79
12/9/2020 5:45:00 AM 1.58 34.844 0.371 7.88 3.17 13.75
12/9/2020 6:00:00 AM 1.59 34.862 0.37 7.88 3.13 13.74
12/9/2020 6:15:00 AM 1.6 34.88 0.37 7.88 3.33 13.71
12/9/2020 6:30:00 AM 1.6 34.88 0.37 7.87 3.27 13.7
12/9/2020 6:45:00 AM 1.61 34.898 0.37 7.87 3.15 13.71
12/9/2020 7:00:00 AM 1.61 34.898 0.37 7.87 3.12 13.65
12/9/2020 7:15:00 AM 1.62 34.916 0.37 7.86 5.65 13.67
12/9/2020 7:30:00 AM 1.62 34.916 0.37 7.86 3.3 13.66
12/9/2020 7:45:00 AM 1.61 34.898 0.37 7.85 5.16 13.61
12/9/2020 8:00:00 AM 1.59 34.862 0.37 7.85 3.8 13.63
12/9/2020 8:15:00 AM 1.57 34.826 0.37 7.85 3.6 13.64
12/9/2020 8:30:00 AM 1.55 34.79 0.37 7.85 3.17 13.64
12/9/2020 8:45:00 AM 1.55 34.79 0.37 7.84 3.31 13.6
12/9/2020 9:00:00 AM 1.54 34.772 0.37 7.85 3.21 13.62
12/9/2020 9:15:00 AM 1.52 34.736 0.369 7.85 3.51 13.63
12/9/2020 9:30:00 AM 1.5 34.7 0.369 7.85 3.18 13.67
12/9/2020 9:45:00 AM 1.49 34.682 0.369 7.85 3.19 13.69
12/9/2020 10:00:00 AM 1.51 34.718 0.369 7.86 3.24 13.75
12/9/2020 10:15:00 AM 1.52 34.736 0.369 7.87 3.77 13.78
12/9/2020 10:30:00 AM 1.53 34.754 0.368 7.88 3.31 13.83
12/9/2020 10:45:00 AM 1.54 34.772 0.368 7.89 3.41 13.86
12/9/2020 11:00:00 AM 1.57 34.826 0.369 7.9 3.14 13.96
12/9/2020 11:15:00 AM 1.61 34.898 0.368 7.9 3.16 13.88
12/9/2020 11:30:00 AM 1.64 34.952 0.368 7.92 3.3 14.03
12/9/2020 11:45:00 AM 1.67 35.006 0.368 7.92 3.16 14.06
12/9/2020 12:00:00 PM 1.7 35.06 0.367 7.94 3.09 14.12
12/9/2020 12:15:00 PM 1.73 35.114 0.367 7.95 3.25 14.14
12/9/2020 12:30:00 PM 1.75 35.15 0.367 7.96 3.26 14.2
12/9/2020 12:45:00 PM 1.78 35.204 0.367 7.96 3.2 14.24
12/9/2020 1:00:00 PM 1.8 35.24 0.367 7.97 3.17 14.29
12/9/2020 1:15:00 PM 1.82 35.276 0.367 7.98 3.16 14.29
12/9/2020 1:30:00 PM 1.84 35.312 0.367 7.99 3.45 14.34
12/9/2020 1:45:00 PM 1.85 35.33 0.367 7.99 3.29 14.39
12/9/2020 2:00:00 PM 1.87 35.366 0.367 8 3.27 14.4
12/9/2020 2:15:00 PM 1.88 35.384 0.367 8.01 3.17 14.42
12/9/2020 2:30:00 PM 1.89 35.402 0.367 8.02 3.19 14.41
12/9/2020 2:45:00 PM 1.91 35.438 0.367 8.02 3.13 14.43
12/9/2020 3:00:00 PM 1.91 35.438 0.366 8.02 3.2 14.42
12/9/2020 3:15:00 PM 1.92 35.456 0.366 8.02 3.19 14.44
12/9/2020 3:30:00 PM 1.93 35.474 0.365 8.02 3.25 14.45
12/9/2020 3:45:00 PM 1.94 35.492 0.367 8.02 3.25 14.44
12/9/2020 4:00:00 PM 1.95 35.51 0.366 8.02 3.23 14.44
12/9/2020 4:15:00 PM 1.95 35.51 0.366 8.02 3.2 14.42
12/9/2020 4:30:00 PM 1.96 35.528 0.367 8.01 3.03 14.33
12/9/2020 4:45:00 PM 1.97 35.546 0.368 8.01 3.5 14.31
12/9/2020 5:00:00 PM 1.97 35.546 0.366 8.01 3.24 14.33
12/9/2020 5:15:00 PM 1.97 35.546 0.366 8 3.18 14.31
12/9/2020 5:30:00 PM 1.97 35.546 0.367 8 3.1 14.28
12/9/2020 5:45:00 PM 1.98 35.564 0.366 7.99 3.21 14.23
12/9/2020 6:00:00 PM 1.98 35.564 0.367 7.99 3.26 14.24
12/9/2020 6:15:00 PM 1.99 35.582 0.367 7.98 3.11 14.21
12/9/2020 6:30:00 PM 2 35.6 0.367 7.98 3.13 14.17
12/9/2020 6:45:00 PM 2.01 35.618 0.367 7.98 3.88 14.16
12/9/2020 7:00:00 PM 2.01 35.618 0.367 7.97 3 14.14
12/9/2020 7:15:00 PM 2.02 35.636 0.367 7.97 3.04 14.14
12/9/2020 7:30:00 PM 2.03 35.654 0.368 7.97 2.96 14.13
12/9/2020 7:45:00 PM 2.04 35.672 0.367 7.96 3.14 14.11
12/9/2020 8:00:00 PM 2.05 35.69 0.366 7.96 3.08 14.1
12/9/2020 8:15:00 PM 2.05 35.69 0.366 7.96 3.1 14.07
12/9/2020 8:30:00 PM 2.06 35.708 0.366 7.94 3.09 14.03
12/9/2020 8:45:00 PM 2.07 35.726 0.366 7.95 3.05 14.01
12/9/2020 9:00:00 PM 2.08 35.744 0.366 7.94 3.16 14.02
12/9/2020 9:15:00 PM 2.09 35.762 0.366 7.94 3.09 13.99
12/9/2020 9:30:00 PM 2.09 35.762 0.366 7.93 3.11 13.95
12/9/2020 9:45:00 PM 2.1 35.78 0.366 7.93 2.98 13.95
12/9/2020 10:00:00 PM 2.1 35.78 0.366 7.93 3.11 13.93
12/9/2020 10:15:00 PM 2.11 35.798 0.366 7.92 2.97 13.91
12/9/2020 10:30:00 PM 2.11 35.798 0.366 7.91 3.12 13.87
12/9/2020 10:45:00 PM 2.12 35.816 0.366 7.91 3.14 13.85
12/9/2020 11:00:00 PM 2.12 35.816 0.366 7.9 3.22 13.83
12/9/2020 11:15:00 PM 2.13 35.834 0.366 7.9 3.12 13.81
12/9/2020 11:30:00 PM 2.14 35.852 0.366 7.89 3.1 13.81
12/9/2020 11:45:00 PM 2.14 35.852 0.366 7.89 3.15 13.79
12/10/2020 12:00:00 AM 2.14 35.852 0.366 7.88 3.23 13.76
12/10/2020 12:15:00 AM 2.14 35.852 0.366 7.87 3.08 13.74
12/10/2020 12:30:00 AM 2.15 35.87 0.366 7.86 3.08 13.67
12/10/2020 12:45:00 AM 2.15 35.87 0.366 7.86 3.1 13.67
12/10/2020 1:00:00 AM 2.16 35.888 0.366 7.85 3.04 13.66
12/10/2020 1:15:00 AM 2.16 35.888 0.366 7.84 3.12 13.62
12/10/2020 1:30:00 AM 2.16 35.888 0.366 7.84 3.09 13.63
12/10/2020 1:45:00 AM 2.16 35.888 0.366 7.83 3.11 13.57
12/10/2020 2:00:00 AM 2.16 35.888 0.366 7.82 3.13 13.57
12/10/2020 2:15:00 AM 2.16 35.888 0.366 7.82 3.14 13.55
12/10/2020 2:30:00 AM 2.17 35.906 0.366 7.81 3.16 13.55
12/10/2020 2:45:00 AM 2.16 35.888 0.366 7.81 3.02 13.52
12/10/2020 3:00:00 AM 2.16 35.888 0.366 7.8 3.3 13.52
12/10/2020 3:15:00 AM 2.16 35.888 0.366 7.8 3.17 13.45
12/10/2020 3:30:00 AM 2.16 35.888 0.366 7.79 3.27 13.45
12/10/2020 3:45:00 AM 2.17 35.906 0.366 7.78 3.28 13.46
12/10/2020 4:00:00 AM 2.17 35.906 0.366 7.78 3.1 13.45
12/10/2020 4:15:00 AM 2.17 35.906 0.366 7.78 3.23 13.42
12/10/2020 4:30:00 AM 2.18 35.924 0.368 7.77 3.08 13.4
12/10/2020 4:45:00 AM 2.18 35.924 0.366 7.77 3.24 13.44
12/10/2020 5:00:00 AM 2.19 35.942 0.366 7.77 3.15 13.41
12/10/2020 5:15:00 AM 2.19 35.942 0.366 7.76 3.1 13.36
12/10/2020 5:30:00 AM 2.2 35.96 0.367 7.76 3.23 13.38
12/10/2020 5:45:00 AM 2.21 35.978 0.366 7.75 3.12 13.37
12/10/2020 6:00:00 AM 2.21 35.978 0.367 7.75 3.04 13.33
12/10/2020 6:15:00 AM 2.21 35.978 0.367 7.75 3.1 13.33
12/10/2020 6:30:00 AM 2.22 35.996 0.367 7.74 3.14 13.34
12/10/2020 6:45:00 AM 2.22 35.996 0.367 7.74 3.15 13.32
12/10/2020 7:00:00 AM 2.23 36.014 0.367 7.74 3.23 13.32
12/10/2020 7:15:00 AM 2.24 36.032 0.367 7.73 3.18 13.28
12/10/2020 7:30:00 AM 2.24 36.032 0.367 7.73 3.22 13.26
12/10/2020 7:45:00 AM 2.24 36.032 0.367 7.72 3.09 13.25
12/10/2020 8:00:00 AM 2.25 36.05 0.368 7.72 3.11 13.24
12/10/2020 8:15:00 AM 2.26 36.068 0.367 7.72 3.4 13.26
12/10/2020 8:30:00 AM 2.27 36.086 0.367 7.72 3 13.21
12/10/2020 8:45:00 AM 2.28 36.104 0.368 7.73 3.03 13.29
12/10/2020 9:00:00 AM 2.3 36.14 0.368 7.73 3.1 13.31
12/10/2020 9:15:00 AM 2.32 36.176 0.368 7.74 3.07 13.38
12/10/2020 9:30:00 AM 2.35 36.23 0.368 7.75 3.09 13.44
12/10/2020 9:45:00 AM 2.38 36.284 0.369 7.76 3.13 13.53
12/10/2020 10:00:00 AM 2.41 36.338 0.369 7.77 3.23 13.56
12/10/2020 10:15:00 AM 2.45 36.41 0.37 7.78 3.18 13.61
12/10/2020 10:30:00 AM 2.49 36.482 0.37 7.79 3.47 13.67
12/10/2020 10:45:00 AM 2.54 36.572 0.371 7.81 3.33 13.62
12/10/2020 11:00:00 AM 2.59 36.662 0.371 7.82 3.23 13.72
12/10/2020 11:15:00 AM 2.64 36.752 0.371 7.83 3.2 13.79
12/10/2020 11:30:00 AM 2.68 36.824 0.373 7.85 3.2 13.8
12/10/2020 11:45:00 AM 2.72 36.896 0.374 7.86 3.31 13.82
12/10/2020 12:00:00 PM 2.75 36.95 0.374 7.87 3.23 14.07
12/10/2020 12:15:00 PM 2.79 37.022 0.375 7.89 3.22 14.1
12/10/2020 12:30:00 PM 2.83 37.094 0.375 7.91 3.19 14.18
12/10/2020 12:45:00 PM 2.87 37.166 0.376 7.9 3.29 14.22
12/10/2020 1:00:00 PM 2.9 37.22 0.378 7.93 3.12 14.28
12/10/2020 1:15:00 PM 2.94 37.292 0.377 7.95 3.16 14.21
12/10/2020 1:30:00 PM 2.97 37.346 0.378 7.96 3.18 14.41
12/10/2020 1:45:00 PM 3 37.4 0.38 7.98 3.08 14.4
12/10/2020 2:00:00 PM 3.04 37.472 0.379 7.99 3.15 14.46
12/10/2020 2:15:00 PM 3.07 37.526 0.379 8 3.39 14.51
12/10/2020 2:30:00 PM 3.09 37.562 0.38 8.04 3.34 14.61
12/10/2020 2:45:00 PM 3.11 37.598 0.38 8.03 3.45 14.67
12/10/2020 3:00:00 PM 3.12 37.616 0.38 8.06 3.29 14.71
12/10/2020 3:15:00 PM 3.13 37.634 0.38 8.07 3.17 14.75
12/10/2020 3:30:00 PM 3.13 37.634 0.381 8.08 3.24 14.75
12/10/2020 3:45:00 PM 3.12 37.616 0.381 8.09 3.41 14.78
12/10/2020 4:00:00 PM 3.11 37.598 0.381 8.1 3.7 14.81
12/10/2020 4:15:00 PM 3.09 37.562 0.381 8.1 6.11 14.79
12/10/2020 4:30:00 PM 3.08 37.544 0.381 8.09 3.03 14.78
12/10/2020 4:45:00 PM 3.06 37.508 0.381 8.11 3.83 14.77
12/10/2020 5:00:00 PM 3.04 37.472 0.381 8.09 3.24 14.72
12/10/2020 5:15:00 PM 3.02 37.436 0.381 8.1 3.78 14.67
12/10/2020 5:30:00 PM 3 37.4 0.381 8.1 3.26 14.69
12/10/2020 5:45:00 PM 2.98 37.364 0.381 8.1 2.94 14.65
12/10/2020 6:00:00 PM 2.97 37.346 0.381 8.1 3.25 14.62
12/10/2020 6:15:00 PM 2.95 37.31 0.381 8.09 3.19 14.57
12/10/2020 6:30:00 PM 2.95 37.31 0.381 8.09 3.21 14.56
12/10/2020 6:45:00 PM 2.94 37.292 0.381 8.09 3.17 14.52
12/10/2020 7:00:00 PM 2.93 37.274 0.381 8.08 3.07 14.49
12/10/2020 7:15:00 PM 2.92 37.256 0.38 8.08 3.14 14.46
12/10/2020 7:30:00 PM 2.91 37.238 0.38 8.08 2.98 14.45
12/10/2020 7:45:00 PM 2.9 37.22 0.38 8.07 3.09 14.43
12/10/2020 8:00:00 PM 2.89 37.202 0.38 8.08 3.07 14.4
12/10/2020 8:15:00 PM 2.87 37.166 0.381 8.07 3 14.38
12/10/2020 8:30:00 PM 2.86 37.148 0.38 8.08 3.34 14.37
12/10/2020 8:45:00 PM 2.84 37.112 0.379 8.07 3.21 14.33
12/10/2020 9:00:00 PM 2.82 37.076 0.379 8.07 3.03 14.29
12/10/2020 9:15:00 PM 2.8 37.04 0.379 8.06 3.08 14.26
12/10/2020 9:30:00 PM 2.78 37.004 0.378 8.05 3.07 14.23
12/10/2020 9:45:00 PM 2.75 36.95 0.378 8.05 3.02 14.19
12/10/2020 10:00:00 PM 2.73 36.914 0.378 8.05 3.09 14.15
12/10/2020 10:15:00 PM 2.71 36.878 0.377 8.04 3.12 14.15
12/10/2020 10:30:00 PM 2.69 36.842 0.377 8.04 3.06 14.12
12/10/2020 10:45:00 PM 2.67 36.806 0.377 8.03 2.99 14.08
12/10/2020 11:00:00 PM 2.64 36.752 0.377 8.03 3.05 14.09
12/10/2020 11:15:00 PM 2.63 36.734 0.377 8.03 3.15 14.06
12/10/2020 11:30:00 PM 2.61 36.698 0.377 8.03 3.08 14.06
12/10/2020 11:45:00 PM 2.59 36.662 0.377 8.02 3.09 14.03
12/11/2020 12:00:00 AM 2.57 36.626 0.377 8.02 3.25 14.03
12/11/2020 12:15:00 AM 2.55 36.59 0.376 8.02 3.05 13.99
12/11/2020 12:30:00 AM 2.53 36.554 0.376 8.01 3.05 13.97
12/11/2020 12:45:00 AM 2.51 36.518 0.376 7.99 3.06 13.95
12/11/2020 1:00:00 AM 2.49 36.482 0.376 7.99 3.2 13.93
12/11/2020 1:15:00 AM 2.47 36.446 0.376 7.98 3.03 13.89
12/11/2020 1:30:00 AM 2.44 36.392 0.376 7.98 3.18 13.87
12/11/2020 1:45:00 AM 2.43 36.374 0.376 7.97 3.02 13.86
12/11/2020 2:00:00 AM 2.4 36.32 0.375 7.96 3.06 13.84
12/11/2020 2:15:00 AM 2.38 36.284 0.376 7.96 2.99 13.81
12/11/2020 2:30:00 AM 2.37 36.266 0.375 7.95 2.96 13.78
12/11/2020 2:45:00 AM 2.35 36.23 0.376 7.93 2.98 13.74
12/11/2020 3:00:00 AM 2.33 36.194 0.376 7.92 3.08 13.72
12/11/2020 3:15:00 AM 2.31 36.158 0.376 7.91 2.89 13.7
12/11/2020 3:30:00 AM 2.29 36.122 0.376 7.9 2.99 13.68
12/11/2020 3:45:00 AM 2.27 36.086 0.376 7.9 2.93 13.67
12/11/2020 4:00:00 AM 2.26 36.068 0.376 7.89 2.96 13.63
12/11/2020 4:15:00 AM 2.24 36.032 0.376 7.88 2.99 13.61
12/11/2020 4:30:00 AM 2.22 35.996 0.376 7.88 3.01 13.6
12/11/2020 4:45:00 AM 2.21 35.978 0.376 7.87 2.89 13.59
12/11/2020 5:00:00 AM 2.19 35.942 0.376 7.86 2.88 13.53
12/11/2020 5:15:00 AM 2.18 35.924 0.377 7.86 2.93 13.54
12/11/2020 5:30:00 AM 2.16 35.888 0.377 7.86 2.8 13.53
12/11/2020 5:45:00 AM 2.14 35.852 0.377 7.85 2.87 13.51
12/11/2020 6:00:00 AM 2.12 35.816 0.377 7.85 2.88 13.52
12/11/2020 6:15:00 AM 2.11 35.798 0.377 7.84 2.87 13.49
12/11/2020 6:30:00 AM 2.09 35.762 0.378 7.84 2.76 13.49
12/11/2020 6:45:00 AM 2.07 35.726 0.378 7.84 2.84 13.47
12/11/2020 7:00:00 AM 2.06 35.708 0.378 7.83 2.81 13.47
12/11/2020 7:15:00 AM 2.05 35.69 0.378 7.83 3.41 13.42
12/11/2020 7:30:00 AM 2.02 35.636 0.378 7.83 3.09 13.45
12/11/2020 7:45:00 AM 2.02 35.636 0.378 7.82 2.85 13.39
12/11/2020 8:00:00 AM 2.02 35.636 0.379 7.83 2.79 13.44
12/11/2020 8:15:00 AM 2.02 35.636 0.379 7.83 2.84 13.48
12/11/2020 8:30:00 AM 2.02 35.636 0.379 7.83 2.79 13.51
12/11/2020 8:45:00 AM 2.03 35.654 0.379 7.84 2.93 13.56
12/11/2020 9:00:00 AM 2.04 35.672 0.379 7.84 2.97 13.55
12/11/2020 9:15:00 AM 2.06 35.708 0.379 7.85 3.21 13.63
12/11/2020 9:30:00 AM 2.09 35.762 0.38 7.86 3.97 13.68
12/11/2020 9:45:00 AM 2.11 35.798 0.38 7.88 3.32 13.78
12/11/2020 10:00:00 AM 2.15 35.87 0.379 7.9 3.4 13.87
12/11/2020 10:15:00 AM 2.2 35.96 0.38 7.92 3.33 13.91
12/11/2020 10:30:00 AM 2.24 36.032 0.379 7.93 3.11 14.04
12/11/2020 10:45:00 AM 2.29 36.122 0.379 7.94 3.09 14.05
12/11/2020 11:00:00 AM 2.33 36.194 0.38 7.96 3.09 14.17
12/11/2020 11:15:00 AM 2.38 36.284 0.379 7.97 2.9 14.14
12/11/2020 11:30:00 AM 2.43 36.374 0.381 7.98 2.76 14.11
12/11/2020 11:45:00 AM 2.47 36.446 0.379 7.99 2.91 14.26
12/11/2020 12:00:00 PM 2.52 36.536 0.38 8.01 2.9 14.25
12/11/2020 12:15:00 PM 2.56 36.608 0.38 8 2.94 14.35
12/11/2020 12:30:00 PM 2.62 36.716 0.38 8.02 2.86 14.43
12/11/2020 12:45:00 PM 2.68 36.824 0.38 8.03 2.87 14.43
12/11/2020 1:00:00 PM 2.73 36.914 0.38 8.05 2.98 14.51
12/11/2020 1:15:00 PM 2.79 37.022 0.38 8.05 3.87 14.53
12/11/2020 1:30:00 PM 2.84 37.112 0.38 8.06 2.95 14.53
12/11/2020 1:45:00 PM 2.9 37.22 0.38 8.09 2.99 14.69
12/11/2020 2:00:00 PM 2.95 37.31 0.38 8.1 2.98 14.71
12/11/2020 2:15:00 PM 3 37.4 0.38 8.11 3.14 14.7
12/11/2020 2:30:00 PM 3.06 37.508 0.38 8.12 3.07 14.8
12/11/2020 2:45:00 PM 3.11 37.598 0.38 8.14 3.48 14.8
12/11/2020 3:00:00 PM 3.17 37.706 0.38 8.14 3.43 14.87
12/11/2020 3:15:00 PM 3.21 37.778 0.38 8.15 3.27 14.77
12/11/2020 3:30:00 PM 3.25 37.85 0.379 8.16 3.28 14.87
12/11/2020 3:45:00 PM 3.27 37.886 0.38 8.18 3.33 14.94
12/11/2020 4:00:00 PM 3.29 37.922 0.38 8.18 3 14.92
12/11/2020 4:15:00 PM 3.3 37.94 0.38 8.18 2.99 14.96
12/11/2020 4:30:00 PM 3.31 37.958 0.38 8.19 2.9 14.94
12/11/2020 4:45:00 PM 3.32 37.976 0.38 8.19 2.82 14.9
12/11/2020 5:00:00 PM 3.31 37.958 0.381 8.18 5.64 14.85
12/11/2020 5:15:00 PM 3.3 37.94 0.381 8.18 2.96 14.85
12/11/2020 5:30:00 PM 3.28 37.904 0.381 8.18 2.86 14.8
12/11/2020 5:45:00 PM 3.26 37.868 0.382 8.18 2.85 14.78
12/11/2020 6:00:00 PM 3.23 37.814 0.381 8.17 2.95 14.74
12/11/2020 6:15:00 PM 3.2 37.76 0.381 8.15 2.8 14.69
12/11/2020 6:30:00 PM 3.17 37.706 0.382 8.15 2.91 14.63
12/11/2020 6:45:00 PM 3.15 37.67 0.382 8.15 2.89 14.61
12/11/2020 7:00:00 PM 3.13 37.634 0.382 8.15 3.18 14.58
12/11/2020 7:15:00 PM 3.11 37.598 0.382 8.14 2.86 14.57
12/11/2020 7:30:00 PM 3.1 37.58 0.382 8.14 2.87 14.51
12/11/2020 7:45:00 PM 3.09 37.562 0.382 8.15 2.81 14.51
12/11/2020 8:00:00 PM 3.08 37.544 0.382 8.15 2.93 14.5
12/11/2020 8:15:00 PM 3.08 37.544 0.382 8.14 2.84 14.48
12/11/2020 8:30:00 PM 3.07 37.526 0.382 8.15 2.93 14.46
12/11/2020 8:45:00 PM 3.07 37.526 0.382 8.14 2.76 14.41
12/11/2020 9:00:00 PM 3.07 37.526 0.382 8.14 2.78 14.41
12/11/2020 9:15:00 PM 3.07 37.526 0.383 8.14 2.88 14.36
12/11/2020 9:30:00 PM 3.08 37.544 0.382 8.13 2.82 14.36
12/11/2020 9:45:00 PM 3.08 37.544 0.383 8.13 2.93 14.32
12/11/2020 10:00:00 PM 3.08 37.544 0.383 8.13 2.96 14.29
12/11/2020 10:15:00 PM 3.08 37.544 0.383 8.11 2.82 14.24
12/11/2020 10:30:00 PM 3.08 37.544 0.383 8.12 2.74 14.21
12/11/2020 10:45:00 PM 3.07 37.526 0.382 8.12 2.84 14.17
12/11/2020 11:00:00 PM 3.06 37.508 0.382 8.12 2.88 14.16
12/11/2020 11:15:00 PM 3.06 37.508 0.383 8.12 2.84 14.16
12/11/2020 11:30:00 PM 3.06 37.508 0.383 8.11 2.74 14.14
12/11/2020 11:45:00 PM 3.05 37.49 0.382 8.11 2.78 14.12
12/12/2020 12:00:00 AM 3.04 37.472 0.382 8.11 2.77 14.05
12/12/2020 12:15:00 AM 3.03 37.454 0.383 8.11 3.05 14.09
12/12/2020 12:30:00 AM 3.03 37.454 0.382 8.1 3.02 14.03
12/12/2020 12:45:00 AM 3.03 37.454 0.382 8.09 2.86 14.02
12/12/2020 1:00:00 AM 3.02 37.436 0.382 8.09 2.75 13.97
12/12/2020 1:15:00 AM 3.01 37.418 0.382 8.08 3 13.91
12/12/2020 1:30:00 AM 3.01 37.418 0.383 8.07 2.88 13.94
12/12/2020 1:45:00 AM 3.01 37.418 0.383 8.06 2.75 13.91
12/12/2020 2:00:00 AM 3 37.4 0.382 8.06 2.8 13.88
12/12/2020 2:15:00 AM 2.99 37.382 0.382 8.05 2.84 13.83
12/12/2020 2:30:00 AM 2.98 37.364 0.383 8.04 2.81 13.84
12/12/2020 2:45:00 AM 2.97 37.346 0.383 8.03 2.87 13.77
12/12/2020 3:00:00 AM 2.95 37.31 0.382 8.02 2.92 13.74
12/12/2020 3:15:00 AM 2.94 37.292 0.382 8.01 2.82 13.7
12/12/2020 3:30:00 AM 2.93 37.274 0.383 8 2.91 13.7
12/12/2020 3:45:00 AM 2.91 37.238 0.382 7.99 2.81 13.64
12/12/2020 4:00:00 AM 2.91 37.238 0.383 7.98 2.9 13.63
12/12/2020 4:15:00 AM 2.9 37.22 0.383 7.97 3.04 13.59
12/12/2020 4:30:00 AM 2.89 37.202 0.382 7.96 2.84 13.54
12/12/2020 4:45:00 AM 2.88 37.184 0.382 7.95 2.96 13.55
12/12/2020 5:00:00 AM 2.86 37.148 0.382 7.94 2.91 13.5
12/12/2020 5:15:00 AM 2.86 37.148 0.383 7.94 2.9 13.5
12/12/2020 5:30:00 AM 2.84 37.112 0.382 7.93 2.96 13.48
12/12/2020 5:45:00 AM 2.84 37.112 0.383 7.92 2.91 13.41
12/12/2020 6:00:00 AM 2.84 37.112 0.383 7.92 2.82 13.42
12/12/2020 6:15:00 AM 2.83 37.094 0.383 7.91 2.81 13.42
12/12/2020 6:30:00 AM 2.83 37.094 0.383 7.9 2.9 13.43
12/12/2020 6:45:00 AM 2.83 37.094 0.383 7.9 2.81 13.36
12/12/2020 7:00:00 AM 2.83 37.094 0.383 7.89 2.82 13.39
12/12/2020 7:15:00 AM 2.83 37.094 0.383 7.89 2.71 13.37
12/12/2020 7:30:00 AM 2.83 37.094 0.383 7.89 3.32 13.34
12/12/2020 7:45:00 AM 2.83 37.094 0.383 7.87 4.03 13.28
12/12/2020 8:00:00 AM 2.83 37.094 0.383 7.87 2.74 13.29
12/12/2020 8:15:00 AM 2.84 37.112 0.383 7.87 2.93 13.27
12/12/2020 8:30:00 AM 2.85 37.13 0.383 7.88 2.81 13.32
12/12/2020 8:45:00 AM 2.86 37.148 0.383 7.88 2.71 13.35
12/12/2020 9:00:00 AM 2.87 37.166 0.383 7.88 2.8 13.34
12/12/2020 9:15:00 AM 2.88 37.184 0.383 7.88 3.08 13.36
12/12/2020 9:30:00 AM 2.9 37.22 0.383 7.89 2.77 13.45
12/12/2020 9:45:00 AM 2.92 37.256 0.383 7.9 2.87 13.48
12/12/2020 10:00:00 AM 2.94 37.292 0.383 7.9 2.78 13.55
12/12/2020 10:15:00 AM 2.96 37.328 0.384 7.92 2.72 13.57
12/12/2020 10:30:00 AM 2.98 37.364 0.384 7.92 2.9 13.66
12/12/2020 10:45:00 AM 3 37.4 0.384 7.93 2.95 13.6
12/12/2020 11:00:00 AM 3.04 37.472 0.383 7.95 3.06 13.82
12/12/2020 11:15:00 AM 3.08 37.544 0.385 7.96 2.95 13.87
12/12/2020 11:30:00 AM 3.12 37.616 0.385 7.97 3.01 13.9
12/12/2020 11:45:00 AM 3.17 37.706 0.384 7.99 3.2 14.02
12/12/2020 12:00:00 PM 3.2 37.76 0.384 8 2.99 14.03
12/12/2020 12:15:00 PM 3.24 37.832 0.384 8.01 2.95 14.08
12/12/2020 12:30:00 PM 3.27 37.886 0.384 8.02 2.96 14.09
12/12/2020 12:45:00 PM 3.31 37.958 0.384 8.03 2.89 14.23
12/12/2020 1:00:00 PM 3.37 38.066 0.385 8.05 2.81 14.22
12/12/2020 1:15:00 PM 3.41 38.138 0.383 8.06 2.89 14.35
12/12/2020 1:30:00 PM 3.45 38.21 0.384 8.08 2.87 14.43
12/12/2020 1:45:00 PM 3.49 38.282 0.384 8.09 2.91 14.41
12/12/2020 2:00:00 PM 3.52 38.336 0.384 8.09 2.77 14.44
12/12/2020 2:15:00 PM 3.54 38.372 0.384 8.11 2.76 14.39
12/12/2020 2:30:00 PM 3.56 38.408 0.384 8.12 2.78 14.53
12/12/2020 2:45:00 PM 3.58 38.444 0.384 8.13 2.87 14.57
12/12/2020 3:00:00 PM 3.61 38.498 0.384 8.14 2.83 14.66
12/12/2020 3:15:00 PM 3.63 38.534 0.384 8.15 2.89 14.65
12/12/2020 3:30:00 PM 3.68 38.624 0.384 8.16 3.08 14.65
12/12/2020 3:45:00 PM 3.72 38.696 0.383 8.17 3.13 14.72
12/12/2020 4:00:00 PM 3.76 38.768 0.384 8.18 3.1 14.77
12/12/2020 4:15:00 PM 3.79 38.822 0.384 8.19 2.86 14.75
12/12/2020 4:30:00 PM 3.81 38.858 0.384 8.18 2.89 14.75
12/12/2020 4:45:00 PM 3.84 38.912 0.384 8.17 3.66 14.69
12/12/2020 5:00:00 PM 3.87 38.966 0.385 8.18 2.9 14.64
12/12/2020 5:15:00 PM 3.89 39.002 0.385 8.18 2.79 14.65
12/12/2020 5:30:00 PM 3.92 39.056 0.385 8.18 2.89 14.58
12/12/2020 5:45:00 PM 3.94 39.092 0.385 8.17 2.69 14.51
12/12/2020 6:00:00 PM 3.95 39.11 0.385 8.16 2.79 14.49
12/12/2020 6:15:00 PM 3.96 39.128 0.385 8.15 2.81 14.39
12/12/2020 6:30:00 PM 3.97 39.146 0.385 8.15 2.74 14.36
12/12/2020 6:45:00 PM 3.98 39.164 0.386 8.14 2.93 14.32
12/12/2020 7:00:00 PM 3.99 39.182 0.386 8.12 2.82 14.24
12/12/2020 7:15:00 PM 3.99 39.182 0.386 8.12 2.89 14.2
12/12/2020 7:30:00 PM 3.99 39.182 0.386 8.12 2.91 14.16
12/12/2020 7:45:00 PM 4 39.2 0.386 8.12 2.81 14.15
12/12/2020 8:00:00 PM 4 39.2 0.386 8.11 2.73 14.14
12/12/2020 8:15:00 PM 4 39.2 0.386 8.11 2.81 14.09
12/12/2020 8:30:00 PM 4.01 39.218 0.386 8.11 2.76 14.08
12/12/2020 8:45:00 PM 4.01 39.218 0.386 8.11 2.82 14.03
12/12/2020 9:00:00 PM 4.01 39.218 0.387 8.1 2.72 14
12/12/2020 9:15:00 PM 4.01 39.218 0.387 8.09 2.89 13.99
12/12/2020 9:30:00 PM 4.01 39.218 0.387 8.1 2.99 13.95
12/12/2020 9:45:00 PM 4.01 39.218 0.387 8.08 2.78 13.89
12/12/2020 10:00:00 PM 4.01 39.218 0.387 8.09 2.78 13.87
12/12/2020 10:15:00 PM 4.01 39.218 0.387 8.09 2.88 13.85
12/12/2020 10:30:00 PM 4.01 39.218 0.387 8.08 2.84 13.83
12/12/2020 10:45:00 PM 4.02 39.236 0.387 8.07 2.76 13.74
12/12/2020 11:00:00 PM 4.03 39.254 0.387 8.07 2.96 13.74
12/12/2020 11:15:00 PM 4.03 39.254 0.387 8.08 2.68 13.77
12/12/2020 11:30:00 PM 4.02 39.236 0.387 8.07 2.77 13.74
12/12/2020 11:45:00 PM 4.02 39.236 0.387 8.07 2.87 13.7
12/13/2020 12:00:00 AM 4.01 39.218 0.387 8.07 2.79 13.7
12/13/2020 12:15:00 AM 4.01 39.218 0.387 8.07 2.74 13.62
12/13/2020 12:30:00 AM 4.01 39.218 0.387 8.07 2.75 13.64
12/13/2020 12:45:00 AM 4 39.2 0.387 8.06 2.74 13.6
12/13/2020 1:00:00 AM 4 39.2 0.387 8.05 2.68 13.57
12/13/2020 1:15:00 AM 3.99 39.182 0.387 8.05 2.74 13.55
12/13/2020 1:30:00 AM 4 39.2 0.387 8.04 2.75 13.51
12/13/2020 1:45:00 AM 4 39.2 0.387 8.04 2.85 13.46
12/13/2020 2:00:00 AM 4 39.2 0.387 8.03 2.85 13.42
12/13/2020 2:15:00 AM 4.02 39.236 0.387 8.01 2.94 13.39
12/13/2020 2:30:00 AM 4.03 39.254 0.387 8.01 2.82 13.34
12/13/2020 2:45:00 AM 4.05 39.29 0.387 8 3 13.34
12/13/2020 3:00:00 AM 4.06 39.308 0.387 7.99 2.82 13.3
12/13/2020 3:15:00 AM 4.08 39.344 0.387 7.98 2.91 13.23
12/13/2020 3:30:00 AM 4.1 39.38 0.386 7.97 2.85 13.22
12/13/2020 3:45:00 AM 4.12 39.416 0.386 7.96 2.73 13.17
12/13/2020 4:00:00 AM 4.13 39.434 0.386 7.95 2.82 13.11
12/13/2020 4:15:00 AM 4.13 39.434 0.386 7.94 2.86 13.11
12/13/2020 4:30:00 AM 4.13 39.434 0.386 7.93 2.84 13.1
12/13/2020 4:45:00 AM 4.13 39.434 0.386 7.92 2.73 13.05
12/13/2020 5:00:00 AM 4.14 39.452 0.385 7.91 2.87 13.03
12/13/2020 5:15:00 AM 4.14 39.452 0.385 7.91 2.99 12.98
12/13/2020 5:30:00 AM 4.14 39.452 0.386 7.9 2.88 12.92
12/13/2020 5:45:00 AM 4.13 39.434 0.386 7.89 2.84 12.96
12/13/2020 6:00:00 AM 4.12 39.416 0.385 7.89 2.8 12.92
12/13/2020 6:15:00 AM 4.11 39.398 0.386 7.88 2.95 12.9
12/13/2020 6:30:00 AM 4.11 39.398 0.386 7.88 2.82 12.87
12/13/2020 6:45:00 AM 4.11 39.398 0.385 7.87 2.87 12.88
12/13/2020 7:00:00 AM 4.12 39.416 0.385 7.86 2.79 12.84
12/13/2020 7:15:00 AM 4.13 39.434 0.385 7.85 2.91 12.81
12/13/2020 7:30:00 AM 4.13 39.434 0.385 7.85 3.51 12.81
12/13/2020 7:45:00 AM 4.13 39.434 0.385 7.85 3.69 12.78
12/13/2020 8:00:00 AM 4.14 39.452 0.385 7.84 2.98 12.76
12/13/2020 8:15:00 AM 4.15 39.47 0.384 7.84 2.98 12.71
12/13/2020 8:30:00 AM 4.16 39.488 0.384 7.84 2.68 12.75
12/13/2020 8:45:00 AM 4.17 39.506 0.385 7.84 3.37 12.7
12/13/2020 9:00:00 AM 4.18 39.524 0.385 7.84 2.85 12.7
12/13/2020 9:15:00 AM 4.2 39.56 0.385 7.84 3.23 12.68
12/13/2020 9:30:00 AM 4.22 39.596 0.384 7.85 3.09 12.8
12/13/2020 9:45:00 AM 4.25 39.65 0.384 7.86 3.28 12.78
12/13/2020 10:00:00 AM 4.28 39.704 0.384 7.88 3.34 12.96
12/13/2020 10:15:00 AM 4.32 39.776 0.384 7.87 2.95 12.87
12/13/2020 10:30:00 AM 4.35 39.83 0.384 7.89 3.14 13.01
12/13/2020 10:45:00 AM 4.37 39.866 0.384 7.9 3.14 13.16
12/13/2020 11:00:00 AM 4.4 39.92 0.384 7.92 3.25 13.2
12/13/2020 11:15:00 AM 4.43 39.974 0.384 7.94 2.7 13.23
12/13/2020 11:30:00 AM 4.47 40.046 0.383 7.96 3.51 13.35
12/13/2020 11:45:00 AM 4.52 40.136 0.384 7.97 2.95 13.47
12/13/2020 12:00:00 PM 4.54 40.172 0.384 7.98 3.26 13.42
12/13/2020 12:15:00 PM 4.58 40.244 0.384 7.99 3.03 13.4
12/13/2020 12:30:00 PM 4.6 40.28 0.384 7.99 3.6 13.5
12/13/2020 12:45:00 PM 4.6 40.28 0.384 8.01 3.31 13.53
12/13/2020 1:00:00 PM 4.61 40.298 0.384 8.01 3.44 13.64
12/13/2020 1:15:00 PM 4.61 40.298 0.384 8.03 3.79 13.68
12/13/2020 1:30:00 PM 4.64 40.352 0.384 8.04 6.07 13.68
12/13/2020 1:45:00 PM 4.65 40.37 0.384 8.06 3.22 13.73
12/13/2020 2:00:00 PM 4.67 40.406 0.383 8.08 3.15 13.88
12/13/2020 2:15:00 PM 4.71 40.478 0.383 8.09 2.89 13.85
12/13/2020 2:30:00 PM 4.74 40.532 0.383 8.11 3.34 13.99
12/13/2020 2:45:00 PM 4.78 40.604 0.383 8.13 3.71 14.04
12/13/2020 3:00:00 PM 4.8 40.64 0.383 8.13 3.14 14.11
12/13/2020 3:15:00 PM 4.81 40.658 0.383 8.13 2.65 14.13
12/13/2020 3:30:00 PM 4.83 40.694 0.383 8.15 2.76 14.1
12/13/2020 3:45:00 PM 4.84 40.712 0.383 8.16 3.35 14.18
12/13/2020 4:00:00 PM 4.84 40.712 0.383 8.16 2.86 14.24
12/13/2020 4:15:00 PM 4.84 40.712 0.383 8.17 2.64 14.22
12/13/2020 4:30:00 PM 4.83 40.694 0.383 8.17 2.6 14.19
12/13/2020 4:45:00 PM 4.82 40.676 0.383 8.16 2.66 14.16
12/13/2020 5:00:00 PM 4.81 40.658 0.383 8.17 2.66 14.16
12/13/2020 5:15:00 PM 4.79 40.622 0.383 8.17 2.44 14.14
12/13/2020 5:30:00 PM 4.78 40.604 0.383 8.18 2.6 14.11
12/13/2020 5:45:00 PM 4.76 40.568 0.384 8.17 2.62 14.07
12/13/2020 6:00:00 PM 4.73 40.514 0.384 8.16 2.7 14
12/13/2020 6:15:00 PM 4.72 40.496 0.384 8.16 2.58 13.95
12/13/2020 6:30:00 PM 4.71 40.478 0.384 8.14 2.69 13.89
12/13/2020 6:45:00 PM 4.7 40.46 0.384 8.13 2.75 13.83
12/13/2020 7:00:00 PM 4.68 40.424 0.384 8.12 2.84 13.76
12/13/2020 7:15:00 PM 4.66 40.388 0.384 8.12 2.61 13.74
12/13/2020 7:30:00 PM 4.66 40.388 0.384 8.12 2.77 13.73
12/13/2020 7:45:00 PM 4.65 40.37 0.384 8.11 2.69 13.72
12/13/2020 8:00:00 PM 4.65 40.37 0.384 8.12 2.8 13.67
12/13/2020 8:15:00 PM 4.65 40.37 0.384 8.12 2.73 13.69
12/13/2020 8:30:00 PM 4.65 40.37 0.384 8.12 2.72 13.69
12/13/2020 8:45:00 PM 4.65 40.37 0.384 8.12 2.78 13.64
12/13/2020 9:00:00 PM 4.65 40.37 0.385 8.12 2.67 13.6
12/13/2020 9:15:00 PM 4.66 40.388 0.385 8.11 2.63 13.59
12/13/2020 9:30:00 PM 4.66 40.388 0.385 8.11 2.54 13.58
12/13/2020 9:45:00 PM 4.66 40.388 0.385 8.11 2.63 13.54
12/13/2020 10:00:00 PM 4.66 40.388 0.385 8.1 2.65 13.48
12/13/2020 10:15:00 PM 4.67 40.406 0.385 8.1 2.57 13.49
12/13/2020 10:30:00 PM 4.67 40.406 0.385 8.1 2.68 13.47
12/13/2020 10:45:00 PM 4.67 40.406 0.385 8.1 2.73 13.42
12/13/2020 11:00:00 PM 4.67 40.406 0.385 8.1 2.78 13.41
12/13/2020 11:15:00 PM 4.67 40.406 0.385 8.1 2.63 13.4
12/13/2020 11:30:00 PM 4.67 40.406 0.385 8.1 2.72 13.39
12/13/2020 11:45:00 PM 4.67 40.406 0.385 8.1 2.71 13.38
12/14/2020 12:00:00 AM 4.67 40.406 0.385 8.1 2.82 13.34
12/14/2020 12:15:00 AM 4.66 40.388 0.385 8.1 2.71 13.33
12/14/2020 12:30:00 AM 4.65 40.37 0.384 8.08 2.73 13.29
12/14/2020 12:45:00 AM 4.64 40.352 0.385 8.08 2.66 13.29
12/14/2020 1:00:00 AM 4.64 40.352 0.385 8.08 2.66 13.27
12/14/2020 1:15:00 AM 4.63 40.334 0.385 8.07 2.68 13.21
12/14/2020 1:30:00 AM 4.62 40.316 0.385 8.07 2.69 13.2
12/14/2020 1:45:00 AM 4.61 40.298 0.385 8.06 2.82 13.16
12/14/2020 2:00:00 AM 4.61 40.298 0.385 8.06 2.71 13.14
12/14/2020 2:15:00 AM 4.6 40.28 0.385 8.05 2.82 13.08
12/14/2020 2:30:00 AM 4.59 40.262 0.385 8.04 2.73 13.06
12/14/2020 2:45:00 AM 4.58 40.244 0.385 8.03 2.58 13.03
12/14/2020 3:00:00 AM 4.57 40.226 0.385 8.02 2.72 13
12/14/2020 3:15:00 AM 4.57 40.226 0.385 8.01 2.68 12.95
12/14/2020 3:30:00 AM 4.56 40.208 0.384 8 2.7 12.93
12/14/2020 3:45:00 AM 4.56 40.208 0.385 7.99 2.78 12.9
12/14/2020 4:00:00 AM 4.55 40.19 0.385 7.98 2.77 12.86
12/14/2020 4:15:00 AM 4.55 40.19 0.385 7.97 2.74 12.83
12/14/2020 4:30:00 AM 4.55 40.19 0.385 7.96 2.73 12.79
12/14/2020 4:45:00 AM 4.54 40.172 0.385 7.95 2.67 12.78
12/14/2020 5:00:00 AM 4.54 40.172 0.385 7.94 2.83 12.74
12/14/2020 5:15:00 AM 4.53 40.154 0.385 7.93 2.78 12.68
12/14/2020 5:30:00 AM 4.53 40.154 0.384 7.93 2.8 12.68
12/14/2020 5:45:00 AM 4.53 40.154 0.386 7.92 2.77 12.68
12/14/2020 6:00:00 AM 4.51 40.118 0.385 7.91 2.71 12.64
12/14/2020 6:15:00 AM 4.5 40.1 0.385 7.91 2.89 12.59
12/14/2020 6:30:00 AM 4.48 40.064 0.384 7.91 2.89 12.62
12/14/2020 6:45:00 AM 4.46 40.028 0.384 7.9 2.93 12.63
12/14/2020 7:00:00 AM 4.44 39.992 0.384 7.89 2.98 12.6
12/14/2020 7:15:00 AM 4.42 39.956 0.384 7.89 2.9 12.58
12/14/2020 7:30:00 AM 4.39 39.902 0.384 7.89 2.8 12.53
12/14/2020 7:45:00 AM 4.39 39.902 0.384 7.88 3.05 12.54
12/14/2020 8:00:00 AM 4.36 39.848 0.384 7.88 2.87 12.5
12/14/2020 8:15:00 AM 4.35 39.83 0.384 7.88 3.61 12.49
12/14/2020 8:30:00 AM 4.33 39.794 0.383 7.88 3.36 12.54
12/14/2020 8:45:00 AM 4.32 39.776 0.383 7.87 3.42 12.43
12/14/2020 9:00:00 AM 4.31 39.758 0.384 7.88 3.51 12.48
12/14/2020 9:15:00 AM 4.31 39.758 0.383 7.88 3.1 12.47
12/14/2020 9:30:00 AM 4.31 39.758 0.383 7.88 3.4 12.62
12/14/2020 9:45:00 AM 4.31 39.758 0.383 7.9 3.72 12.64
12/14/2020 10:00:00 AM 4.33 39.794 0.383 7.9 3.16 12.67
12/14/2020 10:15:00 AM 4.34 39.812 0.383 7.91 3.38 12.71
12/14/2020 10:30:00 AM 4.36 39.848 0.383 7.93 3.45 12.8
12/14/2020 10:45:00 AM 4.37 39.866 0.382 7.93 2.92 12.73
12/14/2020 11:00:00 AM 4.39 39.902 0.383 7.94 3.26 12.93
12/14/2020 11:15:00 AM 4.4 39.92 0.383 7.95 3.41 12.9
12/14/2020 11:30:00 AM 4.41 39.938 0.382 7.98 2.72 13.06
12/14/2020 11:45:00 AM 4.43 39.974 0.383 7.98 2.73 13.17
12/14/2020 12:00:00 PM 4.44 39.992 0.382 8 2.72 13.23
12/14/2020 12:15:00 PM 4.46 40.028 0.383 8.01 3.42 13.23
12/14/2020 12:30:00 PM 4.47 40.046 0.383 8.02 4.9 13.25
12/14/2020 12:45:00 PM 4.48 40.064 0.382 8.03 3.32 13.3
12/14/2020 1:00:00 PM 4.49 40.082 0.384 8.04 2.91 13.37
12/14/2020 1:15:00 PM 4.5 40.1 0.383 8.05 2.99 13.37
12/14/2020 1:30:00 PM 4.51 40.118 0.382 8.04 3.15 13.38
12/14/2020 1:45:00 PM 4.52 40.136 0.382 8.07 2.95 13.44
12/14/2020 2:00:00 PM 4.54 40.172 0.382 8.08 2.73 13.52
12/14/2020 2:15:00 PM 4.57 40.226 0.382 8.09 2.81 13.6
12/14/2020 2:30:00 PM 4.58 40.244 0.382 8.1 3.16 13.56
12/14/2020 2:45:00 PM 4.58 40.244 0.383 8.11 4.69 13.65
12/14/2020 3:00:00 PM 4.58 40.244 0.382 8.11 3.77 13.68
12/14/2020 3:15:00 PM 4.59 40.262 0.383 8.1 3.58 13.65
12/14/2020 3:30:00 PM 4.59 40.262 0.382 8.1 2.71 13.7
12/14/2020 3:45:00 PM 4.59 40.262 0.383 8.12 2.73 13.71
12/14/2020 4:00:00 PM 4.59 40.262 0.382 8.13 3.31 13.71
12/14/2020 4:15:00 PM 4.58 40.244 0.383 8.13 2.88 13.7
12/14/2020 4:30:00 PM 4.56 40.208 0.383 8.13 2.7 13.57
12/14/2020 4:45:00 PM 4.55 40.19 0.382 8.12 2.74 13.68
12/14/2020 5:00:00 PM 4.54 40.172 0.383 8.12 2.78 13.65
12/14/2020 5:15:00 PM 4.52 40.136 0.383 8.11 2.77 13.6
12/14/2020 5:30:00 PM 4.49 40.082 0.383 8.1 2.79 13.56
12/14/2020 5:45:00 PM 4.46 40.028 0.383 8.08 2.7 13.5
12/14/2020 6:00:00 PM 4.43 39.974 0.384 8.09 2.73 13.48
12/14/2020 6:15:00 PM 4.39 39.902 0.383 8.08 2.87 13.43
12/14/2020 6:30:00 PM 4.36 39.848 0.384 8.07 3.03 13.4
12/14/2020 6:45:00 PM 4.33 39.794 0.384 8.06 2.82 13.36
12/14/2020 7:00:00 PM 4.29 39.722 0.385 8.06 2.87 13.33
12/14/2020 7:15:00 PM 4.25 39.65 0.384 8.05 2.89 13.32
12/14/2020 7:30:00 PM 4.22 39.596 0.384 8.04 2.85 13.32
12/14/2020 7:45:00 PM 4.19 39.542 0.384 8.04 2.81 13.27
12/14/2020 8:00:00 PM 4.15 39.47 0.384 8.04 2.85 13.25
12/14/2020 8:15:00 PM 4.1 39.38 0.384 8.03 2.9 13.24
12/14/2020 8:30:00 PM 4.06 39.308 0.385 8.03 2.78 13.21
12/14/2020 8:45:00 PM 4.02 39.236 0.385 8.03 2.81 13.22
12/14/2020 9:00:00 PM 3.99 39.182 0.385 8.03 2.82 13.21
12/14/2020 9:15:00 PM 3.93 39.074 0.385 8.03 2.79 13.18
12/14/2020 9:30:00 PM 3.9 39.02 0.384 8.02 2.81 13.1
12/14/2020 9:45:00 PM 3.85 38.93 0.385 8.02 2.66 13.18
12/14/2020 10:00:00 PM 3.8 38.84 0.385 8.02 2.87 13.16
12/14/2020 10:15:00 PM 3.75 38.75 0.385 8.02 2.78 13.14
12/14/2020 10:30:00 PM 3.72 38.696 0.384 8.01 2.87 13.15
12/14/2020 10:45:00 PM 3.69 38.642 0.385 8.01 2.73 13.09
12/14/2020 11:00:00 PM 3.66 38.588 0.385 8.01 2.84 13.1
12/14/2020 11:15:00 PM 3.63 38.534 0.385 8.01 2.81 13.06
12/14/2020 11:30:00 PM 3.61 38.498 0.385 8.01 2.88 13.04
12/14/2020 11:45:00 PM 3.57 38.426 0.385 8.01 2.77 13.06
12/15/2020 12:00:00 AM 3.52 38.336 0.386 8 2.69 13.11
12/15/2020 12:15:00 AM 3.47 38.246 0.385 8 3.21 13.08
12/15/2020 12:30:00 AM 3.42 38.156 0.384 7.99 3.17 13.04
12/15/2020 12:45:00 AM 3.38 38.084 0.385 7.99 2.92 13.06
12/15/2020 1:00:00 AM 3.36 38.048 0.385 7.98 2.91 13.04
12/15/2020 1:15:00 AM 3.33 37.994 0.384 7.98 2.76 13.01
12/15/2020 1:30:00 AM 3.3 37.94 0.385 7.98 2.81 13
12/15/2020 1:45:00 AM 3.28 37.904 0.384 7.97 2.82 13.03
12/15/2020 2:00:00 AM 3.23 37.814 0.385 7.96 2.84 13
12/15/2020 2:15:00 AM 3.19 37.742 0.384 7.96 2.55 12.98
12/15/2020 2:30:00 AM 3.16 37.688 0.385 7.95 2.93 12.89
12/15/2020 2:45:00 AM 3.14 37.652 0.385 7.94 2.78 12.94
12/15/2020 3:00:00 AM 3.1 37.58 0.385 7.94 2.87 12.94
12/15/2020 3:15:00 AM 3.07 37.526 0.384 7.93 2.76 12.9
12/15/2020 3:30:00 AM 3.04 37.472 0.384 7.92 3 12.91
12/15/2020 3:45:00 AM 3.02 37.436 0.384 7.92 2.98 12.91
12/15/2020 4:00:00 AM 2.99 37.382 0.384 7.91 2.73 12.91
12/15/2020 4:15:00 AM 2.96 37.328 0.385 7.9 2.77 12.9
12/15/2020 4:30:00 AM 2.92 37.256 0.384 7.89 2.75 12.84
12/15/2020 4:45:00 AM 2.88 37.184 0.385 7.89 2.64 12.88
12/15/2020 5:00:00 AM 2.85 37.13 0.384 7.88 2.72 12.84
12/15/2020 5:15:00 AM 2.82 37.076 0.384 7.88 2.7 12.83
12/15/2020 5:30:00 AM 2.8 37.04 0.384 7.88 2.76 12.83
12/15/2020 5:45:00 AM 2.76 36.968 0.384 7.87 2.8 12.85
12/15/2020 6:00:00 AM 2.73 36.914 0.384 7.86 2.81 12.81
12/15/2020 6:15:00 AM 2.69 36.842 0.384 7.86 2.78 12.83
12/15/2020 6:30:00 AM 2.67 36.806 0.384 7.86 2.7 12.84
12/15/2020 6:45:00 AM 2.64 36.752 0.384 7.85 2.77 12.79
12/15/2020 7:00:00 AM 2.61 36.698 0.385 7.85 2.88 12.83
12/15/2020 7:15:00 AM 2.59 36.662 0.385 7.84 2.88 12.78
12/15/2020 7:30:00 AM 2.58 36.644 0.385 7.84 4.32 12.8
12/15/2020 7:45:00 AM 2.55 36.59 0.385 7.84 5.6 12.87
12/15/2020 8:00:00 AM 2.53 36.554 0.384 7.81 3.06 12.77
12/15/2020 8:15:00 AM 2.51 36.518 0.386 7.84 2.69 12.9
12/15/2020 8:30:00 AM 2.49 36.482 0.385 7.85 2.83 12.93
12/15/2020 8:45:00 AM 2.49 36.482 0.385 7.85 2.87 12.98
12/15/2020 9:00:00 AM 2.49 36.482 0.385 7.85 2.91 13
12/15/2020 9:15:00 AM 2.49 36.482 0.386 7.86 3.1 13.02
12/15/2020 9:30:00 AM 2.5 36.5 0.385 7.87 3.33 13.12
12/15/2020 9:45:00 AM 2.51 36.518 0.385 7.88 2.71 13.21
12/15/2020 10:00:00 AM 2.52 36.536 0.385 7.89 2.7 13.29
12/15/2020 10:15:00 AM 2.52 36.536 0.385 7.9 2.68 13.3
12/15/2020 10:30:00 AM 2.53 36.554 0.384 7.93 2.78 13.44
12/15/2020 10:45:00 AM 2.54 36.572 0.385 7.94 2.78 13.52
12/15/2020 11:00:00 AM 2.56 36.608 0.384 7.95 2.75 13.62
12/15/2020 11:15:00 AM 2.58 36.644 0.384 7.97 2.72 13.65
12/15/2020 11:30:00 AM 2.6 36.68 0.385 7.98 2.79 13.73
12/15/2020 11:45:00 AM 2.63 36.734 0.385 7.98 2.88 13.84
12/15/2020 12:00:00 PM 2.65 36.77 0.385 8.01 2.78 13.91
12/15/2020 12:15:00 PM 2.67 36.806 0.385 8 2.88 13.94
12/15/2020 12:30:00 PM 2.68 36.824 0.385 8.03 2.96 13.96
12/15/2020 12:45:00 PM 2.7 36.86 0.385 8.04 2.9 14.05
12/15/2020 1:00:00 PM 2.72 36.896 0.385 8.06 2.9 14.15
12/15/2020 1:15:00 PM 2.72 36.896 0.385 8.06 2.77 14.15
12/15/2020 1:30:00 PM 2.71 36.878 0.385 8.07 2.79 14.18
12/15/2020 1:45:00 PM 2.7 36.86 0.385 8.08 2.72 14.26
12/15/2020 2:00:00 PM 2.7 36.86 0.385 8.09 2.66 14.31
12/15/2020 2:15:00 PM 2.71 36.878 0.385 8.09 2.66 14.33
12/15/2020 2:30:00 PM 2.71 36.878 0.385 8.12 2.67 14.34
12/15/2020 2:45:00 PM 2.72 36.896 0.385 8.12 2.76 14.43
12/15/2020 3:00:00 PM 2.71 36.878 0.385 8.11 2.89 14.43
12/15/2020 3:15:00 PM 2.7 36.86 0.385 8.12 2.66 14.46
12/15/2020 3:30:00 PM 2.69 36.842 0.385 8.14 2.64 14.52
12/15/2020 3:45:00 PM 2.68 36.824 0.385 8.15 2.84 14.56
12/15/2020 4:00:00 PM 2.66 36.788 0.385 8.14 2.72 14.56
12/15/2020 4:15:00 PM 2.65 36.77 0.385 8.15 2.7 14.57
12/15/2020 4:30:00 PM 2.63 36.734 0.385 8.16 3.85 14.55
12/15/2020 4:45:00 PM 2.61 36.698 0.386 8.16 3.07 14.57
12/15/2020 5:00:00 PM 2.59 36.662 0.385 8.15 2.68 14.52
12/15/2020 5:15:00 PM 2.57 36.626 0.386 8.16 2.76 14.51
12/15/2020 5:30:00 PM 2.54 36.572 0.385 8.15 2.7 14.49
12/15/2020 5:45:00 PM 2.51 36.518 0.386 8.14 2.76 14.46
12/15/2020 6:00:00 PM 2.47 36.446 0.386 8.14 2.54 14.4
12/15/2020 6:15:00 PM 2.45 36.41 0.386 8.13 2.73 14.4
12/15/2020 6:30:00 PM 2.43 36.374 0.388 8.12 2.63 14.38
12/15/2020 6:45:00 PM 2.39 36.302 0.386 8.12 2.6 14.36
12/15/2020 7:00:00 PM 2.36 36.248 0.386 8.11 2.68 14.34
12/15/2020 7:15:00 PM 2.33 36.194 0.386 8.12 2.65 14.34
12/15/2020 7:30:00 PM 2.29 36.122 0.386 8.12 2.69 14.32
12/15/2020 7:45:00 PM 2.27 36.086 0.387 8.12 2.65 14.31
12/15/2020 8:00:00 PM 2.24 36.032 0.388 8.11 2.62 14.3
12/15/2020 8:15:00 PM 2.2 35.96 0.388 8.13 2.66 14.33
12/15/2020 8:30:00 PM 2.17 35.906 0.386 8.14 2.65 14.31
12/15/2020 8:45:00 PM 2.14 35.852 0.387 8.14 2.81 14.31
12/15/2020 9:00:00 PM 2.12 35.816 0.386 8.13 2.69 14.32
12/15/2020 9:15:00 PM 2.1 35.78 0.387 8.12 2.6 14.3
12/15/2020 9:30:00 PM 2.07 35.726 0.388 8.12 2.66 14.28
12/15/2020 9:45:00 PM 2.03 35.654 0.387 8.12 2.76 14.29
12/15/2020 10:00:00 PM 2 35.6 0.387 8.12 2.8 14.27
12/15/2020 10:15:00 PM 1.97 35.546 0.387 8.14 2.62 14.27
12/15/2020 10:30:00 PM 1.93 35.474 0.387 8.13 2.84 14.22
12/15/2020 10:45:00 PM 1.91 35.438 0.387 8.12 2.76 14.23
12/15/2020 11:00:00 PM 1.89 35.402 0.387 8.13 2.59 14.25
12/15/2020 11:15:00 PM 1.86 35.348 0.387 8.12 2.71 14.22
12/15/2020 11:30:00 PM 1.84 35.312 0.387 8.13 2.81 14.27
12/15/2020 11:45:00 PM 1.8 35.24 0.386 8.13 2.84 14.25
12/16/2020 12:00:00 AM 1.77 35.186 0.387 8.12 2.73 14.21
12/16/2020 12:15:00 AM 1.75 35.15 0.387 8.12 2.7 14.24
12/16/2020 12:30:00 AM 1.72 35.096 0.387 8.11 2.65 14.19
12/16/2020 12:45:00 AM 1.7 35.06 0.387 8.11 2.72 14.25
12/16/2020 1:00:00 AM 1.68 35.024 0.387 8.11 2.78 14.21
12/16/2020 1:15:00 AM 1.67 35.006 0.387 8.11 2.64 14.17
12/16/2020 1:30:00 AM 1.62 34.916 0.387 8.1 2.73 14.18
12/16/2020 1:45:00 AM 1.61 34.898 0.386 8.1 2.63 14.19
12/16/2020 2:00:00 AM 1.57 34.826 0.386 8.09 2.71 14.19
12/16/2020 2:15:00 AM 1.54 34.772 0.387 8.08 2.74 14.17
12/16/2020 2:30:00 AM 1.5 34.7 0.387 8.08 2.72 14.13
12/16/2020 2:45:00 AM 1.47 34.646 0.387 8.08 2.66 14.12
12/16/2020 3:00:00 AM 1.45 34.61 0.387 8.06 2.69 14.09
12/16/2020 3:15:00 AM 1.43 34.574 0.387 8.05 2.62 14.09
12/16/2020 3:30:00 AM 1.41 34.538 0.387 8.05 2.78 14.01
12/16/2020 3:45:00 AM 1.37 34.466 0.387 8.04 2.68 14
12/16/2020 4:00:00 AM 1.34 34.412 0.388 8.03 2.56 14.04
12/16/2020 4:15:00 AM 1.33 34.394 0.387 8.03 2.62 14
12/16/2020 4:30:00 AM 1.28 34.304 0.387 8.02 2.74 14.03
12/16/2020 4:45:00 AM 1.26 34.268 0.387 8 2.97 13.96
12/16/2020 5:00:00 AM 1.23 34.214 0.387 7.99 2.66 13.94
12/16/2020 5:15:00 AM 1.2 34.16 0.386 7.99 2.68 13.92
12/16/2020 5:30:00 AM 1.17 34.106 0.387 7.99 2.77 13.95
12/16/2020 5:45:00 AM 1.16 34.088 0.388 7.98 4.2 13.99
12/16/2020 6:00:00 AM 1.16 34.088 0.387 7.98 2.62 13.92
12/16/2020 6:15:00 AM 1.14 34.052 0.387 7.97 2.67 13.96
12/16/2020 6:30:00 AM 1.1 33.98 0.387 7.97 2.67 13.93
12/16/2020 6:45:00 AM 1.09 33.962 0.387 7.97 2.79 13.93
12/16/2020 7:00:00 AM 1.06 33.908 0.387 7.96 2.85 13.85
12/16/2020 7:15:00 AM 1.05 33.89 0.387 7.95 3.04 13.87
12/16/2020 7:30:00 AM 1.01 33.818 0.387 7.95 2.86 13.86
12/16/2020 7:45:00 AM 0.99 33.782 0.386 7.95 2.84 13.93
12/16/2020 8:00:00 AM 0.97 33.746 0.387 7.94 2.85 13.94
12/16/2020 8:15:00 AM 0.95 33.71 0.387 7.95 2.73 13.94
12/16/2020 8:30:00 AM 0.93 33.674 0.387 7.95 2.75 13.96
12/16/2020 8:45:00 AM 0.93 33.674 0.387 7.94 2.78 13.95
12/16/2020 9:00:00 AM 0.89 33.602 0.387 7.95 2.94 14
12/16/2020 9:15:00 AM 0.87 33.566 0.387 7.95 2.85 14.04
12/16/2020 9:30:00 AM 0.85 33.53 0.387 7.96 2.94 14.05
12/16/2020 9:45:00 AM 0.85 33.53 0.386 7.95 3.06 14.12
12/16/2020 10:00:00 AM 0.86 33.548 0.387 7.98 2.93 14.1
12/16/2020 10:15:00 AM 0.86 33.548 0.387 7.98 2.86 14.21
12/16/2020 10:30:00 AM 0.88 33.584 0.387 7.99 2.84 14.36
12/16/2020 10:45:00 AM 0.88 33.584 0.386 8 2.78 14.3
12/16/2020 11:00:00 AM 0.9 33.62 0.386 8.01 2.91 14.44
12/16/2020 11:15:00 AM 0.91 33.638 0.386 8.03 2.86 14.35
12/16/2020 11:30:00 AM 0.93 33.674 0.386 8.03 3.53 14.52
12/16/2020 11:45:00 AM 0.93 33.674 0.386 8.05 2.84 14.54
12/16/2020 12:00:00 PM 0.94 33.692 0.386 8.07 2.73 14.58
12/16/2020 12:15:00 PM 0.92 33.656 0.386 8.07 2.74 14.66
12/16/2020 12:30:00 PM 0.91 33.638 0.386 8.08 2.78 14.69
12/16/2020 12:45:00 PM 0.91 33.638 0.386 8.08 2.84 14.69
12/16/2020 1:00:00 PM 0.89 33.602 0.386 8.08 2.75 14.72
12/16/2020 1:15:00 PM 0.86 33.548 0.386 8.08 2.91 14.76
12/16/2020 1:30:00 PM 0.81 33.458 0.385 8.09 2.73 14.77
12/16/2020 1:45:00 PM 0.77 33.386 0.386 8.09 2.8 14.79
12/16/2020 2:00:00 PM 0.7 33.26 0.386 8.09 2.76 14.77
12/16/2020 2:15:00 PM 0.65 33.17 0.386 8.1 2.85 14.76
12/16/2020 2:30:00 PM 0.57 33.026 0.386 8.1 2.72 14.79
12/16/2020 2:45:00 PM 0.52 32.936 0.386 8.12 2.9 14.85
12/16/2020 3:00:00 PM 0.46 32.828 0.385 8.12 2.84 14.82
12/16/2020 3:15:00 PM 0.43 32.774 0.386 8.12 2.77 14.83
12/16/2020 3:30:00 PM 0.37 32.666 0.386 8.12 2.76 14.85
12/16/2020 3:45:00 PM 0.33 32.594 0.386 8.12 2.68 14.9
12/16/2020 4:00:00 PM 0.29 32.522 0.386 8.12 2.88 14.89
12/16/2020 4:15:00 PM 0.25 32.45 0.386 8.12 2.88 14.87
12/16/2020 4:30:00 PM 0.21 32.378 0.387 8.12 2.77 14.86
12/16/2020 4:45:00 PM 0.19 32.342 0.387 8.11 2.76 14.84
12/16/2020 5:00:00 PM 0.17 32.306 0.387 8.1 2.77 14.82
12/16/2020 5:15:00 PM 0.14 32.252 0.387 8.09 3.12 14.82
12/16/2020 5:30:00 PM 0.12 32.216 0.387 8.09 2.7 14.81
12/16/2020 5:45:00 PM 0.1 32.18 0.387 8.09 2.8 14.78
12/16/2020 6:00:00 PM 0.09 32.162 0.387 8.08 2.8 14.74
12/16/2020 6:15:00 PM 0.07 32.126 0.387 8.07 2.92 14.74
12/16/2020 6:30:00 PM 0.07 32.126 0.387 8.06 2.95 14.67
12/16/2020 6:45:00 PM 0.05 32.09 0.387 8.04 2.73 14.66
12/16/2020 7:00:00 PM 0.06 32.108 0.388 8.05 2.68 14.61
12/16/2020 7:15:00 PM 0.05 32.09 0.388 8.05 2.61 14.61
12/16/2020 7:30:00 PM 0 32 0.387 8.03 2.8 14.6
12/16/2020 7:45:00 PM 0.02 32.036 0.389 8.04 2.85 14.66
12/16/2020 8:00:00 PM -0.03 31.946 0.387 8.04 2.94 14.61
12/16/2020 8:15:00 PM -0.03 31.946 0.388 8.04 2.79 14.67
12/16/2020 8:30:00 PM -0.03 31.946 0.388 8.03 2.86 14.67
12/16/2020 8:45:00 PM -0.01 31.982 0.388 8.02 2.69 14.67
12/16/2020 9:00:00 PM 0.01 32.018 0.388 8.02 2.79 14.61
12/16/2020 9:15:00 PM -0.02 31.964 0.388 8.02 2.78 14.59
12/16/2020 9:30:00 PM -0.03 31.946 0.388 8.02 2.9 14.63
12/16/2020 9:45:00 PM 0 32 0.389 8.01 2.77 14.65
12/16/2020 10:00:00 PM 0.03 32.054 0.389 8.02 2.71 14.53
12/16/2020 10:15:00 PM -0.02 31.964 0.388 8.01 2.83 14.57
12/16/2020 10:30:00 PM -0.03 31.946 0.389 8.01 2.91 14.49
12/16/2020 10:45:00 PM -0.05 31.91 0.388 8 2.88 14.37
12/16/2020 11:00:00 PM -0.05 31.91 0.389 7.99 2.77 14.53
12/16/2020 11:15:00 PM -0.04 31.928 0.39 7.98 2.77 14.49
12/16/2020 11:30:00 PM -0.03 31.946 0.39 7.98 2.75 14.46
12/16/2020 11:45:00 PM 0 32 0.39 7.97 3.08 14.42
12/17/2020 12:00:00 AM -0.06 31.892 0.389 7.98 3.38 14.52
12/17/2020 12:15:00 AM -0.07 31.874 0.39 7.97 3.39 14.52
12/17/2020 12:30:00 AM -0.07 31.874 0.389 7.98 3.14 14.54
12/17/2020 12:45:00 AM -0.07 31.874 0.389 7.97 4.03 14.49
12/17/2020 1:00:00 AM -0.05 31.91 0.389 7.98 3.48 14.48
12/17/2020 1:15:00 AM -0.02 31.964 0.389 7.96 3.41 14.47
12/17/2020 1:30:00 AM -0.08 31.856 0.39 7.98 5.84 14.53
12/17/2020 1:45:00 AM -0.08 31.856 0.39 7.96 7.05 14.5
12/17/2020 2:00:00 AM -0.08 31.856 0.39 7.95 4.64 14.46
12/17/2020 2:15:00 AM -0.08 31.856 0.39 7.93 10.36 14.43
12/17/2020 2:30:00 AM -0.08 31.856 0.392 7.92 8.17 14.4
12/17/2020 2:45:00 AM -0.07 31.874 0.392 7.9 5.98 14.34
12/17/2020 3:00:00 AM -0.08 31.856 0.392 7.88 5.48 14.31
12/17/2020 3:15:00 AM -0.07 31.874 0.392 7.88 4.15 14.27
12/17/2020 3:30:00 AM -0.07 31.874 0.392 7.87 5.17 14.24
12/17/2020 3:45:00 AM -0.07 31.874 0.392 7.86 5.39 14.18
12/17/2020 4:00:00 AM -0.07 31.874 0.393 7.83 3.83 14.1
12/17/2020 4:15:00 AM -0.07 31.874 0.393 7.81 3.41 14.03
12/17/2020 4:30:00 AM -0.07 31.874 0.393 7.78 3.24 13.94
12/17/2020 4:45:00 AM -0.07 31.874 0.393 7.77 4.07 13.87
12/17/2020 5:00:00 AM -0.07 31.874 0.393 7.75 3.5 13.83
12/17/2020 5:15:00 AM -0.07 31.874 0.393 7.74 3.79 13.77
12/17/2020 5:30:00 AM -0.07 31.874 0.394 7.73 3.57 13.73
12/17/2020 5:45:00 AM -0.07 31.874 0.394 7.72 3.51 13.69
12/17/2020 6:00:00 AM -0.07 31.874 0.394 7.71 3.47 13.67
12/17/2020 6:15:00 AM -0.06 31.892 0.394 7.71 3.72 13.64
12/17/2020 6:30:00 AM -0.06 31.892 0.394 7.7 3.67 13.62
12/17/2020 6:45:00 AM -0.06 31.892 0.395 7.7 3.64 13.6
12/17/2020 7:00:00 AM -0.06 31.892 0.395 7.69 3.79 13.58
12/17/2020 7:15:00 AM -0.05 31.91 0.395 7.69 3.65 13.55
12/17/2020 7:30:00 AM -0.05 31.91 0.396 7.69 3.73 13.53
12/17/2020 7:45:00 AM -0.05 31.91 0.395 7.68 4.57 13.52
12/17/2020 8:00:00 AM -0.05 31.91 0.395 7.67 5.47 13.49
12/17/2020 8:15:00 AM -0.05 31.91 0.395 7.67 3.67 13.44
12/17/2020 8:30:00 AM -0.05 31.91 0.396 7.66 3.7 13.42
12/17/2020 8:45:00 AM -0.05 31.91 0.396 7.66 3.57 13.42
12/17/2020 9:00:00 AM -0.05 31.91 0.396 7.65 3.57 13.41
12/17/2020 9:15:00 AM -0.04 31.928 0.396 7.64 3.45 13.41
12/17/2020 9:30:00 AM -0.04 31.928 0.396 7.63 3.43 13.42
12/17/2020 9:45:00 AM -0.03 31.946 0.396 7.63 3.79 13.39
12/17/2020 10:00:00 AM -0.03 31.946 0.395 7.63 3.53 13.45
12/17/2020 10:15:00 AM -0.02 31.964 0.395 7.63 3.55 13.48
12/17/2020 10:30:00 AM -0.02 31.964 0.395 7.64 3.99 13.51
12/17/2020 10:45:00 AM -0.01 31.982 0.394 7.65 3.67 13.53
12/17/2020 11:00:00 AM -0.01 31.982 0.395 7.66 5.09 13.62
12/17/2020 11:15:00 AM -0.01 31.982 0.395 7.66 10.43 13.68
12/17/2020 11:30:00 AM 0 32 0.395 7.67 7.7 13.75
12/17/2020 11:45:00 AM 0 32 0.394 7.68 4.33 13.82
12/17/2020 12:00:00 PM 0 32 0.394 7.69 3.05 13.89
12/17/2020 12:15:00 PM 0 32 0.394 7.7 3.16 13.95
12/17/2020 12:30:00 PM 0 32 0.394 7.72 3.4 14.01
12/17/2020 12:45:00 PM 0.01 32.018 0.393 7.73 3.13 14.09
12/17/2020 1:00:00 PM 0.01 32.018 0.393 7.74 3.17 14.11
12/17/2020 1:15:00 PM 0.01 32.018 0.393 7.76 3.01 14.19
12/17/2020 1:30:00 PM 0.02 32.036 0.393 7.79 3.69 14.33
12/17/2020 1:45:00 PM 0.01 32.018 0.394 7.82 3.26 14.38
12/17/2020 2:00:00 PM 0.01 32.018 0.392 7.85 3.2 14.5
12/17/2020 2:15:00 PM 0.01 32.018 0.391 7.88 3.41 14.65
12/17/2020 2:30:00 PM 0 32 0.391 7.91 3.32 14.67
12/17/2020 2:45:00 PM 0 32 0.391 7.94 3.58 14.77
12/17/2020 3:00:00 PM 0 32 0.391 7.95 4.22 14.8
12/17/2020 3:15:00 PM 0 32 0.391 7.96 3.57 14.86
12/17/2020 3:30:00 PM -0.01 31.982 0.392 7.96 3.44 14.87
12/17/2020 3:45:00 PM -0.02 31.964 0.392 7.96 3.4 14.86
12/17/2020 4:00:00 PM -0.02 31.964 0.392 7.96 3.32 14.87
12/17/2020 4:15:00 PM -0.02 31.964 0.391 7.95 3.23 14.84
12/17/2020 4:30:00 PM -0.02 31.964 0.392 7.95 3.26 14.83
12/17/2020 4:45:00 PM -0.03 31.946 0.392 7.94 3.37 14.8
12/17/2020 5:00:00 PM -0.03 31.946 0.392 7.94 3.27 14.82
12/17/2020 5:15:00 PM -0.03 31.946 0.392 7.94 3.34 14.79
12/17/2020 5:30:00 PM -0.03 31.946 0.392 7.93 3.21 14.79
12/17/2020 5:45:00 PM -0.03 31.946 0.392 7.93 3.28 14.79
12/17/2020 6:00:00 PM -0.03 31.946 0.393 7.93 3.35 14.79
12/17/2020 6:15:00 PM -0.03 31.946 0.393 7.93 3.14 14.76
12/17/2020 6:30:00 PM -0.03 31.946 0.393 7.93 3.35 14.73
12/17/2020 6:45:00 PM -0.03 31.946 0.394 7.92 3.19 14.72
12/17/2020 7:00:00 PM -0.03 31.946 0.394 7.92 3.31 14.69
12/17/2020 7:15:00 PM -0.03 31.946 0.395 7.91 3.02 14.67
12/17/2020 7:30:00 PM -0.03 31.946 0.395 7.91 3.29 14.64
12/17/2020 7:45:00 PM -0.03 31.946 0.395 7.9 3.26 14.63
12/17/2020 8:00:00 PM -0.03 31.946 0.395 7.9 3.21 14.58
12/17/2020 8:15:00 PM -0.03 31.946 0.396 7.89 3.09 14.56
12/17/2020 8:30:00 PM -0.03 31.946 0.397 7.89 3.11 14.54
12/17/2020 8:45:00 PM -0.03 31.946 0.397 7.88 3.09 14.53
12/17/2020 9:00:00 PM -0.03 31.946 0.398 7.88 3.18 14.49
12/17/2020 9:15:00 PM -0.03 31.946 0.398 7.87 3.21 14.49
12/17/2020 9:30:00 PM -0.03 31.946 0.398 7.87 3.16 14.46
12/17/2020 9:45:00 PM -0.03 31.946 0.398 7.86 3.22 14.47
12/17/2020 10:00:00 PM -0.03 31.946 0.4 7.86 3.37 14.45
12/17/2020 10:15:00 PM -0.03 31.946 0.4 7.86 3.29 14.42
12/17/2020 10:30:00 PM -0.03 31.946 0.4 7.85 3.01 14.42
12/17/2020 10:45:00 PM -0.03 31.946 0.401 7.85 3.11 14.4
12/17/2020 11:00:00 PM -0.03 31.946 0.401 7.84 3.24 14.37
12/17/2020 11:15:00 PM -0.03 31.946 0.401 7.84 3.16 14.35
12/17/2020 11:30:00 PM -0.03 31.946 0.402 7.84 3.07 14.33
12/17/2020 11:45:00 PM -0.03 31.946 0.402 7.83 3.38 14.31
12/18/2020 12:00:00 AM -0.03 31.946 0.402 7.83 3.12 14.3
12/18/2020 12:15:00 AM -0.03 31.946 0.402 7.83 3.2 14.27
12/18/2020 12:30:00 AM -0.03 31.946 0.402 7.82 3.24 14.28
12/18/2020 12:45:00 AM -0.03 31.946 0.403 7.82 2.96 14.27
12/18/2020 1:00:00 AM -0.03 31.946 0.403 7.83 3.11 14.27
12/18/2020 1:15:00 AM -0.03 31.946 0.402 7.82 3.17 14.29
12/18/2020 1:30:00 AM -0.03 31.946 0.403 7.83 3.12 14.28
12/18/2020 1:45:00 AM -0.03 31.946 0.403 7.83 3.07 14.27
12/18/2020 2:00:00 AM -0.03 31.946 0.403 7.83 3.09 14.27
12/18/2020 2:15:00 AM -0.03 31.946 0.403 7.83 3.12 14.29
12/18/2020 2:30:00 AM -0.03 31.946 0.403 7.83 3.06 14.3
12/18/2020 2:45:00 AM -0.03 31.946 0.403 7.84 3.18 14.32
12/18/2020 3:00:00 AM -0.03 31.946 0.403 7.84 3.23 14.35
12/18/2020 3:15:00 AM -0.04 31.928 0.403 7.84 3.22 14.38
12/18/2020 3:30:00 AM -0.04 31.928 0.402 7.85 3.07 14.38
12/18/2020 3:45:00 AM -0.04 31.928 0.402 7.85 3.09 14.38
12/18/2020 4:00:00 AM -0.04 31.928 0.403 7.86 3.18 14.4
12/18/2020 4:15:00 AM -0.04 31.928 0.403 7.85 3.21 14.4
12/18/2020 4:30:00 AM -0.04 31.928 0.403 7.86 3.15 14.44
12/18/2020 4:45:00 AM -0.04 31.928 0.402 7.86 3.27 14.42
12/18/2020 5:00:00 AM -0.04 31.928 0.403 7.86 3.11 14.41
12/18/2020 5:15:00 AM -0.04 31.928 0.403 7.86 3.23 14.4
12/18/2020 5:30:00 AM -0.04 31.928 0.403 7.85 3.16 14.39
12/18/2020 5:45:00 AM -0.04 31.928 0.403 7.85 3.19 14.38
12/18/2020 6:00:00 AM -0.04 31.928 0.404 7.85 3.19 14.36
12/18/2020 6:15:00 AM -0.04 31.928 0.404 7.85 3.17 14.36
12/18/2020 6:30:00 AM -0.04 31.928 0.405 7.85 3.11 14.34
12/18/2020 6:45:00 AM -0.04 31.928 0.405 7.84 3.01 14.34
12/18/2020 7:00:00 AM -0.04 31.928 0.405 7.84 3.07 14.33
12/18/2020 7:15:00 AM -0.04 31.928 0.405 7.84 3.13 14.3
12/18/2020 7:30:00 AM -0.04 31.928 0.406 7.84 3.3 14.28
12/18/2020 7:45:00 AM -0.04 31.928 0.406 7.83 3.25 14.28
12/18/2020 8:00:00 AM -0.04 31.928 0.407 7.83 3.3 14.29
12/18/2020 8:15:00 AM -0.04 31.928 0.407 7.81 3.21 14.29
12/18/2020 8:30:00 AM -0.04 31.928 0.408 7.82 3.64 14.27
12/18/2020 8:45:00 AM -0.04 31.928 0.408 7.81 3.2 14.25
12/18/2020 9:00:00 AM -0.04 31.928 0.409 7.81 3.96 14.25
12/18/2020 9:15:00 AM -0.04 31.928 0.409 7.81 3.14 14.26
12/18/2020 9:30:00 AM -0.03 31.946 0.409 7.81 3.27 14.24
12/18/2020 9:45:00 AM -0.03 31.946 0.409 7.81 3.14 14.24
12/18/2020 10:00:00 AM -0.02 31.964 0.409 7.81 3.27 14.27
12/18/2020 10:15:00 AM -0.02 31.964 0.41 7.81 3.23 14.34
12/18/2020 10:30:00 AM -0.02 31.964 0.41 7.81 3.27 14.33
12/18/2020 10:45:00 AM -0.02 31.964 0.41 7.81 3.2 14.36
12/18/2020 11:00:00 AM -0.02 31.964 0.41 7.82 3.03 14.4
12/18/2020 11:15:00 AM -0.02 31.964 0.41 7.82 3.13 14.4
12/18/2020 11:30:00 AM -0.02 31.964 0.41 7.83 3.21 14.45
12/18/2020 11:45:00 AM -0.02 31.964 0.41 7.83 3.33 14.47
12/18/2020 12:00:00 PM -0.02 31.964 0.409 7.83 3.1 14.51
12/18/2020 12:15:00 PM -0.02 31.964 0.409 7.84 3.35 14.56
12/18/2020 12:30:00 PM -0.02 31.964 0.409 7.85 3.26 14.57
12/18/2020 12:45:00 PM -0.02 31.964 0.409 7.86 3.23 14.63
12/18/2020 1:00:00 PM -0.01 31.982 0.409 7.86 3.12 14.62
12/18/2020 1:15:00 PM -0.01 31.982 0.409 7.87 3.16 14.65
12/18/2020 1:30:00 PM 0 32 0.409 7.88 3.25 14.68
12/18/2020 1:45:00 PM 0 32 0.408 7.86 3.21 14.74
12/18/2020 2:00:00 PM 0 32 0.409 7.89 3.07 14.77
12/18/2020 2:15:00 PM 0 32 0.408 7.9 3.15 14.84
12/18/2020 2:30:00 PM 0 32 0.408 7.91 3.17 14.85
12/18/2020 2:45:00 PM 0 32 0.407 7.92 3.23 14.88
12/18/2020 3:00:00 PM 0 32 0.407 7.93 3.21 14.92
12/18/2020 3:15:00 PM 0 32 0.405 7.94 3.2 14.96
12/18/2020 3:30:00 PM 0 32 0.406 7.94 3.27 15.01
12/18/2020 3:45:00 PM 0 32 0.405 7.95 3.17 14.99
12/18/2020 4:00:00 PM -0.01 31.982 0.405 7.95 3.11 15.03
12/18/2020 4:15:00 PM -0.02 31.964 0.404 7.96 3.18 15.05
12/18/2020 4:30:00 PM -0.02 31.964 0.405 7.96 3.1 15.01
12/18/2020 4:45:00 PM -0.03 31.946 0.404 7.95 3.13 15
12/18/2020 5:00:00 PM -0.03 31.946 0.404 7.95 3.25 15
12/18/2020 5:15:00 PM -0.03 31.946 0.404 7.95 3.29 14.98
12/18/2020 5:30:00 PM -0.03 31.946 0.403 7.94 3.41 14.94
12/18/2020 5:45:00 PM -0.03 31.946 0.404 7.93 3.16 14.91
12/18/2020 6:00:00 PM -0.03 31.946 0.404 7.93 3.18 14.89
12/18/2020 6:15:00 PM -0.03 31.946 0.404 7.92 3.28 14.88
12/18/2020 6:30:00 PM -0.03 31.946 0.403 7.91 3.19 14.85
12/18/2020 6:45:00 PM -0.03 31.946 0.403 7.9 3.35 14.82
12/18/2020 7:00:00 PM -0.03 31.946 0.403 7.89 3.23 14.8
12/18/2020 7:15:00 PM -0.03 31.946 0.402 7.89 3.13 14.78
12/18/2020 7:30:00 PM -0.03 31.946 0.403 7.89 3.17 14.76
12/18/2020 7:45:00 PM -0.03 31.946 0.402 7.89 3.24 14.76
12/18/2020 8:00:00 PM -0.03 31.946 0.401 7.88 3.24 14.76
12/18/2020 8:15:00 PM -0.03 31.946 0.401 7.88 3.22 14.74
12/18/2020 8:30:00 PM -0.03 31.946 0.401 7.88 3.23 14.73
12/18/2020 8:45:00 PM -0.03 31.946 0.4 7.87 3.1 14.74
12/18/2020 9:00:00 PM -0.03 31.946 0.4 7.87 3.33 14.74
12/18/2020 9:15:00 PM -0.03 31.946 0.399 7.87 3.1 14.73
12/18/2020 9:30:00 PM -0.03 31.946 0.399 7.86 3.26 14.72
12/18/2020 9:45:00 PM -0.03 31.946 0.399 7.86 3.12 14.71
12/18/2020 10:00:00 PM -0.03 31.946 0.398 7.85 3.21 14.7
12/18/2020 10:15:00 PM -0.03 31.946 0.398 7.85 3.2 14.68
12/18/2020 10:30:00 PM -0.03 31.946 0.397 7.85 3.15 14.68
12/18/2020 10:45:00 PM -0.03 31.946 0.397 7.85 3.08 14.68
12/18/2020 11:00:00 PM -0.03 31.946 0.396 7.84 3.16 14.65
12/18/2020 11:15:00 PM -0.03 31.946 0.396 7.84 3.09 14.66
12/18/2020 11:30:00 PM -0.03 31.946 0.395 7.84 3.12 14.66
12/18/2020 11:45:00 PM -0.02 31.964 0.395 7.84 3.01 14.66
12/19/2020 12:00:00 AM -0.03 31.946 0.394 7.83 3.36 14.69
12/19/2020 12:15:00 AM -0.03 31.946 0.394 7.84 3.29 14.68
12/19/2020 12:30:00 AM -0.03 31.946 0.394 7.84 3.15 14.63
12/19/2020 12:45:00 AM -0.03 31.946 0.393 7.84 3.02 14.65
12/19/2020 1:00:00 AM -0.03 31.946 0.393 7.83 3.02 14.65
12/19/2020 1:15:00 AM -0.03 31.946 0.392 7.83 3.14 14.66
12/19/2020 1:30:00 AM -0.03 31.946 0.392 7.83 3.23 14.65
12/19/2020 1:45:00 AM -0.03 31.946 0.392 7.83 3 14.64
12/19/2020 2:00:00 AM -0.03 31.946 0.392 7.83 2.99 14.65
12/19/2020 2:15:00 AM -0.03 31.946 0.392 7.82 3.03 14.62
12/19/2020 2:30:00 AM -0.02 31.964 0.391 7.82 3.12 14.65
12/19/2020 2:45:00 AM -0.02 31.964 0.391 7.82 3.15 14.62
12/19/2020 3:00:00 AM -0.02 31.964 0.391 7.82 3.17 14.62
12/19/2020 3:15:00 AM -0.03 31.946 0.391 7.81 3.06 14.6
12/19/2020 3:30:00 AM -0.03 31.946 0.39 7.8 3.22 14.59
12/19/2020 3:45:00 AM -0.02 31.964 0.391 7.8 3.03 14.57
12/19/2020 4:00:00 AM -0.02 31.964 0.391 7.78 3.22 14.54
12/19/2020 4:15:00 AM -0.02 31.964 0.391 7.79 3.08 14.51
12/19/2020 4:30:00 AM -0.02 31.964 0.391 7.78 3.04 14.46
12/19/2020 4:45:00 AM -0.02 31.964 0.391 7.77 3.02 14.46
12/19/2020 5:00:00 AM -0.02 31.964 0.392 7.76 3.03 14.41
12/19/2020 5:15:00 AM -0.02 31.964 0.392 7.75 3.14 14.38
12/19/2020 5:30:00 AM -0.02 31.964 0.392 7.74 3.08 14.35
12/19/2020 5:45:00 AM -0.02 31.964 0.392 7.74 3.13 14.32
12/19/2020 6:00:00 AM -0.02 31.964 0.392 7.73 3 14.29
12/19/2020 6:15:00 AM -0.02 31.964 0.392 7.72 3.15 14.26
12/19/2020 6:30:00 AM -0.02 31.964 0.392 7.72 2.95 14.23
12/19/2020 6:45:00 AM -0.02 31.964 0.394 7.71 3.1 14.19
12/19/2020 7:00:00 AM -0.02 31.964 0.392 7.7 3.22 14.21
12/19/2020 7:15:00 AM -0.02 31.964 0.393 7.7 3.16 14.16
12/19/2020 7:30:00 AM -0.02 31.964 0.393 7.69 3.04 14.11
12/19/2020 7:45:00 AM -0.02 31.964 0.393 7.68 3.16 14.08
12/19/2020 8:00:00 AM -0.01 31.982 0.394 7.68 3.14 14.05
12/19/2020 8:15:00 AM -0.01 31.982 0.393 7.68 3.03 14.08
12/19/2020 8:30:00 AM -0.01 31.982 0.394 7.67 3.22 14.05
12/19/2020 8:45:00 AM 0 32 0.394 7.67 3.16 14.05
12/19/2020 9:00:00 AM 0 32 0.394 7.67 2.98 14.07
12/19/2020 9:15:00 AM 0.01 32.018 0.394 7.67 3.02 14.08
12/19/2020 9:30:00 AM 0.02 32.036 0.394 7.67 3.11 14.09
12/19/2020 9:45:00 AM 0.03 32.054 0.393 7.67 3.18 14.15
12/19/2020 10:00:00 AM 0.03 32.054 0.394 7.67 3.18 14.14
12/19/2020 10:15:00 AM 0.04 32.072 0.393 7.69 3.14 14.24
12/19/2020 10:30:00 AM 0.05 32.09 0.393 7.7 3.11 14.32
12/19/2020 10:45:00 AM 0.05 32.09 0.392 7.7 3.06 14.36
12/19/2020 11:00:00 AM 0.06 32.108 0.391 7.72 3.08 14.49
12/19/2020 11:15:00 AM 0.07 32.126 0.393 7.73 2.99 14.52
12/19/2020 11:30:00 AM 0.07 32.126 0.391 7.74 3.18 14.59
12/19/2020 11:45:00 AM 0.07 32.126 0.391 7.77 3.1 14.66
12/19/2020 12:00:00 PM 0.07 32.126 0.392 7.78 3.14 14.76
12/19/2020 12:15:00 PM 0.06 32.108 0.391 7.79 3.19 14.82
12/19/2020 12:30:00 PM 0.07 32.126 0.391 7.81 3.29 14.9
12/19/2020 12:45:00 PM 0.06 32.108 0.39 7.82 3.24 14.95
12/19/2020 1:00:00 PM 0.06 32.108 0.39 7.83 3.3 14.99
12/19/2020 1:15:00 PM 0.06 32.108 0.391 7.85 3.35 15.06
12/19/2020 1:30:00 PM 0.05 32.09 0.391 7.85 3.23 15.09
12/19/2020 1:45:00 PM 0.06 32.108 0.391 7.87 3.33 15.13
12/19/2020 2:00:00 PM 0.06 32.108 0.392 7.86 3.37 15.15
12/19/2020 2:15:00 PM 0.07 32.126 0.393 7.88 3.28 15.18
12/19/2020 2:30:00 PM 0.07 32.126 0.393 7.87 3.34 15.19
12/19/2020 2:45:00 PM 0.07 32.126 0.393 7.89 3.34 15.22
12/19/2020 3:00:00 PM 0.06 32.108 0.393 7.89 3.24 15.23
12/19/2020 3:15:00 PM 0.05 32.09 0.394 7.89 3.3 15.24
12/19/2020 3:30:00 PM 0.05 32.09 0.394 7.9 3.2 15.29
12/19/2020 3:45:00 PM 0.04 32.072 0.394 7.9 3.09 15.29
12/19/2020 4:00:00 PM 0.04 32.072 0.394 7.91 3.15 15.32
12/19/2020 4:15:00 PM 0.03 32.054 0.395 7.92 3.29 15.31
12/19/2020 4:30:00 PM 0.02 32.036 0.395 7.92 3.1 15.32
12/19/2020 4:45:00 PM 0.01 32.018 0.396 7.92 4.69 15.34
12/19/2020 5:00:00 PM 0.01 32.018 0.396 7.92 3.31 15.31
12/19/2020 5:15:00 PM 0.01 32.018 0.397 7.92 3.32 15.31
12/19/2020 5:30:00 PM 0.01 32.018 0.397 7.92 3.28 15.28
12/19/2020 5:45:00 PM 0 32 0.397 7.91 3.15 15.24
12/19/2020 6:00:00 PM 0.01 32.018 0.398 7.91 3.19 15.2
12/19/2020 6:15:00 PM 0.01 32.018 0.398 7.9 3.07 15.15
12/19/2020 6:30:00 PM 0 32 0.399 7.89 3.1 15.11
12/19/2020 6:45:00 PM 0 32 0.4 7.87 3.13 15.08
12/19/2020 7:00:00 PM 0 32 0.4 7.87 3.11 15.07
12/19/2020 7:15:00 PM 0 32 0.4 7.87 3.3 15.01
12/19/2020 7:30:00 PM 0 32 0.401 7.86 3.11 14.98
12/19/2020 7:45:00 PM 0 32 0.401 7.85 3.21 14.96
12/19/2020 8:00:00 PM 0 32 0.402 7.85 3.22 14.93
12/19/2020 8:15:00 PM 0 32 0.402 7.85 3.07 14.91
12/19/2020 8:30:00 PM 0.01 32.018 0.402 7.84 3.23 14.9
12/19/2020 8:45:00 PM 0 32 0.402 7.84 3.08 14.89
12/19/2020 9:00:00 PM 0 32 0.403 7.84 3.28 14.88
12/19/2020 9:15:00 PM 0 32 0.403 7.84 3.05 14.88
12/19/2020 9:30:00 PM 0 32 0.403 7.84 3.21 14.86
12/19/2020 9:45:00 PM 0 32 0.404 7.84 3.14 14.89
12/19/2020 10:00:00 PM 0 32 0.404 7.84 3.12 14.86
12/19/2020 10:15:00 PM 0 32 0.404 7.84 3.2 14.87
12/19/2020 10:30:00 PM 0 32 0.404 7.84 3.15 14.86
12/19/2020 10:45:00 PM 0 32 0.404 7.84 3.13 14.83
12/19/2020 11:00:00 PM 0 32 0.404 7.84 3.11 14.87
12/19/2020 11:15:00 PM 0 32 0.405 7.85 3.23 14.83
12/19/2020 11:30:00 PM -0.01 31.982 0.406 7.84 3.19 14.87
12/19/2020 11:45:00 PM -0.01 31.982 0.405 7.85 3.1 14.9
12/20/2020 12:00:00 AM -0.01 31.982 0.405 7.84 3.1 14.92
12/20/2020 12:15:00 AM -0.01 31.982 0.405 7.86 3.05 14.89
12/20/2020 12:30:00 AM -0.01 31.982 0.406 7.87 3.07 14.88
12/20/2020 12:45:00 AM -0.01 31.982 0.406 7.87 3.17 14.9
12/20/2020 1:00:00 AM -0.01 31.982 0.406 7.87 3.09 14.93
12/20/2020 1:15:00 AM -0.01 31.982 0.406 7.87 3.15 14.91
12/20/2020 1:30:00 AM -0.02 31.964 0.406 7.88 3.27 14.91
12/20/2020 1:45:00 AM -0.02 31.964 0.406 7.89 3.26 14.99
12/20/2020 2:00:00 AM -0.02 31.964 0.406 7.89 3.35 14.94
12/20/2020 2:15:00 AM -0.02 31.964 0.407 7.88 3.15 14.95
12/20/2020 2:30:00 AM -0.02 31.964 0.407 7.88 3.12 14.92
12/20/2020 2:45:00 AM -0.02 31.964 0.407 7.88 3.2 14.97
12/20/2020 3:00:00 AM -0.02 31.964 0.407 7.89 3.26 14.91
12/20/2020 3:15:00 AM -0.02 31.964 0.407 7.88 3.27 14.89
12/20/2020 3:30:00 AM -0.02 31.964 0.408 7.88 3.08 14.91
12/20/2020 3:45:00 AM -0.02 31.964 0.408 7.87 3.22 14.85
12/20/2020 4:00:00 AM -0.02 31.964 0.408 7.87 3.2 14.85
12/20/2020 4:15:00 AM -0.02 31.964 0.409 7.86 3.21 14.79
12/20/2020 4:30:00 AM -0.02 31.964 0.409 7.85 3.23 14.8
12/20/2020 4:45:00 AM -0.02 31.964 0.409 7.84 3.17 14.74
12/20/2020 5:00:00 AM -0.01 31.982 0.409 7.84 3.17 14.72
12/20/2020 5:15:00 AM -0.02 31.964 0.41 7.83 3.09 14.65
12/20/2020 5:30:00 AM -0.02 31.964 0.41 7.82 3.18 14.64
12/20/2020 5:45:00 AM -0.02 31.964 0.41 7.81 3.07 14.62
12/20/2020 6:00:00 AM -0.02 31.964 0.411 7.8 3.19 14.57
12/20/2020 6:15:00 AM -0.02 31.964 0.411 7.8 3.18 14.56
12/20/2020 6:30:00 AM -0.01 31.982 0.411 7.79 3.21 14.52
12/20/2020 6:45:00 AM -0.02 31.964 0.411 7.78 3.14 14.5
12/20/2020 7:00:00 AM -0.02 31.964 0.412 7.78 3.17 14.52
12/20/2020 7:15:00 AM -0.01 31.982 0.412 7.77 3.18 14.45
12/20/2020 7:30:00 AM -0.01 31.982 0.412 7.77 3.17 14.45
12/20/2020 7:45:00 AM -0.01 31.982 0.412 7.76 3.17 14.43
12/20/2020 8:00:00 AM -0.01 31.982 0.413 7.76 4.65 14.41
12/20/2020 8:15:00 AM -0.01 31.982 0.412 7.76 3.17 14.4
12/20/2020 8:30:00 AM -0.01 31.982 0.413 7.75 3.23 14.4
12/20/2020 8:45:00 AM 0 32 0.413 7.75 4.98 14.37
12/20/2020 9:00:00 AM 0 32 0.413 7.75 3.07 14.32
12/20/2020 9:15:00 AM 0 32 0.414 7.75 3.09 14.38
12/20/2020 9:30:00 AM 0 32 0.414 7.76 3.17 14.4
12/20/2020 9:45:00 AM 0 32 0.414 7.76 3.31 14.41
12/20/2020 10:00:00 AM 0 32 0.414 7.76 3.18 14.44
12/20/2020 10:15:00 AM 0.01 32.018 0.414 7.77 3.03 14.42
12/20/2020 10:30:00 AM 0 32 0.415 7.77 3.07 14.42
12/20/2020 10:45:00 AM 0.01 32.018 0.415 7.78 3.16 14.45
12/20/2020 11:00:00 AM 0.01 32.018 0.416 7.79 3.12 14.5
12/20/2020 11:15:00 AM 0.01 32.018 0.416 7.79 3.14 14.51
12/20/2020 11:30:00 AM 0.02 32.036 0.416 7.79 3.14 14.55
12/20/2020 11:45:00 AM 0.02 32.036 0.416 7.8 3.04 14.55
12/20/2020 12:00:00 PM 0.02 32.036 0.416 7.81 3.13 14.57
12/20/2020 12:15:00 PM 0.02 32.036 0.417 7.81 3.12 14.59
12/20/2020 12:30:00 PM 0.02 32.036 0.417 7.82 3.23 14.62
12/20/2020 12:45:00 PM 0.02 32.036 0.417 7.82 3.19 14.62
12/20/2020 1:00:00 PM 0.02 32.036 0.417 7.82 3.1 14.62
12/20/2020 1:15:00 PM 0.02 32.036 0.418 7.83 3.1 14.67
12/20/2020 1:30:00 PM 0.02 32.036 0.417 7.83 3.25 14.65
12/20/2020 1:45:00 PM 0.02 32.036 0.418 7.84 3.01 14.69
12/20/2020 2:00:00 PM 0.02 32.036 0.418 7.84 3.03 14.64
12/20/2020 2:15:00 PM 0.01 32.018 0.419 7.84 3.17 14.66
12/20/2020 2:30:00 PM 0.01 32.018 0.419 7.84 3.17 14.66
12/20/2020 2:45:00 PM 0.01 32.018 0.419 7.84 3.18 14.69
12/20/2020 3:00:00 PM 0.01 32.018 0.42 7.84 3.09 14.67
12/20/2020 3:15:00 PM 0.01 32.018 0.42 7.84 3.07 14.65
12/20/2020 3:30:00 PM 0 32 0.42 7.84 3.11 14.66
12/20/2020 3:45:00 PM 0.01 32.018 0.42 7.83 3.09 14.67
12/20/2020 4:00:00 PM 0 32 0.42 7.83 3.12 14.66
12/20/2020 4:15:00 PM 0 32 0.421 7.83 3.14 14.63
12/20/2020 4:30:00 PM 0.01 32.018 0.421 7.83 3.08 14.61
12/20/2020 4:45:00 PM 0 32 0.422 7.81 3.05 14.62
12/20/2020 5:00:00 PM 0.01 32.018 0.421 7.83 3.08 14.56
12/20/2020 5:15:00 PM 0 32 0.422 7.81 3.13 14.54
12/20/2020 5:30:00 PM 0 32 0.423 7.81 3.11 14.53
12/20/2020 5:45:00 PM 0 32 0.423 7.82 3.11 14.49
12/20/2020 6:00:00 PM 0 32 0.424 7.81 3.06 14.48
12/20/2020 6:15:00 PM 0 32 0.424 7.8 3.07 14.46
12/20/2020 6:30:00 PM -0.01 31.982 0.424 7.8 3.23 14.44
12/20/2020 6:45:00 PM 0 32 0.425 7.8 3.01 14.42
12/20/2020 7:00:00 PM 0 32 0.425 7.79 3.04 14.39
12/20/2020 7:15:00 PM 0 32 0.427 7.79 3.02 14.36
12/20/2020 7:30:00 PM 0 32 0.426 7.78 3.13 14.35
12/20/2020 7:45:00 PM 0 32 0.426 7.79 3.01 14.37
12/20/2020 8:00:00 PM 0 32 0.427 7.79 3.11 14.33
12/20/2020 8:15:00 PM 0 32 0.427 7.78 3.14 14.32
12/20/2020 8:30:00 PM 0 32 0.427 7.78 3.12 14.29
12/20/2020 8:45:00 PM -0.01 31.982 0.427 7.78 3.13 14.31
12/20/2020 9:00:00 PM 0 32 0.427 7.78 3.09 14.31
12/20/2020 9:15:00 PM 0 32 0.427 7.77 3.05 14.27
12/20/2020 9:30:00 PM 0 32 0.428 7.77 3.12 14.26
12/20/2020 9:45:00 PM 0 32 0.428 7.77 3.14 14.23
12/20/2020 10:00:00 PM -0.01 31.982 0.428 7.77 3.16 14.23
12/20/2020 10:15:00 PM 0 32 0.428 7.77 3.14 14.23
12/20/2020 10:30:00 PM 0 32 0.428 7.76 3.18 14.25
12/20/2020 10:45:00 PM 0 32 0.429 7.76 3.23 14.18
12/20/2020 11:00:00 PM 0 32 0.429 7.76 3.15 14.17
12/20/2020 11:15:00 PM 0 32 0.428 7.76 3.33 14.21
12/20/2020 11:30:00 PM 0 32 0.428 7.76 3.07 14.19
12/20/2020 11:45:00 PM 0 32 0.427 7.76 3.07 14.17
12/21/2020 12:00:00 AM 0 32 0.428 7.76 3.14 14.15
12/21/2020 12:15:00 AM -0.01 31.982 0.428 7.75 3.15 14.15
12/21/2020 12:30:00 AM 0 32 0.428 7.75 3.19 14.14
12/21/2020 12:45:00 AM 0 32 0.427 7.75 3.05 14.12
12/21/2020 1:00:00 AM 0 32 0.427 7.74 3.1 14.11
12/21/2020 1:15:00 AM -0.01 31.982 0.426 7.74 3.35 14.11
12/21/2020 1:30:00 AM 0 32 0.426 7.74 3.17 14.1
12/21/2020 1:45:00 AM -0.01 31.982 0.426 7.74 3.11 14.08
12/21/2020 2:00:00 AM 0 32 0.425 7.73 3.14 14.05
12/21/2020 2:15:00 AM 0 32 0.424 7.73 3.08 14.03
12/21/2020 2:30:00 AM 0 32 0.424 7.72 3.19 14.02
12/21/2020 2:45:00 AM 0 32 0.423 7.72 3.11 14
12/21/2020 3:00:00 AM 0 32 0.423 7.72 3.08 13.99
12/21/2020 3:15:00 AM 0 32 0.423 7.71 3 13.97
12/21/2020 3:30:00 AM 0 32 0.422 7.7 3.15 13.96
12/21/2020 3:45:00 AM 0 32 0.421 7.7 3.23 13.93
12/21/2020 4:00:00 AM 0 32 0.421 7.7 3.07 13.9
12/21/2020 4:15:00 AM -0.01 31.982 0.42 7.69 3.09 13.91
12/21/2020 4:30:00 AM -0.01 31.982 0.42 7.69 2.99 13.89
12/21/2020 4:45:00 AM 0 32 0.419 7.69 3.02 13.87
12/21/2020 5:00:00 AM 0 32 0.419 7.68 3.07 13.84
12/21/2020 5:15:00 AM 0 32 0.418 7.68 3.04 13.8
12/21/2020 5:30:00 AM 0 32 0.418 7.67 3.1 13.83
12/21/2020 5:45:00 AM 0 32 0.417 7.67 2.99 13.79
12/21/2020 6:00:00 AM -0.01 31.982 0.417 7.67 3.09 13.8
12/21/2020 6:15:00 AM 0 32 0.417 7.67 3.04 13.79
12/21/2020 6:30:00 AM 0 32 0.416 7.66 3 13.78
12/21/2020 6:45:00 AM 0 32 0.416 7.66 3.02 13.75
12/21/2020 7:00:00 AM 0 32 0.416 7.66 3.17 13.75
12/21/2020 7:15:00 AM -0.01 31.982 0.415 7.61 3.04 13.76
12/21/2020 7:30:00 AM -0.01 31.982 0.415 7.66 3.03 13.77
12/21/2020 7:45:00 AM -0.01 31.982 0.414 7.66 3.19 13.76
12/21/2020 8:00:00 AM 0 32 0.414 7.66 2.98 13.77
12/21/2020 8:15:00 AM 0 32 0.414 7.65 3.05 13.76
12/21/2020 8:30:00 AM 0 32 0.414 7.66 3.01 13.76
12/21/2020 8:45:00 AM 0 32 0.414 7.65 2.94 13.75
12/21/2020 9:00:00 AM 0.01 32.018 0.413 7.66 3.18 13.77
12/21/2020 9:15:00 AM 0.01 32.018 0.413 7.66 3.16 13.78
12/21/2020 9:30:00 AM 0.02 32.036 0.413 7.66 3.04 13.78
12/21/2020 9:45:00 AM 0.02 32.036 0.412 7.67 3.12 13.82
12/21/2020 10:00:00 AM 0.02 32.036 0.413 7.68 3.03 13.86
12/21/2020 10:15:00 AM 0.03 32.054 0.412 7.68 3 13.9
12/21/2020 10:30:00 AM 0.03 32.054 0.412 7.69 3.01 13.95
12/21/2020 10:45:00 AM 0.03 32.054 0.412 7.7 3.13 13.99
12/21/2020 11:00:00 AM 0.03 32.054 0.412 7.7 3.02 14.02
12/21/2020 11:15:00 AM 0.03 32.054 0.412 7.71 3.13 14.02
12/21/2020 11:30:00 AM 0.04 32.072 0.412 7.71 3.09 14.06
12/21/2020 11:45:00 AM 0.03 32.054 0.412 7.72 3.03 14.08
12/21/2020 12:00:00 PM 0.04 32.072 0.411 7.72 3.05 14.09
12/21/2020 12:15:00 PM 0.04 32.072 0.413 7.73 3 14.15
12/21/2020 12:30:00 PM 0.04 32.072 0.411 7.73 3.12 14.11
12/21/2020 12:45:00 PM 0.05 32.09 0.411 7.73 3.05 14.14
12/21/2020 1:00:00 PM 0.05 32.09 0.412 7.74 3.11 14.18
12/21/2020 1:15:00 PM 0.06 32.108 0.412 7.75 3.12 14.21
12/21/2020 1:30:00 PM 0.06 32.108 0.411 7.75 3.13 14.24
12/21/2020 1:45:00 PM 0.07 32.126 0.412 7.76 3.13 14.33
12/21/2020 2:00:00 PM 0.06 32.108 0.412 7.76 3.12 14.3
12/21/2020 2:15:00 PM 0.06 32.108 0.412 7.77 3.07 14.32
12/21/2020 2:30:00 PM 0.06 32.108 0.412 7.77 3.08 14.32
12/21/2020 2:45:00 PM 0.06 32.108 0.414 7.78 3.02 14.34
12/21/2020 3:00:00 PM 0.06 32.108 0.412 7.78 3.04 14.36
12/21/2020 3:15:00 PM 0.07 32.126 0.412 7.79 3.09 14.36
12/21/2020 3:30:00 PM 0.06 32.108 0.412 7.79 3.14 14.36
12/21/2020 3:45:00 PM 0.06 32.108 0.412 7.79 3.18 14.37
12/21/2020 4:00:00 PM 0.05 32.09 0.413 7.79 3.08 14.33
12/21/2020 4:15:00 PM 0.05 32.09 0.414 7.78 3.17 14.35
12/21/2020 4:30:00 PM 0.04 32.072 0.414 7.78 3.12 14.34
12/21/2020 4:45:00 PM 0.04 32.072 0.414 7.78 3.06 14.36
12/21/2020 5:00:00 PM 0.04 32.072 0.414 7.78 3.24 14.33
12/21/2020 5:15:00 PM 0.04 32.072 0.415 7.78 3.34 14.31
12/21/2020 5:30:00 PM 0.03 32.054 0.415 7.77 3.33 14.29
12/21/2020 5:45:00 PM 0.02 32.036 0.416 7.78 3.07 14.3
12/21/2020 6:00:00 PM 0.02 32.036 0.416 7.77 3.04 14.27
12/21/2020 6:15:00 PM 0.02 32.036 0.416 7.77 3.12 14.26
12/21/2020 6:30:00 PM 0.02 32.036 0.416 7.77 3.17 14.24
12/21/2020 6:45:00 PM 0.02 32.036 0.417 7.77 3.05 14.23
12/21/2020 7:00:00 PM 0.02 32.036 0.417 7.77 3.14 14.25
12/21/2020 7:15:00 PM 0.02 32.036 0.417 7.77 3.08 14.22
12/21/2020 7:30:00 PM 0.02 32.036 0.417 7.77 3.06 14.23
12/21/2020 7:45:00 PM 0.02 32.036 0.418 7.77 3.09 14.23
12/21/2020 8:00:00 PM 0.02 32.036 0.418 7.78 3.11 14.23
12/21/2020 8:15:00 PM 0.01 32.018 0.418 7.77 3.23 14.25
12/21/2020 8:30:00 PM 0.02 32.036 0.418 7.77 3.22 14.27
12/21/2020 8:45:00 PM 0.02 32.036 0.418 7.77 3.13 14.24
12/21/2020 9:00:00 PM 0.01 32.018 0.418 7.77 3.18 14.24
12/21/2020 9:15:00 PM 0.01 32.018 0.418 7.77 3.07 14.23
12/21/2020 9:30:00 PM 0.01 32.018 0.418 7.76 3.04 14.22
12/21/2020 9:45:00 PM 0.02 32.036 0.418 7.77 3.08 14.2
12/21/2020 10:00:00 PM 0.01 32.018 0.418 7.76 3.02 14.18
12/21/2020 10:15:00 PM 0.01 32.018 0.418 7.76 3.2 14.2
12/21/2020 10:30:00 PM 0.02 32.036 0.418 7.76 3.18 14.19
12/21/2020 10:45:00 PM 0.01 32.018 0.417 7.76 3.1 14.18
12/21/2020 11:00:00 PM 0.02 32.036 0.417 7.76 3.08 14.17
12/21/2020 11:15:00 PM 0.01 32.018 0.416 7.77 3.05 14.18
12/21/2020 11:30:00 PM 0.02 32.036 0.417 7.76 3.11 14.19
12/21/2020 11:45:00 PM 0.01 32.018 0.416 7.76 3.04 14.17
12/22/2020 12:00:00 AM 0.01 32.018 0.416 7.76 3.07 14.19
12/22/2020 12:15:00 AM 0.02 32.036 0.416 7.76 3.15 14.16
12/22/2020 12:30:00 AM 0.01 32.018 0.415 7.76 3.07 14.15
12/22/2020 12:45:00 AM 0.02 32.036 0.415 7.76 3.06 14.15
12/22/2020 1:00:00 AM 0.02 32.036 0.415 7.76 3.12 14.12
12/22/2020 1:15:00 AM 0.02 32.036 0.416 7.75 3.08 14.12
12/22/2020 1:30:00 AM 0.01 32.018 0.415 7.75 3.17 14.1
12/22/2020 1:45:00 AM 0.01 32.018 0.415 7.75 3.1 14.1
12/22/2020 2:00:00 AM 0.01 32.018 0.415 7.75 3.14 14.11
12/22/2020 2:15:00 AM 0.01 32.018 0.415 7.74 3.15 14.09
12/22/2020 2:30:00 AM 0.01 32.018 0.415 7.73 4.66 14.06
12/22/2020 2:45:00 AM 0.02 32.036 0.414 7.73 3.24 14.05
12/22/2020 3:00:00 AM 0.01 32.018 0.414 7.73 3.21 14.01
12/22/2020 3:15:00 AM 0.02 32.036 0.414 7.72 3.45 13.97
12/22/2020 3:30:00 AM 0.01 32.018 0.414 7.72 3.18 13.98
12/22/2020 3:45:00 AM 0 32 0.413 7.71 3.07 13.99
12/22/2020 4:00:00 AM 0.01 32.018 0.413 7.71 3.02 13.97
12/22/2020 4:15:00 AM 0 32 0.413 7.71 3.2 13.97
12/22/2020 4:30:00 AM 0 32 0.413 7.71 3.17 13.94
12/22/2020 4:45:00 AM -0.01 31.982 0.413 7.7 3.15 13.99
12/22/2020 5:00:00 AM -0.01 31.982 0.413 7.71 3.07 14.01
12/22/2020 5:15:00 AM 0 32 0.413 7.71 3.13 13.98
12/22/2020 5:30:00 AM -0.01 31.982 0.412 7.71 3 13.93
12/22/2020 5:45:00 AM 0 32 0.412 7.7 3.12 13.95
12/22/2020 6:00:00 AM -0.01 31.982 0.412 7.7 3.11 13.95
12/22/2020 6:15:00 AM 0 32 0.411 7.7 3.09 13.95
12/22/2020 6:30:00 AM -0.01 31.982 0.411 7.7 3.06 13.99
12/22/2020 6:45:00 AM -0.01 31.982 0.412 7.71 3.18 13.99
12/22/2020 7:00:00 AM -0.01 31.982 0.411 7.7 3.18 13.98
12/22/2020 7:15:00 AM 0 32 0.411 7.7 3.11 13.94
12/22/2020 7:30:00 AM 0 32 0.411 7.7 3.23 13.93
12/22/2020 7:45:00 AM 0 32 0.411 7.7 3.2 13.94
12/22/2020 8:00:00 AM 0.01 32.018 0.41 7.7 3.06 13.91
12/22/2020 8:15:00 AM 0 32 0.41 7.7 3.11 13.91
12/22/2020 8:30:00 AM 0.01 32.018 0.41 7.71 3.21 14
12/22/2020 8:45:00 AM 0.01 32.018 0.41 7.71 3.11 14
12/22/2020 9:00:00 AM 0.02 32.036 0.409 7.71 3.09 13.97
12/22/2020 9:15:00 AM 0.02 32.036 0.409 7.71 3.09 13.93
12/22/2020 9:30:00 AM 0.03 32.054 0.409 7.71 3.12 14.01
12/22/2020 9:45:00 AM 0.03 32.054 0.409 7.72 3.71 14.11
12/22/2020 10:00:00 AM 0.04 32.072 0.409 7.73 3.11 14.07
12/22/2020 10:15:00 AM 0.05 32.09 0.409 7.74 2.98 14.09
12/22/2020 10:30:00 AM 0.06 32.108 0.408 7.74 3.1 14.11
12/22/2020 10:45:00 AM 0.08 32.144 0.408 7.74 3.4 14.12
12/22/2020 11:00:00 AM 0.08 32.144 0.408 7.75 3.28 14.22
12/22/2020 11:15:00 AM 0.09 32.162 0.409 7.75 3.18 14.22
12/22/2020 11:30:00 AM 0.11 32.198 0.409 7.76 3.17 14.23
12/22/2020 11:45:00 AM 0.12 32.216 0.408 7.77 3.11 14.29
12/22/2020 12:00:00 PM 0.12 32.216 0.408 7.77 3.2 14.32
12/22/2020 12:15:00 PM 0.14 32.252 0.408 7.77 3.09 14.33
12/22/2020 12:30:00 PM 0.15 32.27 0.408 7.78 3.1 14.38
12/22/2020 12:45:00 PM 0.16 32.288 0.408 7.78 3.14 14.37
12/22/2020 1:00:00 PM 0.17 32.306 0.408 7.79 3.07 14.36
12/22/2020 1:15:00 PM 0.17 32.306 0.407 7.79 3.09 14.39
12/22/2020 1:30:00 PM 0.17 32.306 0.407 7.79 3.17 14.44
12/22/2020 1:45:00 PM 0.17 32.306 0.407 7.79 3.23 14.4
12/22/2020 2:00:00 PM 0.17 32.306 0.408 7.8 3.2 14.46
12/22/2020 2:15:00 PM 0.16 32.288 0.407 7.8 3.25 14.53
12/22/2020 2:30:00 PM 0.16 32.288 0.408 7.81 3.11 14.55
12/22/2020 2:45:00 PM 0.15 32.27 0.407 7.81 3.31 14.58
12/22/2020 3:00:00 PM 0.16 32.288 0.407 7.82 3.17 14.55
12/22/2020 3:15:00 PM 0.15 32.27 0.407 7.82 3.27 14.54
12/22/2020 3:30:00 PM 0.15 32.27 0.407 7.83 3.21 14.55
12/22/2020 3:45:00 PM 0.14 32.252 0.408 7.81 3.16 14.56
12/22/2020 4:00:00 PM 0.13 32.234 0.408 7.83 3.1 14.59
12/22/2020 4:15:00 PM 0.12 32.216 0.407 7.82 3.06 14.6
12/22/2020 4:30:00 PM 0.11 32.198 0.408 7.83 3.49 14.6
12/22/2020 4:45:00 PM 0.1 32.18 0.408 7.83 3.38 14.59
12/22/2020 5:00:00 PM 0.11 32.198 0.408 7.82 3.4 14.51
12/22/2020 5:15:00 PM 0.08 32.144 0.408 7.82 3.09 14.55
12/22/2020 5:30:00 PM 0.08 32.144 0.407 7.82 3.21 14.54
12/22/2020 5:45:00 PM 0.08 32.144 0.407 7.83 3.17 14.54
12/22/2020 6:00:00 PM 0.07 32.126 0.407 7.82 3.12 14.57
12/22/2020 6:15:00 PM 0.07 32.126 0.407 7.82 3.18 14.55
12/22/2020 6:30:00 PM 0.06 32.108 0.406 7.82 3.25 14.57
12/22/2020 6:45:00 PM 0.06 32.108 0.406 7.83 3.09 14.55
12/22/2020 7:00:00 PM 0.06 32.108 0.406 7.81 3.16 14.56
12/22/2020 7:15:00 PM 0.06 32.108 0.406 7.83 3.32 14.52
12/22/2020 7:30:00 PM 0.05 32.09 0.405 7.82 3.25 14.57
12/22/2020 7:45:00 PM 0.05 32.09 0.405 7.82 3.14 14.54
12/22/2020 8:00:00 PM 0.05 32.09 0.405 7.81 3.25 14.55
12/22/2020 8:15:00 PM 0.04 32.072 0.404 7.82 3.31 14.56
12/22/2020 8:30:00 PM 0.04 32.072 0.403 7.83 3.24 14.52
12/22/2020 8:45:00 PM 0.04 32.072 0.403 7.82 3.25 14.55
12/22/2020 9:00:00 PM 0.04 32.072 0.402 7.82 3.2 14.55
12/22/2020 9:15:00 PM 0.04 32.072 0.402 7.81 3.2 14.54
12/22/2020 9:30:00 PM 0.04 32.072 0.401 7.82 3.19 14.51
12/22/2020 9:45:00 PM 0.03 32.054 0.401 7.82 3.21 14.53
12/22/2020 10:00:00 PM 0.03 32.054 0.401 7.81 3.09 14.49
12/22/2020 10:15:00 PM 0.03 32.054 0.4 7.81 3.18 14.52
12/22/2020 10:30:00 PM 0.02 32.036 0.399 7.82 3.25 14.52
12/22/2020 10:45:00 PM 0.02 32.036 0.399 7.82 3.24 14.52
12/22/2020 11:00:00 PM 0.01 32.018 0.397 7.81 3.15 14.52
12/22/2020 11:15:00 PM 0.01 32.018 0.397 7.81 3.16 14.51
12/22/2020 11:30:00 PM 0.01 32.018 0.397 7.81 3.25 14.48
12/22/2020 11:45:00 PM 0.01 32.018 0.396 7.81 3.24 14.48
12/23/2020 12:00:00 AM 0.01 32.018 0.395 7.8 3.22 14.49
12/23/2020 12:15:00 AM 0.02 32.036 0.394 7.79 3.18 14.41
12/23/2020 12:30:00 AM 0.01 32.018 0.393 7.8 3.11 14.44
12/23/2020 12:45:00 AM 0.01 32.018 0.393 7.79 3.24 14.41
12/23/2020 1:00:00 AM 0.02 32.036 0.392 7.79 3.24 14.39
12/23/2020 1:15:00 AM 0.02 32.036 0.391 7.78 3.3 14.39
12/23/2020 1:30:00 AM 0.02 32.036 0.391 7.77 3.12 14.35
12/23/2020 1:45:00 AM 0.02 32.036 0.39 7.77 3.07 14.38
12/23/2020 2:00:00 AM 0.02 32.036 0.389 7.77 3.06 14.36
12/23/2020 2:15:00 AM 0.01 32.018 0.389 7.76 3.2 14.35
12/23/2020 2:30:00 AM 0.02 32.036 0.388 7.76 3.32 14.32
12/23/2020 2:45:00 AM 0.02 32.036 0.387 7.75 3.13 14.29
12/23/2020 3:00:00 AM 0.02 32.036 0.387 7.75 3.23 14.33
12/23/2020 3:15:00 AM 0.02 32.036 0.386 7.75 3.15 14.33
12/23/2020 3:30:00 AM 0.02 32.036 0.386 7.75 3.16 14.34
12/23/2020 3:45:00 AM 0.02 32.036 0.385 7.74 3.27 14.33
12/23/2020 4:00:00 AM 0.02 32.036 0.385 7.74 3.2 14.3
12/23/2020 4:15:00 AM 0.02 32.036 0.384 7.74 3.27 14.3
12/23/2020 4:30:00 AM 0.02 32.036 0.384 7.74 3.26 14.26
12/23/2020 4:45:00 AM 0.02 32.036 0.384 7.74 3.22 14.3
12/23/2020 5:00:00 AM 0.02 32.036 0.383 7.73 3.19 14.3
12/23/2020 5:15:00 AM 0.02 32.036 0.383 7.73 3.16 14.3
12/23/2020 5:30:00 AM 0.02 32.036 0.382 7.73 3.14 14.27
12/23/2020 5:45:00 AM 0.02 32.036 0.381 7.73 3.19 14.27
12/23/2020 6:00:00 AM 0.01 32.018 0.382 7.73 3.18 14.23
12/23/2020 6:15:00 AM 0.01 32.018 0.381 7.73 3.32 14.29
12/23/2020 6:30:00 AM 0 32 0.382 7.73 3.2 14.29
12/23/2020 6:45:00 AM 0 32 0.381 7.72 3.18 14.25
12/23/2020 7:00:00 AM -0.01 31.982 0.381 7.72 3.29 14.29
12/23/2020 7:15:00 AM -0.01 31.982 0.381 7.72 3.24 14.29
12/23/2020 7:30:00 AM -0.02 31.964 0.38 7.72 3.25 14.26
12/23/2020 7:45:00 AM -0.02 31.964 0.38 7.72 3.29 14.27
12/23/2020 8:00:00 AM -0.02 31.964 0.38 7.72 3.3 14.27
12/23/2020 8:15:00 AM -0.02 31.964 0.38 7.72 3.17 14.25
12/23/2020 8:30:00 AM -0.01 31.982 0.38 7.71 3.09 14.23
12/23/2020 8:45:00 AM -0.01 31.982 0.38 7.72 3.29 14.28
12/23/2020 9:00:00 AM 0 32 0.379 7.72 3.28 14.23
12/23/2020 9:15:00 AM 0.01 32.018 0.38 7.72 3.26 14.26
12/23/2020 9:30:00 AM 0.02 32.036 0.379 7.72 3.13 14.28
12/23/2020 9:45:00 AM 0.02 32.036 0.38 7.73 3.2 14.34
12/23/2020 10:00:00 AM 0.03 32.054 0.379 7.73 3.21 14.35
12/23/2020 10:15:00 AM 0.03 32.054 0.379 7.74 3.35 14.42
12/23/2020 10:30:00 AM 0.04 32.072 0.379 7.74 3.52 14.37
12/23/2020 10:45:00 AM 0.06 32.108 0.379 7.75 3.31 14.43
12/23/2020 11:00:00 AM 0.08 32.144 0.379 7.75 3.23 14.44
12/23/2020 11:15:00 AM 0.1 32.18 0.378 7.76 3.25 14.5
12/23/2020 11:30:00 AM 0.11 32.198 0.378 7.76 3.28 14.48
12/23/2020 11:45:00 AM 0.14 32.252 0.377 7.75 3.31 14.55
12/23/2020 12:00:00 PM 0.16 32.288 0.377 7.76 3.26 14.57
12/23/2020 12:15:00 PM 0.18 32.324 0.378 7.77 3.22 14.57
12/23/2020 12:30:00 PM 0.2 32.36 0.377 7.77 3.31 14.55
12/23/2020 12:45:00 PM 0.22 32.396 0.377 7.78 3.37 14.58
12/23/2020 1:00:00 PM 0.25 32.45 0.377 7.79 3.21 14.69
12/23/2020 1:15:00 PM 0.26 32.468 0.377 7.79 3.31 14.68
12/23/2020 1:30:00 PM 0.28 32.504 0.376 7.8 3.18 14.74
12/23/2020 1:45:00 PM 0.29 32.522 0.376 7.81 3.25 14.74
12/23/2020 2:00:00 PM 0.3 32.54 0.377 7.81 3.16 14.81
12/23/2020 2:15:00 PM 0.3 32.54 0.377 7.82 3.22 14.82
12/23/2020 2:30:00 PM 0.31 32.558 0.376 7.83 3.41 14.86
12/23/2020 2:45:00 PM 0.3 32.54 0.377 7.83 3.3 14.84
12/23/2020 3:00:00 PM 0.3 32.54 0.377 7.82 3.37 14.82
12/23/2020 3:15:00 PM 0.29 32.522 0.376 7.84 3.34 14.86
12/23/2020 3:30:00 PM 0.28 32.504 0.376 7.83 3.42 14.9
12/23/2020 3:45:00 PM 0.28 32.504 0.376 7.84 3.2 14.91
12/23/2020 4:00:00 PM 0.26 32.468 0.376 7.85 3.23 14.94
12/23/2020 4:15:00 PM 0.25 32.45 0.376 7.86 3.32 14.91
12/23/2020 4:30:00 PM 0.23 32.414 0.376 7.85 3.31 14.95
12/23/2020 4:45:00 PM 0.22 32.396 0.376 7.86 3.39 14.92
12/23/2020 5:00:00 PM 0.21 32.378 0.376 7.86 3.46 14.91
12/23/2020 5:15:00 PM 0.2 32.36 0.377 7.86 3.34 14.91
12/23/2020 5:30:00 PM 0.19 32.342 0.377 7.86 3.39 14.9
12/23/2020 5:45:00 PM 0.17 32.306 0.377 7.87 3.41 14.9
12/23/2020 6:00:00 PM 0.16 32.288 0.377 7.87 3.33 14.92
12/23/2020 6:15:00 PM 0.13 32.234 0.377 7.87 3.33 14.9
12/23/2020 6:30:00 PM 0.13 32.234 0.377 7.86 3.27 14.86
12/23/2020 6:45:00 PM 0.12 32.216 0.377 7.88 3.25 14.87
12/23/2020 7:00:00 PM 0.11 32.198 0.378 7.88 3.36 14.95
12/23/2020 7:15:00 PM 0.1 32.18 0.377 7.88 3.44 14.88
12/23/2020 7:30:00 PM 0.09 32.162 0.377 7.89 3.44 14.91
12/23/2020 7:45:00 PM 0.09 32.162 0.377 7.88 3.37 14.89
12/23/2020 8:00:00 PM 0.09 32.162 0.377 7.89 3.35 14.91
12/23/2020 8:15:00 PM 0.08 32.144 0.377 7.89 3.21 14.89
12/23/2020 8:30:00 PM 0.08 32.144 0.377 7.88 3.32 14.9
12/23/2020 8:45:00 PM 0.08 32.144 0.377 7.89 3.25 14.91
12/23/2020 9:00:00 PM 0.08 32.144 0.377 7.89 3.29 14.84
12/23/2020 9:15:00 PM 0.07 32.126 0.377 7.89 3.13 14.85
12/23/2020 9:30:00 PM 0.06 32.108 0.376 7.89 3.48 14.81
12/23/2020 9:45:00 PM 0.06 32.108 0.377 7.89 3.41 14.84
12/23/2020 10:00:00 PM 0.06 32.108 0.377 7.88 3.29 14.8
12/23/2020 10:15:00 PM 0.06 32.108 0.377 7.88 3.32 14.84
12/23/2020 10:30:00 PM 0.05 32.09 0.377 7.88 3.37 14.8
12/23/2020 10:45:00 PM 0.05 32.09 0.377 7.88 3.23 14.78
12/23/2020 11:00:00 PM 0.04 32.072 0.377 7.88 3.31 14.84
12/23/2020 11:15:00 PM 0.05 32.09 0.377 7.88 3.27 14.78
12/23/2020 11:30:00 PM 0.05 32.09 0.377 7.88 3.24 14.77
12/23/2020 11:45:00 PM 0.04 32.072 0.377 7.87 3.24 14.75
12/24/2020 12:00:00 AM 0.05 32.09 0.376 7.87 3.17 14.76
12/24/2020 12:15:00 AM 0.05 32.09 0.376 7.87 3.22 14.75
12/24/2020 12:30:00 AM 0.05 32.09 0.377 7.87 3.26 14.73
12/24/2020 12:45:00 AM 0.05 32.09 0.376 7.85 3.28 14.7
12/24/2020 1:00:00 AM 0.05 32.09 0.376 7.85 3.29 14.67
12/24/2020 1:15:00 AM 0.05 32.09 0.377 7.85 3.35 14.67
12/24/2020 1:30:00 AM 0.05 32.09 0.377 7.83 3.41 14.64
12/24/2020 1:45:00 AM 0.05 32.09 0.376 7.83 3.69 14.64
12/24/2020 2:00:00 AM 0.06 32.108 0.377 7.83 3.3 14.58
12/24/2020 2:15:00 AM 0.06 32.108 0.377 7.83 3.31 14.62
12/24/2020 2:30:00 AM 0.06 32.108 0.377 7.83 3.25 14.59
12/24/2020 2:45:00 AM 0.06 32.108 0.376 7.82 3.19 14.54
12/24/2020 3:00:00 AM 0.06 32.108 0.376 7.82 3.17 14.53
12/24/2020 3:15:00 AM 0.05 32.09 0.376 7.81 3.21 14.52
12/24/2020 3:30:00 AM 0.05 32.09 0.376 7.82 3.1 14.54
12/24/2020 3:45:00 AM 0.05 32.09 0.376 7.81 3.14 14.53
12/24/2020 4:00:00 AM 0.06 32.108 0.375 7.81 3.21 14.53
12/24/2020 4:15:00 AM 0.06 32.108 0.375 7.8 3.21 14.49
12/24/2020 4:30:00 AM 0.07 32.126 0.376 7.81 3.36 14.49
12/24/2020 4:45:00 AM 0.07 32.126 0.376 7.81 3.27 14.48
12/24/2020 5:00:00 AM 0.07 32.126 0.375 7.81 3.27 14.42
12/24/2020 5:15:00 AM 0.06 32.108 0.375 7.81 3.3 14.49
12/24/2020 5:30:00 AM 0.07 32.126 0.375 7.8 3.23 14.44
12/24/2020 5:45:00 AM 0.07 32.126 0.375 7.8 3.29 14.46
12/24/2020 6:00:00 AM 0.08 32.144 0.375 7.8 3.21 14.42
12/24/2020 6:15:00 AM 0.09 32.162 0.375 7.8 3.23 14.39
12/24/2020 6:30:00 AM 0.09 32.162 0.375 7.8 3.22 14.41
12/24/2020 6:45:00 AM 0.1 32.18 0.375 7.79 3.16 14.37
12/24/2020 7:00:00 AM 0.1 32.18 0.375 7.79 3.36 14.39
12/24/2020 7:15:00 AM 0.11 32.198 0.375 7.79 3.21 14.37
12/24/2020 7:30:00 AM 0.11 32.198 0.375 7.79 3.14 14.34
12/24/2020 7:45:00 AM 0.12 32.216 0.375 7.78 3.18 14.35
12/24/2020 8:00:00 AM 0.13 32.234 0.375 7.78 3.06 14.3
12/24/2020 8:15:00 AM 0.14 32.252 0.375 7.78 3.3 14.29
12/24/2020 8:30:00 AM 0.15 32.27 0.375 7.77 3.27 14.32
12/24/2020 8:45:00 AM 0.16 32.288 0.374 7.77 3.06 14.31
12/24/2020 9:00:00 AM 0.17 32.306 0.375 7.78 3.22 14.28
12/24/2020 9:15:00 AM 0.19 32.342 0.374 7.77 3.09 14.33
12/24/2020 9:30:00 AM 0.2 32.36 0.374 7.78 3.21 14.33
12/24/2020 9:45:00 AM 0.22 32.396 0.374 7.78 3.31 14.35
12/24/2020 10:00:00 AM 0.24 32.432 0.374 7.78 3.45 14.33
12/24/2020 10:15:00 AM 0.26 32.468 0.373 7.78 3.33 14.4
12/24/2020 10:30:00 AM 0.28 32.504 0.373 7.79 3.2 14.42
12/24/2020 10:45:00 AM 0.3 32.54 0.373 7.79 3.28 14.4
12/24/2020 11:00:00 AM 0.31 32.558 0.373 7.8 3.21 14.46
12/24/2020 11:15:00 AM 0.33 32.594 0.373 7.79 3.71 14.43
12/24/2020 11:30:00 AM 0.35 32.63 0.372 7.8 5.72 14.48
12/24/2020 11:45:00 AM 0.36 32.648 0.373 7.79 3.51 14.46
12/24/2020 12:00:00 PM 0.37 32.666 0.372 7.8 3.4 14.46
12/24/2020 12:15:00 PM 0.38 32.684 0.372 7.8 3.26 14.47
12/24/2020 12:30:00 PM 0.39 32.702 0.372 7.79 3.23 14.46
12/24/2020 12:45:00 PM 0.4 32.72 0.373 7.78 3.46 14.47
12/24/2020 1:00:00 PM 0.41 32.738 0.374 7.78 4.36 14.46
12/24/2020 1:15:00 PM 0.42 32.756 0.374 7.76 5.08 14.47
12/24/2020 1:30:00 PM 0.43 32.774 0.374 7.76 6.95 14.45
12/24/2020 1:45:00 PM 0.43 32.774 0.373 7.75 8.94 14.45
12/24/2020 2:00:00 PM 0.43 32.774 0.372 7.75 9.86 14.46
12/24/2020 2:15:00 PM 0.43 32.774 0.37 7.75 12.16 14.43
12/24/2020 2:30:00 PM 0.42 32.756 0.368 7.75 16.04 14.46
12/24/2020 2:45:00 PM 0.4 32.72 0.367 7.75 27.87 14.46
12/24/2020 3:00:00 PM 0.39 32.702 0.367 7.75 32.86 14.48
12/24/2020 3:15:00 PM 0.39 32.702 0.367 7.75 31.29 14.44
12/24/2020 3:30:00 PM 0.42 32.756 0.369 7.71 30.44 14.37
12/24/2020 3:45:00 PM 0.45 32.81 0.37 7.68 37.97 14.28
12/24/2020 4:00:00 PM 0.44 32.792 0.368 7.66 53.01 14.23
12/24/2020 4:15:00 PM 0.39 32.702 0.362 7.65 80.85 14.31
12/24/2020 4:30:00 PM 0.37 32.666 0.361 7.62 86.76 14.25
12/24/2020 4:45:00 PM 0.39 32.702 0.358 7.59 79.81 14.26
12/24/2020 5:00:00 PM 0.41 32.738 0.354 7.55 87.62 14.19
12/24/2020 5:15:00 PM 0.42 32.756 0.352 7.54 75.2 14.21
12/24/2020 5:30:00 PM 0.42 32.756 0.348 7.52 84.6 14.2
12/24/2020 5:45:00 PM 0.42 32.756 0.347 7.54 93.41 14.2
12/24/2020 6:00:00 PM 0.39 32.702 0.348 7.6 118.08 14.23
12/24/2020 6:15:00 PM 0.39 32.702 0.337 7.52 114.69 14.19
12/24/2020 6:30:00 PM 0.34 32.612 0.34 7.51 98.55 14.12
12/24/2020 6:45:00 PM 0.32 32.576 0.338 7.5 134.34 14.2
12/24/2020 7:00:00 PM 0.35 32.63 0.335 7.48 142.19 14.14
12/24/2020 7:15:00 PM 0.38 32.684 0.333 7.49 155.73 14.14
12/24/2020 7:30:00 PM 0.4 32.72 0.331 7.48 185.74 14.19
12/24/2020 7:45:00 PM 0.42 32.756 0.33 7.48 151.98 14.18
12/24/2020 8:00:00 PM 0.44 32.792 0.33 7.48 126.86 14.16
12/24/2020 8:15:00 PM 0.43 32.774 0.327 7.47 149.79 14.19
12/24/2020 8:30:00 PM 0.45 32.81 0.323 7.45 143.41 14.17
12/24/2020 8:45:00 PM 0.45 32.81 0.321 7.46 118.11 14.15
12/24/2020 9:00:00 PM 0.46 32.828 0.32 7.46 122.87 14.17
12/24/2020 9:15:00 PM 0.46 32.828 0.319 7.47 199.76 14.17
12/24/2020 9:30:00 PM 0.46 32.828 0.317 7.47 106.05 14.16
12/24/2020 9:45:00 PM 0.48 32.864 0.314 7.47 112.8 14.16
12/24/2020 10:00:00 PM 0.49 32.882 0.313 7.47 116.15 14.15
12/24/2020 10:15:00 PM 0.47 32.846 0.309 7.49 122.37 14.17
12/24/2020 10:30:00 PM 0.46 32.828 0.306 7.5 144.69 14.15
12/24/2020 10:45:00 PM 0.46 32.828 0.306 7.51 113.37 14.15
12/24/2020 11:00:00 PM 0.44 32.792 0.305 7.52 88.53 14.14
12/24/2020 11:15:00 PM 0.42 32.756 0.307 7.55 99.35 14.1
12/24/2020 11:30:00 PM 0.43 32.774 0.302 7.55 97.03 14.1
12/24/2020 11:45:00 PM 0.4 32.72 0.301 7.55 96.87 14.07
12/25/2020 12:00:00 AM 0.42 32.756 0.302 7.54 153.55 14.04
12/25/2020 12:15:00 AM 0.44 32.792 0.304 7.53 140.44 14
12/25/2020 12:30:00 AM 0.52 32.936 0.305 7.53 185.38 13.96
12/25/2020 12:45:00 AM 0.55 32.99 0.307 7.52 140.16 13.9
12/25/2020 1:00:00 AM 0.6 33.08 0.308 7.5 181.28 13.85
12/25/2020 1:15:00 AM 0.67 33.206 0.308 7.49 321.67 13.79
12/25/2020 1:30:00 AM 0.69 33.242 0.31 7.47 258.31 13.75
12/25/2020 1:45:00 AM 0.71 33.278 0.314 7.44 231.98 13.69
12/25/2020 2:00:00 AM 0.78 33.404 0.316 7.43 330.2 13.65
12/25/2020 2:15:00 AM 0.79 33.422 0.315 7.41 604.98 13.61
12/25/2020 2:30:00 AM 0.81 33.458 0.312 7.39 349.73 13.6
12/25/2020 2:45:00 AM 0.89 33.602 0.303 7.4 642.66 13.57
12/25/2020 3:00:00 AM 0.95 33.71 0.29 7.36 5652.65 13.59
12/25/2020 3:15:00 AM 1.01 33.818 0.282 7.36 400.3 13.58
12/25/2020 3:30:00 AM 1.08 33.944 0.277 7.37 418.49 13.56
12/25/2020 3:45:00 AM 1.15 34.07 0.272 7.37 334.19 13.53
12/25/2020 4:00:00 AM 1.19 34.142 0.264 7.37 365.63 13.52
12/25/2020 4:15:00 AM 1.22 34.196 0.255 7.39 333.17 13.5
12/25/2020 4:30:00 AM 1.21 34.178 0.245 7.4 379.26 13.48
12/25/2020 4:45:00 AM 1.23 34.214 0.236 7.4 322.31 13.47
12/25/2020 5:00:00 AM 1.26 34.268 0.227 7.41 309.99 13.46
12/25/2020 5:15:00 AM 1.28 34.304 0.125 7.41 360.2 13.46
12/25/2020 5:30:00 AM 1.32 34.376 0.212 7.41 336.85 13.46
12/25/2020 5:45:00 AM 1.35 34.43 0.205 7.43 418.67 13.47
12/25/2020 6:00:00 AM 1.36 34.448 0.198 7.42 418.2 13.48
12/25/2020 6:15:00 AM 1.34 34.412 0.193 7.43 338.52 13.5
12/25/2020 6:30:00 AM 1.31 34.358 0.163 7.44 354.55 13.5
12/25/2020 6:45:00 AM 1.24 34.232 0.185 7.45 366.05 13.51
12/25/2020 7:00:00 AM 1.14 34.052 0.182 7.47 366.17 13.52
12/25/2020 7:15:00 AM 1.06 33.908 0.152 7.49 391.69 13.52
12/25/2020 7:30:00 AM 1 33.8 0.181 7.51 415.61 13.53
12/25/2020 7:45:00 AM 0.98 33.764 0.178 7.53 556.9 13.53
12/25/2020 8:00:00 AM 1 33.8 0.176 7.55 592.56 13.54
12/25/2020 8:15:00 AM 1.03 33.854 0.174 7.54 532.21 13.55
12/25/2020 8:30:00 AM 1.05 33.89 0.161 7.55 582.16 13.55
12/25/2020 8:45:00 AM 1.07 33.926 0.158 7.53 570.29 13.56
12/25/2020 9:00:00 AM 1.09 33.962 0.156 7.52 498.34 13.56
12/25/2020 9:15:00 AM 1.1 33.98 0.125 7.51 725.18 13.58
12/25/2020 9:30:00 AM 1.12 34.016 0.15 7.47 545.34 13.58
12/25/2020 9:45:00 AM 1.15 34.07 0.147 7.48 745.96 13.59
12/25/2020 10:00:00 AM 1.17 34.106 0.145 7.48 532.22 13.58
12/25/2020 10:15:00 AM 1.19 34.142 0.131 7.47 853.91 13.58
12/25/2020 10:30:00 AM 1.22 34.196 0.145 7.45 915.49 13.58
12/25/2020 10:45:00 AM 1.24 34.232 0.143 7.44 636.4 13.57
12/25/2020 11:00:00 AM 1.25 34.25 0.144 7.44 626.87 13.56
12/25/2020 11:15:00 AM 1.25 34.25 0.152 7.41 536.6 13.56
12/25/2020 11:30:00 AM 1.25 34.25 0.148 7.4 671.8 13.55
12/25/2020 11:45:00 AM 1.24 34.232 0.139 7.41 10033.18 13.56
12/25/2020 12:00:00 PM 1.25 34.25 0.132 7.4 492.75 13.56
12/25/2020 12:15:00 PM 1.27 34.286 0.111 7.39 477.73 13.55
12/25/2020 12:30:00 PM 1.29 34.322 0.093 7.38 516.78 13.55
12/25/2020 12:45:00 PM 1.31 34.358 0.072 7.38 693.88 13.56
12/25/2020 1:00:00 PM 1.34 34.412 0.132 7.36 623.17 13.54
12/25/2020 1:15:00 PM 1.37 34.466 0.135 7.34 493.17 13.54
12/25/2020 1:30:00 PM 1.39 34.502 0.118 7.36 397.41 13.53
12/25/2020 1:45:00 PM 1.42 34.556 0.144 7.34 491.04 13.52
12/25/2020 2:00:00 PM 1.45 34.61 0.148 7.33 445.28 13.52
12/25/2020 2:15:00 PM 1.47 34.646 0.148 7.34 469.38 13.5
12/25/2020 2:30:00 PM 1.5 34.7 0.15 7.33 301.12 13.5
12/25/2020 2:45:00 PM 1.53 34.754 0.149 7.33 350.55 13.49
12/25/2020 3:00:00 PM 1.56 34.808 0.15 7.31 307.38 13.49
12/25/2020 3:15:00 PM 1.58 34.844 0.158 7.33 290.44 13.48
12/25/2020 3:30:00 PM 1.6 34.88 0.145 7.32 279.47 13.47
12/25/2020 3:45:00 PM 1.63 34.934 0.089 7.31 296.13 13.47
12/25/2020 4:00:00 PM 1.65 34.97 0.153 7.32 236 13.46
12/25/2020 4:15:00 PM 1.66 34.988 0.151 7.32 226.73 13.46
12/25/2020 4:30:00 PM 1.68 35.024 0.145 7.32 279.13 13.46
12/25/2020 4:45:00 PM 1.7 35.06 0.15 7.32 233.73 13.45
12/25/2020 5:00:00 PM 1.71 35.078 0.106 7.33 273.59 13.45
12/25/2020 5:15:00 PM 1.73 35.114 0.136 7.33 243.73 13.44
12/25/2020 5:30:00 PM 1.75 35.15 0.153 7.34 175.49 13.44
12/25/2020 5:45:00 PM 1.77 35.186 0.15 7.33 283.89 13.43
12/25/2020 6:00:00 PM 1.78 35.204 0.145 7.34 216.37 13.42
12/25/2020 6:15:00 PM 1.8 35.24 0.165 7.34 254.68 13.42
12/25/2020 6:30:00 PM 1.82 35.276 0.156 7.35 251.98 13.4
12/25/2020 6:45:00 PM 1.84 35.312 0.167 7.35 216.01 13.4
12/25/2020 7:00:00 PM 1.85 35.33 0.157 7.35 208.67 13.39
12/25/2020 7:15:00 PM 1.87 35.366 0.168 7.36 192.28 13.38
12/25/2020 7:30:00 PM 1.88 35.384 0.159 7.36 224.26 13.38
12/25/2020 7:45:00 PM 1.88 35.384 0.17 7.35 181.8 13.37
12/25/2020 8:00:00 PM 1.89 35.402 0.161 7.36 208.11 13.37
12/25/2020 8:15:00 PM 1.89 35.402 0.171 7.36 201.9 13.37
12/25/2020 8:30:00 PM 1.89 35.402 0.172 7.35 170.42 13.37
12/25/2020 8:45:00 PM 1.89 35.402 0.172 7.35 171.06 13.36
12/25/2020 9:00:00 PM 1.88 35.384 0.173 7.35 197.58 13.37
12/25/2020 9:15:00 PM 1.88 35.384 0.175 7.35 202.17 13.37
12/25/2020 9:30:00 PM 1.87 35.366 0.175 7.34 176.92 13.37
12/25/2020 9:45:00 PM 1.87 35.366 0.176 7.34 128.38 13.37
12/25/2020 10:00:00 PM 1.86 35.348 0.177 7.33 156.17 13.38
12/25/2020 10:15:00 PM 1.86 35.348 0.178 7.33 154.53 13.39
12/25/2020 10:30:00 PM 1.85 35.33 0.179 7.32 134.15 13.4
12/25/2020 10:45:00 PM 1.84 35.312 0.179 7.32 156.9 13.4
12/25/2020 11:00:00 PM 1.83 35.294 0.18 7.31 128.96 13.42
12/25/2020 11:15:00 PM 1.82 35.276 0.18 7.3 134.1 13.42
12/25/2020 11:30:00 PM 1.81 35.258 0.181 7.31 126.84 13.43
12/25/2020 11:45:00 PM 1.8 35.24 0.182 7.3 155.04 13.45
12/26/2020 12:00:00 AM 1.79 35.222 0.182 7.29 125.78 13.46
12/26/2020 12:15:00 AM 1.78 35.204 0.183 7.29 113.29 13.47
12/26/2020 12:30:00 AM 1.76 35.168 0.183 7.28 132.12 13.48
12/26/2020 12:45:00 AM 1.75 35.15 0.183 7.27 120.49 13.49
12/26/2020 1:00:00 AM 1.73 35.114 0.184 7.27 124.83 13.51
12/26/2020 1:15:00 AM 1.72 35.096 0.185 7.27 130.07 13.52
12/26/2020 1:30:00 AM 1.71 35.078 0.185 7.26 107 13.53
12/26/2020 1:45:00 AM 1.69 35.042 0.186 7.25 92.33 13.55
12/26/2020 2:00:00 AM 1.68 35.024 0.186 7.25 107.49 13.56
12/26/2020 2:15:00 AM 1.66 34.988 0.187 7.25 102.28 13.58
12/26/2020 2:30:00 AM 1.64 34.952 0.189 7.25 156.44 13.6
12/26/2020 2:45:00 AM 1.62 34.916 0.188 7.24 138.62 13.61
12/26/2020 3:00:00 AM 1.6 34.88 0.188 7.24 116.99 13.63
12/26/2020 3:15:00 AM 1.57 34.826 0.164 7.24 99.48 13.64
12/26/2020 3:30:00 AM 1.55 34.79 0.191 7.24 83.37 13.66
12/26/2020 3:45:00 AM 1.53 34.754 0.189 7.23 124.99 13.67
12/26/2020 4:00:00 AM 1.5 34.7 0.19 7.23 110.26 13.68
12/26/2020 4:15:00 AM 1.48 34.664 0.19 7.23 93.69 13.69
12/26/2020 4:30:00 AM 1.46 34.628 0.19 7.22 91.55 13.7
12/26/2020 4:45:00 AM 1.45 34.61 0.191 7.23 86.62 13.72
12/26/2020 5:00:00 AM 1.43 34.574 0.19 7.22 84.84 13.73
12/26/2020 5:15:00 AM 1.41 34.538 0.191 7.22 85.7 13.74
12/26/2020 5:30:00 AM 1.39 34.502 0.191 7.22 71.37 13.75
12/26/2020 5:45:00 AM 1.37 34.466 0.193 7.22 85.29 13.76
12/26/2020 6:00:00 AM 1.35 34.43 0.191 7.22 69.82 13.77
12/26/2020 6:15:00 AM 1.33 34.394 0.191 7.21 77.77 13.79
12/26/2020 6:30:00 AM 1.3 34.34 0.191 7.21 72.16 13.81
12/26/2020 6:45:00 AM 1.28 34.304 0.191 7.21 92.72 13.82
12/26/2020 7:00:00 AM 1.25 34.25 0.191 7.21 68.07 13.84
12/26/2020 7:15:00 AM 1.23 34.214 0.191 7.21 86.68 13.86
12/26/2020 7:30:00 AM 1.2 34.16 0.191 7.2 82.46 13.89
12/26/2020 7:45:00 AM 1.17 34.106 0.19 7.2 93.61 13.9
12/26/2020 8:00:00 AM 1.14 34.052 0.19 7.2 92.43 13.93
12/26/2020 8:15:00 AM 1.11 33.998 0.189 7.2 76.85 13.95
12/26/2020 8:30:00 AM 1.09 33.962 0.188 7.19 102.19 13.97
12/26/2020 8:45:00 AM 1.06 33.908 0.188 7.19 72.16 13.99
12/26/2020 9:00:00 AM 1.03 33.854 0.187 7.19 144.11 14.01
12/26/2020 9:15:00 AM 1.01 33.818 0.187 7.19 88.23 14.03
12/26/2020 9:30:00 AM 0.98 33.764 0.186 7.19 85.67 14.05
12/26/2020 9:45:00 AM 0.96 33.728 0.186 7.19 77.63 14.06
12/26/2020 10:00:00 AM 0.94 33.692 0.185 7.19 84.6 14.08
12/26/2020 10:15:00 AM 0.93 33.674 0.185 7.19 135.79 14.08
12/26/2020 10:30:00 AM 0.91 33.638 0.185 7.19 92.48 14.1
12/26/2020 10:45:00 AM 0.89 33.602 0.184 7.19 105.88 14.11
12/26/2020 11:00:00 AM 0.88 33.584 0.183 7.19 123.84 14.13
12/26/2020 11:15:00 AM 0.88 33.584 0.183 7.19 99.63 14.13
12/26/2020 11:30:00 AM 0.88 33.584 0.183 7.19 132.6 14.15
12/26/2020 11:45:00 AM 0.88 33.584 0.183 7.18 87.18 14.16
12/26/2020 12:00:00 PM 0.88 33.584 0.183 7.18 110.95 14.17
12/26/2020 12:15:00 PM 0.88 33.584 0.182 7.19 106.27 14.17
12/26/2020 12:30:00 PM 0.88 33.584 0.182 7.18 89.46 14.19
12/26/2020 12:45:00 PM 0.89 33.602 0.182 7.18 106.36 14.19
12/26/2020 1:00:00 PM 0.89 33.602 0.182 7.18 82.35 14.2
12/26/2020 1:15:00 PM 0.9 33.62 0.181 7.18 100.1 14.2
12/26/2020 1:30:00 PM 0.9 33.62 0.181 7.18 143.1 14.21
12/26/2020 1:45:00 PM 0.91 33.638 0.14 7.16 85.58 14.22
12/26/2020 2:00:00 PM 0.91 33.638 0.125 7.17 146.16 14.22
12/26/2020 2:15:00 PM 0.91 33.638 0.123 7.18 97.08 14.22
12/26/2020 2:30:00 PM 0.91 33.638 0.121 7.17 75.8 14.23
12/26/2020 2:45:00 PM 0.91 33.638 0.119 7.17 150.8 14.25
12/26/2020 3:00:00 PM 0.9 33.62 0.12 7.17 131.62 14.24
12/26/2020 3:15:00 PM 0.9 33.62 0.12 7.17 134.56 14.25
12/26/2020 3:30:00 PM 0.9 33.62 0.121 7.17 74.62 14.26
12/26/2020 3:45:00 PM 0.89 33.602 0.123 7.17 120.91 14.25
12/26/2020 4:00:00 PM 0.9 33.62 0.124 7.17 85.63 14.27
12/26/2020 4:15:00 PM 0.89 33.602 0.125 7.17 127.07 14.27
12/26/2020 4:30:00 PM 0.89 33.602 0.127 7.17 114.17 14.28
12/26/2020 4:45:00 PM 0.89 33.602 0.133 7.17 106.12 14.29
12/26/2020 5:00:00 PM 0.89 33.602 0.134 7.17 85.5 14.29
12/26/2020 5:15:00 PM 0.9 33.62 0.135 7.17 89.6 14.29
12/26/2020 5:30:00 PM 0.89 33.602 0.136 7.17 104 14.3
12/26/2020 5:45:00 PM 0.89 33.602 0.137 7.17 95.53 14.31
12/26/2020 6:00:00 PM 0.89 33.602 0.138 7.17 89.35 14.32
12/26/2020 6:15:00 PM 0.89 33.602 0.139 7.17 115.89 14.33
12/26/2020 6:30:00 PM 0.89 33.602 0.14 7.17 116.43 14.33
12/26/2020 6:45:00 PM 0.89 33.602 0.141 7.18 87.97 14.33
12/26/2020 7:00:00 PM 0.89 33.602 0.141 7.18 77.72 14.34
12/26/2020 7:15:00 PM 0.9 33.62 0.142 7.18 83.14 14.35
12/26/2020 7:30:00 PM 0.9 33.62 0.142 7.19 97.04 14.35
12/26/2020 7:45:00 PM 0.91 33.638 0.143 7.18 105.88 14.35
12/26/2020 8:00:00 PM 0.92 33.656 0.145 7.19 80.62 14.37
12/26/2020 8:15:00 PM 0.93 33.674 0.145 7.19 83.08 14.38
12/26/2020 8:30:00 PM 0.93 33.674 0.144 7.19 106.57 14.39
12/26/2020 8:45:00 PM 0.94 33.692 0.146 7.19 94.06 14.39
12/26/2020 9:00:00 PM 0.94 33.692 0.146 7.19 86.52 14.4
12/26/2020 9:15:00 PM 0.94 33.692 0.146 7.19 80.46 14.4
12/26/2020 9:30:00 PM 0.94 33.692 0.144 7.19 89.58 14.41
12/26/2020 9:45:00 PM 0.94 33.692 0.143 7.19 100.35 14.42
12/26/2020 10:00:00 PM 0.94 33.692 0.139 7.19 138.78 14.42
12/26/2020 10:15:00 PM 0.94 33.692 0.146 7.18 173.07 14.43
12/26/2020 10:30:00 PM 0.94 33.692 0.145 7.18 97.19 14.44
12/26/2020 10:45:00 PM 0.93 33.674 0.146 7.18 103.36 14.45
12/26/2020 11:00:00 PM 0.93 33.674 0.147 7.17 96.42 14.46
12/26/2020 11:15:00 PM 0.93 33.674 0.145 7.17 94.98 14.46
12/26/2020 11:30:00 PM 0.92 33.656 0.146 7.17 120.53 14.46
12/26/2020 11:45:00 PM 0.92 33.656 0.145 7.17 141.48 14.47
12/27/2020 12:00:00 AM 0.92 33.656 0.146 7.17 99.01 14.47
12/27/2020 12:15:00 AM 0.91 33.638 0.146 7.17 97.44 14.47
12/27/2020 12:30:00 AM 0.91 33.638 0.147 7.17 113.07 14.48
12/27/2020 12:45:00 AM 0.91 33.638 0.147 7.16 100.68 14.49
12/27/2020 1:00:00 AM 0.91 33.638 0.146 7.17 85.46 14.48
12/27/2020 1:15:00 AM 0.91 33.638 0.146 7.16 101.67 14.49
12/27/2020 1:30:00 AM 0.9 33.62 0.143 7.16 96.81 14.5
12/27/2020 1:45:00 AM 0.9 33.62 0.145 7.17 106.32 14.5
12/27/2020 2:00:00 AM 0.9 33.62 0.145 7.17 114.05 14.51
12/27/2020 2:15:00 AM 0.9 33.62 0.122 7.16 91.6 14.51
12/27/2020 2:30:00 AM 0.9 33.62 0.132 7.16 167.67 14.52
12/27/2020 2:45:00 AM 0.89 33.602 0.121 7.16 112.08 14.52
12/27/2020 3:00:00 AM 0.89 33.602 0.127 7.16 126.58 14.53
12/27/2020 3:15:00 AM 0.89 33.602 0.135 7.16 193.24 14.52
12/27/2020 3:30:00 AM 0.88 33.584 0.138 7.16 96.52 14.53
12/27/2020 3:45:00 AM 0.88 33.584 0.139 7.16 95.99 14.54
12/27/2020 4:00:00 AM 0.88 33.584 0.142 7.16 120.43 14.54
12/27/2020 4:15:00 AM 0.88 33.584 0.145 7.16 115.83 14.54
12/27/2020 4:30:00 AM 0.88 33.584 0.144 7.16 108.97 14.56
12/27/2020 4:45:00 AM 0.88 33.584 0.145 7.16 119.96 14.55
12/27/2020 5:00:00 AM 0.88 33.584 0.14 7.16 80.88 14.56
12/27/2020 5:15:00 AM 0.88 33.584 0.139 7.16 105.65 14.56
12/27/2020 5:30:00 AM 0.88 33.584 0.141 7.16 117.71 14.57
12/27/2020 5:45:00 AM 0.88 33.584 0.144 7.16 99.09 14.57
12/27/2020 6:00:00 AM 0.88 33.584 0.144 7.16 89.29 14.58
12/27/2020 6:15:00 AM 0.88 33.584 0.145 7.16 106.81 14.58
12/27/2020 6:30:00 AM 0.88 33.584 0.127 7.17 103.22 14.58
12/27/2020 6:45:00 AM 0.88 33.584 0.145 7.16 124.86 14.59
12/27/2020 7:00:00 AM 0.88 33.584 0.145 7.16 122.27 14.6
12/27/2020 7:15:00 AM 0.88 33.584 0.145 7.17 127.54 14.59
12/27/2020 7:30:00 AM 0.88 33.584 0.146 7.16 122.33 14.6
12/27/2020 7:45:00 AM 0.88 33.584 0.144 7.16 110.4 14.6
12/27/2020 8:00:00 AM 0.89 33.602 0.132 7.16 144.31 14.6
12/27/2020 8:15:00 AM 0.89 33.602 0.124 7.16 92.99 14.61
12/27/2020 8:30:00 AM 0.89 33.602 0.13 7.17 111.62 14.6
12/27/2020 8:45:00 AM 0.9 33.62 0.125 7.16 78.12 14.61
12/27/2020 9:00:00 AM 0.9 33.62 0.128 7.16 92.79 14.62
12/27/2020 9:15:00 AM 0.91 33.638 0.127 7.16 90.59 14.63
12/27/2020 9:30:00 AM 0.91 33.638 0.129 7.17 129.12 14.62
12/27/2020 9:45:00 AM 0.92 33.656 0.128 7.16 75.13 14.64
12/27/2020 10:00:00 AM 0.93 33.674 0.127 7.16 110.57 14.63
12/27/2020 10:15:00 AM 0.94 33.692 0.129 7.17 78.9 14.63
12/27/2020 10:30:00 AM 0.96 33.728 0.125 7.16 82.14 14.64
12/27/2020 10:45:00 AM 0.98 33.764 0.134 7.17 87.32 14.64
12/27/2020 11:00:00 AM 1 33.8 0.128 7.17 125 14.63
12/27/2020 11:15:00 AM 1.02 33.836 0.127 7.17 129.79 14.64
12/27/2020 11:30:00 AM 1.04 33.872 0.128 7.16 95.34 14.64
12/27/2020 11:45:00 AM 1.05 33.89 0.133 7.17 99.76 14.64
12/27/2020 12:00:00 PM 1.07 33.926 0.133 7.17 91.98 14.64
12/27/2020 12:15:00 PM 1.09 33.962 0.135 7.17 117.23 14.65
12/27/2020 12:30:00 PM 1.12 34.016 0.135 7.17 86.72 14.64
12/27/2020 12:45:00 PM 1.13 34.034 0.134 7.17 113.92 14.64
12/27/2020 1:00:00 PM 1.14 34.052 0.135 7.17 147.81 14.64
12/27/2020 1:15:00 PM 1.16 34.088 0.136 7.17 106.67 14.65
12/27/2020 1:30:00 PM 1.17 34.106 0.137 7.17 89.88 14.63
12/27/2020 1:45:00 PM 1.19 34.142 0.137 7.17 109.11 14.64
12/27/2020 2:00:00 PM 1.2 34.16 0.138 7.17 99.55 14.64
12/27/2020 2:15:00 PM 1.21 34.178 0.138 7.17 102.66 14.64
12/27/2020 2:30:00 PM 1.23 34.214 0.14 7.17 119.36 14.63
12/27/2020 2:45:00 PM 1.24 34.232 0.138 7.17 87.53 14.63
12/27/2020 3:00:00 PM 1.25 34.25 0.133 7.17 96.26 14.63
12/27/2020 3:15:00 PM 1.26 34.268 0.138 7.17 127.92 14.63
12/27/2020 3:30:00 PM 1.27 34.286 0.138 7.17 92.49 14.63
12/27/2020 3:45:00 PM 1.29 34.322 0.138 7.17 84.18 14.63
12/27/2020 4:00:00 PM 1.3 34.34 0.133 7.17 144.83 14.63
12/27/2020 4:15:00 PM 1.31 34.358 0.132 7.17 103.3 14.63
12/27/2020 4:30:00 PM 1.32 34.376 0.136 7.18 111.88 14.63
12/27/2020 4:45:00 PM 1.33 34.394 0.101 7.17 134.7 14.63
12/27/2020 5:00:00 PM 1.33 34.394 0.104 7.18 102.17 14.63
12/27/2020 5:15:00 PM 1.34 34.412 0.103 7.18 132.73 14.61
12/27/2020 5:30:00 PM 1.34 34.412 0.102 7.17 386.19 14.63
12/27/2020 5:45:00 PM 1.34 34.412 0.108 7.17 204.62 14.63
12/27/2020 6:00:00 PM 1.34 34.412 0.112 7.18 463.82 14.62
12/27/2020 6:15:00 PM 1.33 34.394 0.115 7.18 205.84 14.62
12/27/2020 6:30:00 PM 1.33 34.394 0.114 7.18 180.44 14.62
12/27/2020 6:45:00 PM 1.32 34.376 0.111 7.18 126.81 14.62
12/27/2020 7:00:00 PM 1.32 34.376 0.111 7.18 920.15 14.63
12/27/2020 7:15:00 PM 1.31 34.358 0.112 7.18 146.13 14.62
12/27/2020 7:30:00 PM 1.31 34.358 0.114 7.18 12041.45 14.62
12/27/2020 7:45:00 PM 1.3 34.34 0.115 7.18 9901.88 14.63
12/27/2020 8:00:00 PM 1.3 34.34 0.104 7.18 6292.82 14.63
12/27/2020 8:15:00 PM 1.29 34.322 0.105 7.18 92.48 14.63
12/27/2020 8:30:00 PM 1.29 34.322 0.105 7.18 147.14 14.63
12/27/2020 8:45:00 PM 1.28 34.304 0.125 7.19 96.63 14.63
12/27/2020 9:00:00 PM 1.28 34.304 0.114 7.18 12486.9 14.62
12/27/2020 9:15:00 PM 1.27 34.286 0.112 7.18 114.51 14.62
12/27/2020 9:30:00 PM 1.27 34.286 0.103 7.18 84.35 14.63
12/27/2020 9:45:00 PM 1.26 34.268 0.111 7.19 9126.51 14.62
12/27/2020 10:00:00 PM 1.26 34.268 0.109 7.18 183.91 14.63
12/27/2020 10:15:00 PM 1.26 34.268 0.105 7.18 109.21 14.63
12/27/2020 10:30:00 PM 1.25 34.25 0.105 7.18 122.54 14.62
12/27/2020 10:45:00 PM 1.25 34.25 0.105 7.18 137.86 14.61
12/27/2020 11:00:00 PM 1.25 34.25 0.106 7.18 114.39 14.63
12/27/2020 11:15:00 PM 1.25 34.25 0.107 7.18 606.33 14.62
12/27/2020 11:30:00 PM 1.25 34.25 0.111 7.18 176.37 14.61
12/27/2020 11:45:00 PM 1.25 34.25 0.111 7.2 141.96 14.61
12/28/2020 12:00:00 AM 1.25 34.25 0.11 7.21 130.54 14.6
12/28/2020 12:15:00 AM 1.25 34.25 0.11 7.18 151.52 14.61
12/28/2020 12:30:00 AM 1.24 34.232 0.113 7.18 94.07 14.62
12/28/2020 12:45:00 AM 1.24 34.232 0.11 7.18 2243.13 14.6
12/28/2020 1:00:00 AM 1.24 34.232 0.103 7.18 109.93 14.62
12/28/2020 1:15:00 AM 1.23 34.214 0.115 7.18 108.9 14.6
12/28/2020 1:30:00 AM 1.23 34.214 0.117 7.18 121.47 14.6
12/28/2020 1:45:00 AM 1.22 34.196 0.107 7.18 130.54 14.59
12/28/2020 2:00:00 AM 1.22 34.196 0.11 7.18 114.55 14.61
12/28/2020 2:15:00 AM 1.21 34.178 0.116 7.18 122.28 14.59
12/28/2020 2:30:00 AM 1.2 34.16 0.102 7.18 138.76 14.6
12/28/2020 2:45:00 AM 1.2 34.16 0.101 7.18 124.8 14.61
12/28/2020 3:00:00 AM 1.19 34.142 0.1 7.17 129.91 14.61
12/28/2020 3:15:00 AM 1.18 34.124 0.098 7.18 107.87 14.61
12/28/2020 3:30:00 AM 1.18 34.124 0.098 7.17 136.95 14.62
12/28/2020 3:45:00 AM 1.17 34.106 0.098 7.17 123.17 14.62
12/28/2020 4:00:00 AM 1.16 34.088 0.096 7.17 130.61 14.61
12/28/2020 4:15:00 AM 1.15 34.07 0.097 7.17 130.95 14.62
12/28/2020 4:30:00 AM 1.15 34.07 0.1 7.17 253.5 14.62
12/28/2020 4:45:00 AM 1.14 34.052 0.099 7.17 119.78 14.63
12/28/2020 5:00:00 AM 1.14 34.052 0.098 7.18 122.82 14.62
12/28/2020 5:15:00 AM 1.14 34.052 0.095 7.18 130.56 14.64
12/28/2020 5:30:00 AM 1.13 34.034 0.111 7.17 128.51 14.64
12/28/2020 5:45:00 AM 1.13 34.034 0.114 7.17 138.76 14.63
12/28/2020 6:00:00 AM 1.11 33.998 0.116 7.17 127.84 14.64
12/28/2020 6:15:00 AM 1.11 33.998 0.118 7.17 156.65 14.64
12/28/2020 6:30:00 AM 1.11 33.998 0.121 7.17 156.61 14.64
12/28/2020 6:45:00 AM 1.11 33.998 0.124 7.17 150.82 14.65
12/28/2020 7:00:00 AM 1.11 33.998 0.124 7.17 143.13 14.64
12/28/2020 7:15:00 AM 1.11 33.998 0.125 7.17 131.32 14.63
12/28/2020 7:30:00 AM 1.1 33.98 0.127 7.17 148.48 14.64
12/28/2020 7:45:00 AM 1.1 33.98 0.132 7.17 145.49 14.64
12/28/2020 8:00:00 AM 1.1 33.98 0.125 7.17 128.92 14.64
12/28/2020 8:15:00 AM 1.11 33.998 0.129 7.17 141.64 14.64
12/28/2020 8:30:00 AM 1.11 33.998 0.131 7.17 169.15 14.64
12/28/2020 8:45:00 AM 1.11 33.998 0.12 7.17 171.62 14.64
12/28/2020 9:00:00 AM 1.11 33.998 0.142 7.17 172.66 14.63
12/28/2020 9:15:00 AM 1.12 34.016 0.146